<?xml version="1.0" encoding="UTF-8"?>
<gpx version="1.1" creator="https://www.youtrack.es" xsi:schemaLocation="http://www.topografix.com/GPX/1/1 http://www.topografix.com/GPX/1/1/gpx.xsd http://www.garmin.com/xmlschemas/GpxExtensions/v3 http://www.garmin.com/xmlschemas/GpxExtensionsv3.xsd http://www.garmin.com/xmlschemas/TrackPointExtension/v1 http://www.garmin.com/xmlschemas/TrackPointExtensionv1.xsd" xmlns:gpxtpx="http://www.garmin.com/xmlschemas/TrackPointExtension/v1" xmlns:gpxx="http://www.garmin.com/xmlschemas/GpxExtensions/v3" xmlns:xsi="http://www.w3.org/2001/XMLSchema-instance">
  <metadata>
    <link href="https://www.youtrack.es">
      <text>YouTrack.es</text>
    </link>
    <time>2026-05-10T11:43:38Z</time>
  </metadata>
  <trk>
    <src>https://www.youtrack.es</src>
    <link href="https://www.youtrack.es/ruta/40121-posets">
      <text>YouTrack.es</text>
    </link>
    <trkseg>
      <trkpt lat="42.613885" lon="0.478424">
        <ele>1531</ele>
        <time>2022-08-23T12:58:00Z</time>
      </trkpt>
      <trkpt lat="42.613882" lon="0.478445">
        <ele>1531</ele>
        <time>2022-08-23T12:58:04Z</time>
      </trkpt>
      <trkpt lat="42.613883" lon="0.47832">
        <ele>1531.896</ele>
        <time>2022-08-23T13:01:20Z</time>
      </trkpt>
      <trkpt lat="42.613852" lon="0.478435">
        <ele>1531.8</ele>
        <time>2022-08-23T13:02:13Z</time>
      </trkpt>
      <trkpt lat="42.613945" lon="0.478417">
        <ele>1532.2</ele>
        <time>2022-08-23T13:02:24Z</time>
      </trkpt>
      <trkpt lat="42.614045" lon="0.47842">
        <ele>1532.7</ele>
        <time>2022-08-23T13:02:32Z</time>
      </trkpt>
      <trkpt lat="42.614082" lon="0.478538">
        <ele>1534.7</ele>
        <time>2022-08-23T13:02:45Z</time>
      </trkpt>
      <trkpt lat="42.614178" lon="0.478524">
        <ele>1536.4</ele>
        <time>2022-08-23T13:02:59Z</time>
      </trkpt>
      <trkpt lat="42.614258" lon="0.478467">
        <ele>1538.2</ele>
        <time>2022-08-23T13:03:18Z</time>
      </trkpt>
      <trkpt lat="42.614349" lon="0.478384">
        <ele>1539.6</ele>
        <time>2022-08-23T13:03:34Z</time>
      </trkpt>
      <trkpt lat="42.614439" lon="0.478327">
        <ele>1540.5</ele>
        <time>2022-08-23T13:03:42Z</time>
      </trkpt>
      <trkpt lat="42.614529" lon="0.478296">
        <ele>1541.4</ele>
        <time>2022-08-23T13:03:51Z</time>
      </trkpt>
      <trkpt lat="42.614621" lon="0.478249">
        <ele>1542.4</ele>
        <time>2022-08-23T13:04:00Z</time>
      </trkpt>
      <trkpt lat="42.614722" lon="0.478237">
        <ele>1544.3</ele>
        <time>2022-08-23T13:04:17Z</time>
      </trkpt>
      <trkpt lat="42.614811" lon="0.478222">
        <ele>1545.8</ele>
        <time>2022-08-23T13:04:30Z</time>
      </trkpt>
      <trkpt lat="42.614901" lon="0.478197">
        <ele>1547</ele>
        <time>2022-08-23T13:04:39Z</time>
      </trkpt>
      <trkpt lat="42.614989" lon="0.47816">
        <ele>1548.8</ele>
        <time>2022-08-23T13:04:53Z</time>
      </trkpt>
      <trkpt lat="42.615083" lon="0.478132">
        <ele>1549.9</ele>
        <time>2022-08-23T13:05:02Z</time>
      </trkpt>
      <trkpt lat="42.615175" lon="0.478125">
        <ele>1551</ele>
        <time>2022-08-23T13:05:14Z</time>
      </trkpt>
      <trkpt lat="42.615267" lon="0.478138">
        <ele>1551.5</ele>
        <time>2022-08-23T13:05:23Z</time>
      </trkpt>
      <trkpt lat="42.615183" lon="0.478196">
        <ele>1551.5</ele>
        <time>2022-08-23T13:06:19Z</time>
      </trkpt>
      <trkpt lat="42.615274" lon="0.478144">
        <ele>1551.7</ele>
        <time>2022-08-23T13:07:25Z</time>
      </trkpt>
      <trkpt lat="42.615341" lon="0.478233">
        <ele>1553</ele>
        <time>2022-08-23T13:08:53Z</time>
      </trkpt>
      <trkpt lat="42.615433" lon="0.47821">
        <ele>1553.7</ele>
        <time>2022-08-23T13:09:00Z</time>
      </trkpt>
      <trkpt lat="42.615531" lon="0.478184">
        <ele>1555</ele>
        <time>2022-08-23T13:09:12Z</time>
      </trkpt>
      <trkpt lat="42.615622" lon="0.478212">
        <ele>1555.9</ele>
        <time>2022-08-23T13:09:22Z</time>
      </trkpt>
      <trkpt lat="42.615722" lon="0.478202">
        <ele>1557.2</ele>
        <time>2022-08-23T13:09:39Z</time>
      </trkpt>
      <trkpt lat="42.615756" lon="0.478085">
        <ele>1563.5</ele>
        <time>2022-08-23T13:10:31Z</time>
      </trkpt>
      <trkpt lat="42.615742" lon="0.477959">
        <ele>1566</ele>
        <time>2022-08-23T13:10:46Z</time>
      </trkpt>
      <trkpt lat="42.615725" lon="0.477832">
        <ele>1568.8</ele>
        <time>2022-08-23T13:11:04Z</time>
      </trkpt>
      <trkpt lat="42.615709" lon="0.477709">
        <ele>1572.1</ele>
        <time>2022-08-23T13:11:28Z</time>
      </trkpt>
      <trkpt lat="42.615742" lon="0.477593">
        <ele>1574.6</ele>
        <time>2022-08-23T13:11:44Z</time>
      </trkpt>
      <trkpt lat="42.615812" lon="0.47768">
        <ele>1578.2</ele>
        <time>2022-08-23T13:12:07Z</time>
      </trkpt>
      <trkpt lat="42.615883" lon="0.477763">
        <ele>1580.5</ele>
        <time>2022-08-23T13:12:23Z</time>
      </trkpt>
      <trkpt lat="42.615962" lon="0.477834">
        <ele>1582.7</ele>
        <time>2022-08-23T13:12:39Z</time>
      </trkpt>
      <trkpt lat="42.61605" lon="0.477898">
        <ele>1585</ele>
        <time>2022-08-23T13:12:52Z</time>
      </trkpt>
      <trkpt lat="42.616097" lon="0.478006">
        <ele>1587.8</ele>
        <time>2022-08-23T13:13:10Z</time>
      </trkpt>
      <trkpt lat="42.616157" lon="0.478098">
        <ele>1589.2</ele>
        <time>2022-08-23T13:13:25Z</time>
      </trkpt>
      <trkpt lat="42.616244" lon="0.478144">
        <ele>1592.3</ele>
        <time>2022-08-23T13:13:46Z</time>
      </trkpt>
      <trkpt lat="42.616288" lon="0.478252">
        <ele>1594</ele>
        <time>2022-08-23T13:14:02Z</time>
      </trkpt>
      <trkpt lat="42.616347" lon="0.478345">
        <ele>1595.6</ele>
        <time>2022-08-23T13:14:15Z</time>
      </trkpt>
      <trkpt lat="42.616402" lon="0.478448">
        <ele>1597</ele>
        <time>2022-08-23T13:14:28Z</time>
      </trkpt>
      <trkpt lat="42.616483" lon="0.478513">
        <ele>1600.1</ele>
        <time>2022-08-23T13:14:52Z</time>
      </trkpt>
      <trkpt lat="42.616581" lon="0.478523">
        <ele>1602.6</ele>
        <time>2022-08-23T13:15:10Z</time>
      </trkpt>
      <trkpt lat="42.616671" lon="0.47852">
        <ele>1606.4</ele>
        <time>2022-08-23T13:15:34Z</time>
      </trkpt>
      <trkpt lat="42.616762" lon="0.47852">
        <ele>1609.5</ele>
        <time>2022-08-23T13:15:55Z</time>
      </trkpt>
      <trkpt lat="42.616836" lon="0.478594">
        <ele>1613.4</ele>
        <time>2022-08-23T13:16:17Z</time>
      </trkpt>
      <trkpt lat="42.616905" lon="0.478689">
        <ele>1616.2</ele>
        <time>2022-08-23T13:16:34Z</time>
      </trkpt>
      <trkpt lat="42.616985" lon="0.47876">
        <ele>1619.4</ele>
        <time>2022-08-23T13:16:53Z</time>
      </trkpt>
      <trkpt lat="42.617083" lon="0.478803">
        <ele>1621.2</ele>
        <time>2022-08-23T13:17:07Z</time>
      </trkpt>
      <trkpt lat="42.617082" lon="0.478673">
        <ele>1627</ele>
        <time>2022-08-23T13:17:52Z</time>
      </trkpt>
      <trkpt lat="42.617125" lon="0.478563">
        <ele>1629.4</ele>
        <time>2022-08-23T13:18:10Z</time>
      </trkpt>
      <trkpt lat="42.617144" lon="0.478442">
        <ele>1630.5</ele>
        <time>2022-08-23T13:18:22Z</time>
      </trkpt>
      <trkpt lat="42.617165" lon="0.478318">
        <ele>1635.8</ele>
        <time>2022-08-23T13:18:56Z</time>
      </trkpt>
      <trkpt lat="42.617178" lon="0.478189">
        <ele>1638.7</ele>
        <time>2022-08-23T13:19:19Z</time>
      </trkpt>
      <trkpt lat="42.617086" lon="0.478192">
        <ele>1644.4</ele>
        <time>2022-08-23T13:20:02Z</time>
      </trkpt>
      <trkpt lat="42.617069" lon="0.478068">
        <ele>1648.2</ele>
        <time>2022-08-23T13:20:27Z</time>
      </trkpt>
      <trkpt lat="42.617062" lon="0.477944">
        <ele>1652.3</ele>
        <time>2022-08-23T13:20:57Z</time>
      </trkpt>
      <trkpt lat="42.617058" lon="0.477821">
        <ele>1654.4</ele>
        <time>2022-08-23T13:21:18Z</time>
      </trkpt>
      <trkpt lat="42.617055" lon="0.477697">
        <ele>1656.8</ele>
        <time>2022-08-23T13:21:38Z</time>
      </trkpt>
      <trkpt lat="42.617055" lon="0.47757">
        <ele>1659.4</ele>
        <time>2022-08-23T13:22:05Z</time>
      </trkpt>
      <trkpt lat="42.617145" lon="0.47754">
        <ele>1659.7</ele>
        <time>2022-08-23T13:22:16Z</time>
      </trkpt>
      <trkpt lat="42.617237" lon="0.477505">
        <ele>1661.1</ele>
        <time>2022-08-23T13:22:29Z</time>
      </trkpt>
      <trkpt lat="42.617329" lon="0.477513">
        <ele>1662.8</ele>
        <time>2022-08-23T13:22:42Z</time>
      </trkpt>
      <trkpt lat="42.617424" lon="0.477494">
        <ele>1664.6</ele>
        <time>2022-08-23T13:22:57Z</time>
      </trkpt>
      <trkpt lat="42.617515" lon="0.477495">
        <ele>1665.7</ele>
        <time>2022-08-23T13:23:11Z</time>
      </trkpt>
      <trkpt lat="42.617616" lon="0.477485">
        <ele>1666.6</ele>
        <time>2022-08-23T13:23:24Z</time>
      </trkpt>
      <trkpt lat="42.617706" lon="0.477497">
        <ele>1667.5</ele>
        <time>2022-08-23T13:23:36Z</time>
      </trkpt>
      <trkpt lat="42.617796" lon="0.47753">
        <ele>1669.4</ele>
        <time>2022-08-23T13:23:54Z</time>
      </trkpt>
      <trkpt lat="42.617889" lon="0.477537">
        <ele>1670.5</ele>
        <time>2022-08-23T13:24:05Z</time>
      </trkpt>
      <trkpt lat="42.617986" lon="0.47757">
        <ele>1672.2</ele>
        <time>2022-08-23T13:24:19Z</time>
      </trkpt>
      <trkpt lat="42.618075" lon="0.47759">
        <ele>1673.4</ele>
        <time>2022-08-23T13:24:30Z</time>
      </trkpt>
      <trkpt lat="42.618105" lon="0.477713">
        <ele>1679.7</ele>
        <time>2022-08-23T13:25:33Z</time>
      </trkpt>
      <trkpt lat="42.618112" lon="0.477846">
        <ele>1680</ele>
        <time>2022-08-23T13:25:46Z</time>
      </trkpt>
      <trkpt lat="42.618064" lon="0.477987">
        <ele>1682.2</ele>
        <time>2022-08-23T13:26:02Z</time>
      </trkpt>
      <trkpt lat="42.618026" lon="0.478115">
        <ele>1682.7</ele>
        <time>2022-08-23T13:26:14Z</time>
      </trkpt>
      <trkpt lat="42.618" lon="0.478238">
        <ele>1683.5</ele>
        <time>2022-08-23T13:26:22Z</time>
      </trkpt>
      <trkpt lat="42.617989" lon="0.478362">
        <ele>1685.7</ele>
        <time>2022-08-23T13:26:38Z</time>
      </trkpt>
      <trkpt lat="42.617967" lon="0.478482">
        <ele>1688.6</ele>
        <time>2022-08-23T13:26:56Z</time>
      </trkpt>
      <trkpt lat="42.617991" lon="0.478606">
        <ele>1692.4</ele>
        <time>2022-08-23T13:27:21Z</time>
      </trkpt>
      <trkpt lat="42.617937" lon="0.478705">
        <ele>1696.7</ele>
        <time>2022-08-23T13:27:49Z</time>
      </trkpt>
      <trkpt lat="42.618027" lon="0.478722">
        <ele>1699.5</ele>
        <time>2022-08-23T13:28:05Z</time>
      </trkpt>
      <trkpt lat="42.618122" lon="0.47869">
        <ele>1702.7</ele>
        <time>2022-08-23T13:28:26Z</time>
      </trkpt>
      <trkpt lat="42.618109" lon="0.478556">
        <ele>1705</ele>
        <time>2022-08-23T13:29:24Z</time>
      </trkpt>
      <trkpt lat="42.618206" lon="0.478502">
        <ele>1710</ele>
        <time>2022-08-23T13:30:49Z</time>
      </trkpt>
      <trkpt lat="42.618281" lon="0.478432">
        <ele>1712</ele>
        <time>2022-08-23T13:30:57Z</time>
      </trkpt>
      <trkpt lat="42.618379" lon="0.478352">
        <ele>1713</ele>
        <time>2022-08-23T13:31:05Z</time>
      </trkpt>
      <trkpt lat="42.618496" lon="0.478292">
        <ele>1715.5</ele>
        <time>2022-08-23T13:31:18Z</time>
      </trkpt>
      <trkpt lat="42.618583" lon="0.478261">
        <ele>1718.5</ele>
        <time>2022-08-23T13:31:48Z</time>
      </trkpt>
      <trkpt lat="42.618674" lon="0.47828">
        <ele>1719.8</ele>
        <time>2022-08-23T13:32:19Z</time>
      </trkpt>
      <trkpt lat="42.618761" lon="0.47822">
        <ele>1719.3</ele>
        <time>2022-08-23T13:32:35Z</time>
      </trkpt>
      <trkpt lat="42.618849" lon="0.47816">
        <ele>1718.9</ele>
        <time>2022-08-23T13:32:44Z</time>
      </trkpt>
      <trkpt lat="42.618932" lon="0.478096">
        <ele>1718.7</ele>
        <time>2022-08-23T13:32:54Z</time>
      </trkpt>
      <trkpt lat="42.619014" lon="0.478037">
        <ele>1719.3</ele>
        <time>2022-08-23T13:33:07Z</time>
      </trkpt>
      <trkpt lat="42.619105" lon="0.478011">
        <ele>1720.6</ele>
        <time>2022-08-23T13:33:22Z</time>
      </trkpt>
      <trkpt lat="42.619173" lon="0.47793">
        <ele>1720.6</ele>
        <time>2022-08-23T13:33:28Z</time>
      </trkpt>
      <trkpt lat="42.619229" lon="0.477813">
        <ele>1720.2</ele>
        <time>2022-08-23T13:33:33Z</time>
      </trkpt>
      <trkpt lat="42.619308" lon="0.477712">
        <ele>1719.6</ele>
        <time>2022-08-23T13:33:38Z</time>
      </trkpt>
      <trkpt lat="42.619361" lon="0.477612">
        <ele>1718.4</ele>
        <time>2022-08-23T13:33:45Z</time>
      </trkpt>
      <trkpt lat="42.619449" lon="0.477509">
        <ele>1717</ele>
        <time>2022-08-23T13:33:56Z</time>
      </trkpt>
      <trkpt lat="42.619507" lon="0.477408">
        <ele>1716.4</ele>
        <time>2022-08-23T13:34:00Z</time>
      </trkpt>
      <trkpt lat="42.619566" lon="0.477291">
        <ele>1715.9</ele>
        <time>2022-08-23T13:34:05Z</time>
      </trkpt>
      <trkpt lat="42.619701" lon="0.477109">
        <ele>1715.1</ele>
        <time>2022-08-23T13:34:12Z</time>
      </trkpt>
      <trkpt lat="42.61988" lon="0.476867">
        <ele>1714.5</ele>
        <time>2022-08-23T13:34:17Z</time>
      </trkpt>
      <trkpt lat="42.61995" lon="0.476766">
        <ele>1713</ele>
        <time>2022-08-23T13:34:21Z</time>
      </trkpt>
      <trkpt lat="42.620064" lon="0.47665">
        <ele>1713.6</ele>
        <time>2022-08-23T13:34:28Z</time>
      </trkpt>
      <trkpt lat="42.620222" lon="0.476451">
        <ele>1713</ele>
        <time>2022-08-23T13:34:35Z</time>
      </trkpt>
      <trkpt lat="42.620321" lon="0.476312">
        <ele>1713.1</ele>
        <time>2022-08-23T13:34:38Z</time>
      </trkpt>
      <trkpt lat="42.620407" lon="0.476199">
        <ele>1712.8</ele>
        <time>2022-08-23T13:34:41Z</time>
      </trkpt>
      <trkpt lat="42.620496" lon="0.476117">
        <ele>1712.8</ele>
        <time>2022-08-23T13:34:44Z</time>
      </trkpt>
      <trkpt lat="42.620554" lon="0.476011">
        <ele>1712.8</ele>
        <time>2022-08-23T13:34:47Z</time>
      </trkpt>
      <trkpt lat="42.620623" lon="0.475893">
        <ele>1712.9</ele>
        <time>2022-08-23T13:34:50Z</time>
      </trkpt>
      <trkpt lat="42.620658" lon="0.475774">
        <ele>1712.3</ele>
        <time>2022-08-23T13:34:59Z</time>
      </trkpt>
      <trkpt lat="42.620719" lon="0.475645">
        <ele>1712.2</ele>
        <time>2022-08-23T13:35:06Z</time>
      </trkpt>
      <trkpt lat="42.620785" lon="0.475524">
        <ele>1712.1</ele>
        <time>2022-08-23T13:35:11Z</time>
      </trkpt>
      <trkpt lat="42.620833" lon="0.475408">
        <ele>1712.1</ele>
        <time>2022-08-23T13:35:16Z</time>
      </trkpt>
      <trkpt lat="42.62086" lon="0.475285">
        <ele>1712.5</ele>
        <time>2022-08-23T13:35:25Z</time>
      </trkpt>
      <trkpt lat="42.620903" lon="0.475176">
        <ele>1713.1</ele>
        <time>2022-08-23T13:35:31Z</time>
      </trkpt>
      <trkpt lat="42.620844" lon="0.475083">
        <ele>1714.3</ele>
        <time>2022-08-23T13:35:43Z</time>
      </trkpt>
      <trkpt lat="42.620857" lon="0.474947">
        <ele>1715.1</ele>
        <time>2022-08-23T13:35:53Z</time>
      </trkpt>
      <trkpt lat="42.620854" lon="0.474819">
        <ele>1716.3</ele>
        <time>2022-08-23T13:36:09Z</time>
      </trkpt>
      <trkpt lat="42.62089" lon="0.474697">
        <ele>1717.3</ele>
        <time>2022-08-23T13:36:20Z</time>
      </trkpt>
      <trkpt lat="42.620893" lon="0.474573">
        <ele>1718.4</ele>
        <time>2022-08-23T13:36:35Z</time>
      </trkpt>
      <trkpt lat="42.620903" lon="0.474444">
        <ele>1720.1</ele>
        <time>2022-08-23T13:36:54Z</time>
      </trkpt>
      <trkpt lat="42.620941" lon="0.474331">
        <ele>1721.1</ele>
        <time>2022-08-23T13:37:06Z</time>
      </trkpt>
      <trkpt lat="42.620953" lon="0.474202">
        <ele>1722.5</ele>
        <time>2022-08-23T13:37:23Z</time>
      </trkpt>
      <trkpt lat="42.620998" lon="0.474086">
        <ele>1723.3</ele>
        <time>2022-08-23T13:37:29Z</time>
      </trkpt>
      <trkpt lat="42.62107" lon="0.473973">
        <ele>1724.2</ele>
        <time>2022-08-23T13:37:37Z</time>
      </trkpt>
      <trkpt lat="42.621106" lon="0.473848">
        <ele>1724.8</ele>
        <time>2022-08-23T13:37:45Z</time>
      </trkpt>
      <trkpt lat="42.621168" lon="0.473758">
        <ele>1725.7</ele>
        <time>2022-08-23T13:37:52Z</time>
      </trkpt>
      <trkpt lat="42.621227" lon="0.473666">
        <ele>1726.7</ele>
        <time>2022-08-23T13:38:00Z</time>
      </trkpt>
      <trkpt lat="42.621285" lon="0.473561">
        <ele>1728</ele>
        <time>2022-08-23T13:38:10Z</time>
      </trkpt>
      <trkpt lat="42.621341" lon="0.473463">
        <ele>1730.1</ele>
        <time>2022-08-23T13:38:23Z</time>
      </trkpt>
      <trkpt lat="42.62139" lon="0.47335">
        <ele>1731.9</ele>
        <time>2022-08-23T13:38:36Z</time>
      </trkpt>
      <trkpt lat="42.621416" lon="0.473232">
        <ele>1733</ele>
        <time>2022-08-23T13:38:50Z</time>
      </trkpt>
      <trkpt lat="42.621476" lon="0.473112">
        <ele>1733.3</ele>
        <time>2022-08-23T13:38:58Z</time>
      </trkpt>
      <trkpt lat="42.621541" lon="0.473028">
        <ele>1733.2</ele>
        <time>2022-08-23T13:39:06Z</time>
      </trkpt>
      <trkpt lat="42.621587" lon="0.472922">
        <ele>1733</ele>
        <time>2022-08-23T13:39:14Z</time>
      </trkpt>
      <trkpt lat="42.621626" lon="0.472801">
        <ele>1733.3</ele>
        <time>2022-08-23T13:39:28Z</time>
      </trkpt>
      <trkpt lat="42.621664" lon="0.472661">
        <ele>1733.8</ele>
        <time>2022-08-23T13:39:37Z</time>
      </trkpt>
      <trkpt lat="42.621724" lon="0.472566">
        <ele>1734.2</ele>
        <time>2022-08-23T13:39:43Z</time>
      </trkpt>
      <trkpt lat="42.621752" lon="0.472434">
        <ele>1735</ele>
        <time>2022-08-23T13:39:55Z</time>
      </trkpt>
      <trkpt lat="42.621803" lon="0.47233">
        <ele>1735</ele>
        <time>2022-08-23T13:40:05Z</time>
      </trkpt>
      <trkpt lat="42.621856" lon="0.472227">
        <ele>1737.4</ele>
        <time>2022-08-23T13:40:24Z</time>
      </trkpt>
      <trkpt lat="42.621874" lon="0.472101">
        <ele>1740.3</ele>
        <time>2022-08-23T13:40:51Z</time>
      </trkpt>
      <trkpt lat="42.62192" lon="0.471997">
        <ele>1741.7</ele>
        <time>2022-08-23T13:41:05Z</time>
      </trkpt>
      <trkpt lat="42.621982" lon="0.471899">
        <ele>1742.4</ele>
        <time>2022-08-23T13:41:11Z</time>
      </trkpt>
      <trkpt lat="42.622067" lon="0.471836">
        <ele>1743</ele>
        <time>2022-08-23T13:41:21Z</time>
      </trkpt>
      <trkpt lat="42.622152" lon="0.471757">
        <ele>1743.9</ele>
        <time>2022-08-23T13:41:30Z</time>
      </trkpt>
      <trkpt lat="42.622239" lon="0.471702">
        <ele>1745</ele>
        <time>2022-08-23T13:41:41Z</time>
      </trkpt>
      <trkpt lat="42.622313" lon="0.471628">
        <ele>1748.7</ele>
        <time>2022-08-23T13:42:06Z</time>
      </trkpt>
      <trkpt lat="42.622402" lon="0.471588">
        <ele>1751</ele>
        <time>2022-08-23T13:42:28Z</time>
      </trkpt>
      <trkpt lat="42.622475" lon="0.471507">
        <ele>1750.7</ele>
        <time>2022-08-23T13:42:42Z</time>
      </trkpt>
      <trkpt lat="42.622523" lon="0.471397">
        <ele>1751.6</ele>
        <time>2022-08-23T13:42:54Z</time>
      </trkpt>
      <trkpt lat="42.622559" lon="0.471277">
        <ele>1752.3</ele>
        <time>2022-08-23T13:43:04Z</time>
      </trkpt>
      <trkpt lat="42.622607" lon="0.471173">
        <ele>1752.5</ele>
        <time>2022-08-23T13:43:16Z</time>
      </trkpt>
      <trkpt lat="42.622672" lon="0.471047">
        <ele>1752.8</ele>
        <time>2022-08-23T13:43:31Z</time>
      </trkpt>
      <trkpt lat="42.622748" lon="0.470936">
        <ele>1752.7</ele>
        <time>2022-08-23T13:43:39Z</time>
      </trkpt>
      <trkpt lat="42.622811" lon="0.470844">
        <ele>1752.3</ele>
        <time>2022-08-23T13:43:47Z</time>
      </trkpt>
      <trkpt lat="42.622889" lon="0.470678">
        <ele>1751.4</ele>
        <time>2022-08-23T13:43:59Z</time>
      </trkpt>
      <trkpt lat="42.622952" lon="0.470583">
        <ele>1751.1</ele>
        <time>2022-08-23T13:44:04Z</time>
      </trkpt>
      <trkpt lat="42.622999" lon="0.470479">
        <ele>1751</ele>
        <time>2022-08-23T13:44:14Z</time>
      </trkpt>
      <trkpt lat="42.623041" lon="0.470363">
        <ele>1751</ele>
        <time>2022-08-23T13:44:40Z</time>
      </trkpt>
      <trkpt lat="42.623064" lon="0.470227">
        <ele>1751</ele>
        <time>2022-08-23T13:45:06Z</time>
      </trkpt>
      <trkpt lat="42.623059" lon="0.470103">
        <ele>1752.4</ele>
        <time>2022-08-23T13:45:25Z</time>
      </trkpt>
      <trkpt lat="42.623079" lon="0.469974">
        <ele>1753.5</ele>
        <time>2022-08-23T13:45:40Z</time>
      </trkpt>
      <trkpt lat="42.623126" lon="0.469867">
        <ele>1754.1</ele>
        <time>2022-08-23T13:45:51Z</time>
      </trkpt>
      <trkpt lat="42.623167" lon="0.46975">
        <ele>1755</ele>
        <time>2022-08-23T13:46:12Z</time>
      </trkpt>
      <trkpt lat="42.623146" lon="0.469625">
        <ele>1757.6</ele>
        <time>2022-08-23T13:46:27Z</time>
      </trkpt>
      <trkpt lat="42.62316" lon="0.469483">
        <ele>1758.8</ele>
        <time>2022-08-23T13:46:41Z</time>
      </trkpt>
      <trkpt lat="42.623154" lon="0.46936">
        <ele>1760.9</ele>
        <time>2022-08-23T13:46:56Z</time>
      </trkpt>
      <trkpt lat="42.62308" lon="0.469286">
        <ele>1764.6</ele>
        <time>2022-08-23T13:47:18Z</time>
      </trkpt>
      <trkpt lat="42.623084" lon="0.46916">
        <ele>1767.3</ele>
        <time>2022-08-23T13:47:38Z</time>
      </trkpt>
      <trkpt lat="42.623106" lon="0.469022">
        <ele>1771.9</ele>
        <time>2022-08-23T13:48:17Z</time>
      </trkpt>
      <trkpt lat="42.623113" lon="0.468896">
        <ele>1776.1</ele>
        <time>2022-08-23T13:48:48Z</time>
      </trkpt>
      <trkpt lat="42.623156" lon="0.468787">
        <ele>1779</ele>
        <time>2022-08-23T13:49:07Z</time>
      </trkpt>
      <trkpt lat="42.623196" lon="0.468665">
        <ele>1782</ele>
        <time>2022-08-23T13:49:27Z</time>
      </trkpt>
      <trkpt lat="42.623266" lon="0.468585">
        <ele>1784.1</ele>
        <time>2022-08-23T13:49:54Z</time>
      </trkpt>
      <trkpt lat="42.623292" lon="0.468466">
        <ele>1786.5</ele>
        <time>2022-08-23T13:50:15Z</time>
      </trkpt>
      <trkpt lat="42.623306" lon="0.46834">
        <ele>1789.3</ele>
        <time>2022-08-23T13:50:44Z</time>
      </trkpt>
      <trkpt lat="42.62332" lon="0.468216">
        <ele>1790.7</ele>
        <time>2022-08-23T13:51:05Z</time>
      </trkpt>
      <trkpt lat="42.623356" lon="0.46809">
        <ele>1791.5</ele>
        <time>2022-08-23T13:51:18Z</time>
      </trkpt>
      <trkpt lat="42.623381" lon="0.46797">
        <ele>1792.2</ele>
        <time>2022-08-23T13:51:36Z</time>
      </trkpt>
      <trkpt lat="42.623451" lon="0.467874">
        <ele>1791.4</ele>
        <time>2022-08-23T13:51:49Z</time>
      </trkpt>
      <trkpt lat="42.623505" lon="0.46776">
        <ele>1790.2</ele>
        <time>2022-08-23T13:52:05Z</time>
      </trkpt>
      <trkpt lat="42.623567" lon="0.467648">
        <ele>1790.3</ele>
        <time>2022-08-23T13:52:14Z</time>
      </trkpt>
      <trkpt lat="42.623612" lon="0.46754">
        <ele>1791.2</ele>
        <time>2022-08-23T13:52:27Z</time>
      </trkpt>
      <trkpt lat="42.623697" lon="0.467489">
        <ele>1791.2</ele>
        <time>2022-08-23T13:52:43Z</time>
      </trkpt>
      <trkpt lat="42.623773" lon="0.467406">
        <ele>1789.7</ele>
        <time>2022-08-23T13:53:00Z</time>
      </trkpt>
      <trkpt lat="42.623852" lon="0.467335">
        <ele>1789.2</ele>
        <time>2022-08-23T13:53:08Z</time>
      </trkpt>
      <trkpt lat="42.623913" lon="0.467239">
        <ele>1789.3</ele>
        <time>2022-08-23T13:53:16Z</time>
      </trkpt>
      <trkpt lat="42.62397" lon="0.467143">
        <ele>1790.2</ele>
        <time>2022-08-23T13:53:29Z</time>
      </trkpt>
      <trkpt lat="42.624042" lon="0.467042">
        <ele>1790.3</ele>
        <time>2022-08-23T13:53:49Z</time>
      </trkpt>
      <trkpt lat="42.624048" lon="0.466914">
        <ele>1789.7</ele>
        <time>2022-08-23T13:54:03Z</time>
      </trkpt>
      <trkpt lat="42.624119" lon="0.466818">
        <ele>1789.2</ele>
        <time>2022-08-23T13:54:11Z</time>
      </trkpt>
      <trkpt lat="42.624219" lon="0.466797">
        <ele>1789.2</ele>
        <time>2022-08-23T13:54:29Z</time>
      </trkpt>
      <trkpt lat="42.624311" lon="0.466802">
        <ele>1789.1</ele>
        <time>2022-08-23T13:54:41Z</time>
      </trkpt>
      <trkpt lat="42.624403" lon="0.466773">
        <ele>1788.7</ele>
        <time>2022-08-23T13:54:58Z</time>
      </trkpt>
      <trkpt lat="42.624485" lon="0.466713">
        <ele>1788.7</ele>
        <time>2022-08-23T13:55:05Z</time>
      </trkpt>
      <trkpt lat="42.624566" lon="0.466655">
        <ele>1788</ele>
        <time>2022-08-23T13:55:14Z</time>
      </trkpt>
      <trkpt lat="42.624661" lon="0.466674">
        <ele>1789.5</ele>
        <time>2022-08-23T13:55:46Z</time>
      </trkpt>
      <trkpt lat="42.624743" lon="0.46662">
        <ele>1790</ele>
        <time>2022-08-23T13:55:55Z</time>
      </trkpt>
      <trkpt lat="42.624836" lon="0.466612">
        <ele>1791.4</ele>
        <time>2022-08-23T13:56:05Z</time>
      </trkpt>
      <trkpt lat="42.624901" lon="0.466524">
        <ele>1793.2</ele>
        <time>2022-08-23T13:56:27Z</time>
      </trkpt>
      <trkpt lat="42.624983" lon="0.466443">
        <ele>1792.6</ele>
        <time>2022-08-23T13:56:51Z</time>
      </trkpt>
      <trkpt lat="42.625066" lon="0.466373">
        <ele>1793.1</ele>
        <time>2022-08-23T13:57:06Z</time>
      </trkpt>
      <trkpt lat="42.625164" lon="0.466336">
        <ele>1792.8</ele>
        <time>2022-08-23T13:57:26Z</time>
      </trkpt>
      <trkpt lat="42.62524" lon="0.466267">
        <ele>1793.1</ele>
        <time>2022-08-23T13:57:33Z</time>
      </trkpt>
      <trkpt lat="42.625316" lon="0.4662">
        <ele>1793.5</ele>
        <time>2022-08-23T13:57:45Z</time>
      </trkpt>
      <trkpt lat="42.625411" lon="0.46619">
        <ele>1794.9</ele>
        <time>2022-08-23T13:58:04Z</time>
      </trkpt>
      <trkpt lat="42.62549" lon="0.466131">
        <ele>1796.1</ele>
        <time>2022-08-23T13:58:19Z</time>
      </trkpt>
      <trkpt lat="42.625586" lon="0.466086">
        <ele>1797.4</ele>
        <time>2022-08-23T13:58:36Z</time>
      </trkpt>
      <trkpt lat="42.625679" lon="0.466078">
        <ele>1798</ele>
        <time>2022-08-23T13:58:45Z</time>
      </trkpt>
      <trkpt lat="42.625749" lon="0.465992">
        <ele>1799.2</ele>
        <time>2022-08-23T13:59:00Z</time>
      </trkpt>
      <trkpt lat="42.625818" lon="0.465909">
        <ele>1801.2</ele>
        <time>2022-08-23T13:59:22Z</time>
      </trkpt>
      <trkpt lat="42.6259" lon="0.465839">
        <ele>1801.8</ele>
        <time>2022-08-23T13:59:30Z</time>
      </trkpt>
      <trkpt lat="42.625921" lon="0.465708">
        <ele>1802.5</ele>
        <time>2022-08-23T13:59:43Z</time>
      </trkpt>
      <trkpt lat="42.625844" lon="0.465644">
        <ele>1804.4</ele>
        <time>2022-08-23T14:00:04Z</time>
      </trkpt>
      <trkpt lat="42.625748" lon="0.465647">
        <ele>1807.3</ele>
        <time>2022-08-23T14:00:27Z</time>
      </trkpt>
      <trkpt lat="42.625676" lon="0.465567">
        <ele>1813.5</ele>
        <time>2022-08-23T14:01:16Z</time>
      </trkpt>
      <trkpt lat="42.625708" lon="0.465452">
        <ele>1815</ele>
        <time>2022-08-23T14:01:33Z</time>
      </trkpt>
      <trkpt lat="42.62572" lon="0.46533">
        <ele>1818.5</ele>
        <time>2022-08-23T14:02:02Z</time>
      </trkpt>
      <trkpt lat="42.625795" lon="0.465255">
        <ele>1819.8</ele>
        <time>2022-08-23T14:02:16Z</time>
      </trkpt>
      <trkpt lat="42.625878" lon="0.465198">
        <ele>1821.6</ele>
        <time>2022-08-23T14:02:39Z</time>
      </trkpt>
      <trkpt lat="42.625939" lon="0.465097">
        <ele>1824.1</ele>
        <time>2022-08-23T14:03:02Z</time>
      </trkpt>
      <trkpt lat="42.626023" lon="0.465026">
        <ele>1825.4</ele>
        <time>2022-08-23T14:03:12Z</time>
      </trkpt>
      <trkpt lat="42.626072" lon="0.464914">
        <ele>1826.4</ele>
        <time>2022-08-23T14:03:24Z</time>
      </trkpt>
      <trkpt lat="42.626163" lon="0.464875">
        <ele>1827.9</ele>
        <time>2022-08-23T14:03:48Z</time>
      </trkpt>
      <trkpt lat="42.626239" lon="0.464803">
        <ele>1828.5</ele>
        <time>2022-08-23T14:03:55Z</time>
      </trkpt>
      <trkpt lat="42.626283" lon="0.464694">
        <ele>1830</ele>
        <time>2022-08-23T14:04:11Z</time>
      </trkpt>
      <trkpt lat="42.626357" lon="0.464619">
        <ele>1831.1</ele>
        <time>2022-08-23T14:04:22Z</time>
      </trkpt>
      <trkpt lat="42.62644" lon="0.464552">
        <ele>1832.9</ele>
        <time>2022-08-23T14:04:38Z</time>
      </trkpt>
      <trkpt lat="42.626471" lon="0.464435">
        <ele>1833.7</ele>
        <time>2022-08-23T14:04:51Z</time>
      </trkpt>
      <trkpt lat="42.626559" lon="0.46434">
        <ele>1835.8</ele>
        <time>2022-08-23T14:05:18Z</time>
      </trkpt>
      <trkpt lat="42.626645" lon="0.464302">
        <ele>1836.9</ele>
        <time>2022-08-23T14:05:31Z</time>
      </trkpt>
      <trkpt lat="42.62671" lon="0.464211">
        <ele>1838.2</ele>
        <time>2022-08-23T14:05:45Z</time>
      </trkpt>
      <trkpt lat="42.626761" lon="0.464109">
        <ele>1839.5</ele>
        <time>2022-08-23T14:05:59Z</time>
      </trkpt>
      <trkpt lat="42.626815" lon="0.463991">
        <ele>1840.2</ele>
        <time>2022-08-23T14:06:11Z</time>
      </trkpt>
      <trkpt lat="42.626928" lon="0.46393">
        <ele>1840</ele>
        <time>2022-08-23T14:06:39Z</time>
      </trkpt>
      <trkpt lat="42.627029" lon="0.463866">
        <ele>1841</ele>
        <time>2022-08-23T14:06:56Z</time>
      </trkpt>
      <trkpt lat="42.627116" lon="0.463815">
        <ele>1842.7</ele>
        <time>2022-08-23T14:07:15Z</time>
      </trkpt>
      <trkpt lat="42.627198" lon="0.463704">
        <ele>1843.3</ele>
        <time>2022-08-23T14:07:28Z</time>
      </trkpt>
      <trkpt lat="42.627251" lon="0.463587">
        <ele>1844.4</ele>
        <time>2022-08-23T14:07:44Z</time>
      </trkpt>
      <trkpt lat="42.627284" lon="0.463461">
        <ele>1846.2</ele>
        <time>2022-08-23T14:08:04Z</time>
      </trkpt>
      <trkpt lat="42.627352" lon="0.463376">
        <ele>1847.7</ele>
        <time>2022-08-23T14:08:22Z</time>
      </trkpt>
      <trkpt lat="42.627404" lon="0.463268">
        <ele>1848.7</ele>
        <time>2022-08-23T14:08:37Z</time>
      </trkpt>
      <trkpt lat="42.627442" lon="0.463154">
        <ele>1850.2</ele>
        <time>2022-08-23T14:08:58Z</time>
      </trkpt>
      <trkpt lat="42.627528" lon="0.463099">
        <ele>1851.2</ele>
        <time>2022-08-23T14:09:13Z</time>
      </trkpt>
      <trkpt lat="42.62761" lon="0.463018">
        <ele>1852</ele>
        <time>2022-08-23T14:09:25Z</time>
      </trkpt>
      <trkpt lat="42.627672" lon="0.462922">
        <ele>1854.7</ele>
        <time>2022-08-23T14:09:38Z</time>
      </trkpt>
      <trkpt lat="42.62766" lon="0.462785">
        <ele>1856</ele>
        <time>2022-08-23T14:09:59Z</time>
      </trkpt>
      <trkpt lat="42.627719" lon="0.462689">
        <ele>1859.5</ele>
        <time>2022-08-23T14:10:15Z</time>
      </trkpt>
      <trkpt lat="42.627728" lon="0.462554">
        <ele>1864</ele>
        <time>2022-08-23T14:11:12Z</time>
      </trkpt>
      <trkpt lat="42.627711" lon="0.462425">
        <ele>1867</ele>
        <time>2022-08-23T14:11:36Z</time>
      </trkpt>
      <trkpt lat="42.627744" lon="0.462299">
        <ele>1870.9</ele>
        <time>2022-08-23T14:11:59Z</time>
      </trkpt>
      <trkpt lat="42.627827" lon="0.462237">
        <ele>1873.4</ele>
        <time>2022-08-23T14:12:21Z</time>
      </trkpt>
      <trkpt lat="42.627913" lon="0.462186">
        <ele>1876.3</ele>
        <time>2022-08-23T14:12:52Z</time>
      </trkpt>
      <trkpt lat="42.62795" lon="0.462069">
        <ele>1881.3</ele>
        <time>2022-08-23T14:15:02Z</time>
      </trkpt>
      <trkpt lat="42.627965" lon="0.461947">
        <ele>1884.1</ele>
        <time>2022-08-23T14:15:23Z</time>
      </trkpt>
      <trkpt lat="42.627968" lon="0.461825">
        <ele>1886.8</ele>
        <time>2022-08-23T14:15:49Z</time>
      </trkpt>
      <trkpt lat="42.627983" lon="0.461701">
        <ele>1890.4</ele>
        <time>2022-08-23T14:16:16Z</time>
      </trkpt>
      <trkpt lat="42.627918" lon="0.461613">
        <ele>1893.4</ele>
        <time>2022-08-23T14:16:41Z</time>
      </trkpt>
      <trkpt lat="42.627827" lon="0.46159">
        <ele>1897.2</ele>
        <time>2022-08-23T14:17:14Z</time>
      </trkpt>
      <trkpt lat="42.627739" lon="0.46162">
        <ele>1898.7</ele>
        <time>2022-08-23T14:17:35Z</time>
      </trkpt>
      <trkpt lat="42.627663" lon="0.461549">
        <ele>1901.3</ele>
        <time>2022-08-23T14:17:54Z</time>
      </trkpt>
      <trkpt lat="42.62757" lon="0.461521">
        <ele>1903.7</ele>
        <time>2022-08-23T14:18:15Z</time>
      </trkpt>
      <trkpt lat="42.627624" lon="0.461417">
        <ele>1908.9</ele>
        <time>2022-08-23T14:18:53Z</time>
      </trkpt>
      <trkpt lat="42.627603" lon="0.461295">
        <ele>1915.6</ele>
        <time>2022-08-23T14:19:43Z</time>
      </trkpt>
      <trkpt lat="42.627623" lon="0.461173">
        <ele>1917.7</ele>
        <time>2022-08-23T14:19:57Z</time>
      </trkpt>
      <trkpt lat="42.627538" lon="0.461117">
        <ele>1924</ele>
        <time>2022-08-23T14:20:51Z</time>
      </trkpt>
      <trkpt lat="42.627445" lon="0.461123">
        <ele>1926.8</ele>
        <time>2022-08-23T14:21:15Z</time>
      </trkpt>
      <trkpt lat="42.627354" lon="0.461087">
        <ele>1930.1</ele>
        <time>2022-08-23T14:21:42Z</time>
      </trkpt>
      <trkpt lat="42.627296" lon="0.460991">
        <ele>1935</ele>
        <time>2022-08-23T14:22:32Z</time>
      </trkpt>
      <trkpt lat="42.627227" lon="0.4609">
        <ele>1941</ele>
        <time>2022-08-23T14:23:30Z</time>
      </trkpt>
      <trkpt lat="42.627139" lon="0.460878">
        <ele>1946.1</ele>
        <time>2022-08-23T14:24:06Z</time>
      </trkpt>
      <trkpt lat="42.62716" lon="0.460755">
        <ele>1951.6</ele>
        <time>2022-08-23T14:24:54Z</time>
      </trkpt>
      <trkpt lat="42.627147" lon="0.460634">
        <ele>1958.8</ele>
        <time>2022-08-23T14:25:56Z</time>
      </trkpt>
      <trkpt lat="42.627055" lon="0.460678">
        <ele>1962.6</ele>
        <time>2022-08-23T14:26:33Z</time>
      </trkpt>
      <trkpt lat="42.62699" lon="0.460592">
        <ele>1964.3</ele>
        <time>2022-08-23T14:26:46Z</time>
      </trkpt>
      <trkpt lat="42.626914" lon="0.460513">
        <ele>1971.3</ele>
        <time>2022-08-23T14:27:40Z</time>
      </trkpt>
      <trkpt lat="42.626951" lon="0.460398">
        <ele>1974.2</ele>
        <time>2022-08-23T14:28:07Z</time>
      </trkpt>
      <trkpt lat="42.626903" lon="0.460293">
        <ele>1981.8</ele>
        <time>2022-08-23T14:29:05Z</time>
      </trkpt>
      <trkpt lat="42.62689" lon="0.460156">
        <ele>1988</ele>
        <time>2022-08-23T14:30:03Z</time>
      </trkpt>
      <trkpt lat="42.626877" lon="0.460028">
        <ele>1993.5</ele>
        <time>2022-08-23T14:30:51Z</time>
      </trkpt>
      <trkpt lat="42.626795" lon="0.460092">
        <ele>1997.3</ele>
        <time>2022-08-23T14:32:42Z</time>
      </trkpt>
      <trkpt lat="42.626701" lon="0.460069">
        <ele>2000.5</ele>
        <time>2022-08-23T14:33:07Z</time>
      </trkpt>
      <trkpt lat="42.62661" lon="0.46008">
        <ele>2006.2</ele>
        <time>2022-08-23T14:33:52Z</time>
      </trkpt>
      <trkpt lat="42.626579" lon="0.459965">
        <ele>2010.5</ele>
        <time>2022-08-23T14:34:46Z</time>
      </trkpt>
      <trkpt lat="42.626513" lon="0.459878">
        <ele>2017.4</ele>
        <time>2022-08-23T14:35:56Z</time>
      </trkpt>
      <trkpt lat="42.626506" lon="0.45975">
        <ele>2020.3</ele>
        <time>2022-08-23T14:36:27Z</time>
      </trkpt>
      <trkpt lat="42.62655" lon="0.459638">
        <ele>2024.3</ele>
        <time>2022-08-23T14:36:54Z</time>
      </trkpt>
      <trkpt lat="42.626573" lon="0.459517">
        <ele>2027.8</ele>
        <time>2022-08-23T14:37:19Z</time>
      </trkpt>
      <trkpt lat="42.626666" lon="0.459524">
        <ele>2030.8</ele>
        <time>2022-08-23T14:37:45Z</time>
      </trkpt>
      <trkpt lat="42.626717" lon="0.459424">
        <ele>2033.3</ele>
        <time>2022-08-23T14:38:13Z</time>
      </trkpt>
      <trkpt lat="42.626754" lon="0.459312">
        <ele>2035.6</ele>
        <time>2022-08-23T14:38:32Z</time>
      </trkpt>
      <trkpt lat="42.626788" lon="0.459191">
        <ele>2037.7</ele>
        <time>2022-08-23T14:38:54Z</time>
      </trkpt>
      <trkpt lat="42.626876" lon="0.459142">
        <ele>2038.6</ele>
        <time>2022-08-23T14:39:15Z</time>
      </trkpt>
      <trkpt lat="42.626886" lon="0.459018">
        <ele>2039.1</ele>
        <time>2022-08-23T14:39:31Z</time>
      </trkpt>
      <trkpt lat="42.626925" lon="0.4589">
        <ele>2040.5</ele>
        <time>2022-08-23T14:40:09Z</time>
      </trkpt>
      <trkpt lat="42.626965" lon="0.458791">
        <ele>2040.1</ele>
        <time>2022-08-23T14:41:07Z</time>
      </trkpt>
      <trkpt lat="42.627004" lon="0.458679">
        <ele>2040.2</ele>
        <time>2022-08-23T14:41:24Z</time>
      </trkpt>
      <trkpt lat="42.627044" lon="0.45857">
        <ele>2041.4</ele>
        <time>2022-08-23T14:41:38Z</time>
      </trkpt>
      <trkpt lat="42.627036" lon="0.458445">
        <ele>2043.8</ele>
        <time>2022-08-23T14:42:01Z</time>
      </trkpt>
      <trkpt lat="42.6271" lon="0.458352">
        <ele>2047.2</ele>
        <time>2022-08-23T14:42:25Z</time>
      </trkpt>
      <trkpt lat="42.627076" lon="0.458232">
        <ele>2050.6</ele>
        <time>2022-08-23T14:42:51Z</time>
      </trkpt>
      <trkpt lat="42.62713" lon="0.458124">
        <ele>2053.9</ele>
        <time>2022-08-23T14:43:16Z</time>
      </trkpt>
      <trkpt lat="42.627206" lon="0.458053">
        <ele>2058.1</ele>
        <time>2022-08-23T14:43:53Z</time>
      </trkpt>
      <trkpt lat="42.627262" lon="0.45795">
        <ele>2062.1</ele>
        <time>2022-08-23T14:44:24Z</time>
      </trkpt>
      <trkpt lat="42.627237" lon="0.457832">
        <ele>2065.6</ele>
        <time>2022-08-23T14:44:47Z</time>
      </trkpt>
      <trkpt lat="42.627221" lon="0.45771">
        <ele>2068.9</ele>
        <time>2022-08-23T14:45:12Z</time>
      </trkpt>
      <trkpt lat="42.627169" lon="0.457598">
        <ele>2072</ele>
        <time>2022-08-23T14:45:38Z</time>
      </trkpt>
      <trkpt lat="42.627258" lon="0.457564">
        <ele>2075.2</ele>
        <time>2022-08-23T14:46:05Z</time>
      </trkpt>
      <trkpt lat="42.627336" lon="0.457477">
        <ele>2078.8</ele>
        <time>2022-08-23T14:46:34Z</time>
      </trkpt>
      <trkpt lat="42.627427" lon="0.457497">
        <ele>2081.5</ele>
        <time>2022-08-23T14:46:58Z</time>
      </trkpt>
      <trkpt lat="42.627482" lon="0.457597">
        <ele>2084.8</ele>
        <time>2022-08-23T14:47:24Z</time>
      </trkpt>
      <trkpt lat="42.627548" lon="0.457646">
        <ele>2084.8</ele>
        <time>2022-08-23T14:49:23Z</time>
      </trkpt>
      <trkpt lat="42.627498" lon="0.457662">
        <ele>2114.1</ele>
        <time>2022-08-24T04:58:33Z</time>
      </trkpt>
      <trkpt lat="42.627497" lon="0.457664">
        <ele>2114.1</ele>
        <time>2022-08-24T04:58:34Z</time>
      </trkpt>
      <trkpt lat="42.627556" lon="0.457569">
        <ele>2118.566</ele>
        <time>2022-08-24T05:00:09Z</time>
      </trkpt>
      <trkpt lat="42.627572" lon="0.457445">
        <ele>2118.445</ele>
        <time>2022-08-24T05:00:24Z</time>
      </trkpt>
      <trkpt lat="42.627542" lon="0.457323">
        <ele>2119.809</ele>
        <time>2022-08-24T05:00:37Z</time>
      </trkpt>
      <trkpt lat="42.627564" lon="0.457193">
        <ele>2119.249</ele>
        <time>2022-08-24T05:00:50Z</time>
      </trkpt>
      <trkpt lat="42.627591" lon="0.457076">
        <ele>2119.043</ele>
        <time>2022-08-24T05:01:02Z</time>
      </trkpt>
      <trkpt lat="42.627644" lon="0.456969">
        <ele>2120.506</ele>
        <time>2022-08-24T05:01:20Z</time>
      </trkpt>
      <trkpt lat="42.627723" lon="0.456901">
        <ele>2122.845</ele>
        <time>2022-08-24T05:01:36Z</time>
      </trkpt>
      <trkpt lat="42.627819" lon="0.456894">
        <ele>2126.499</ele>
        <time>2022-08-24T05:01:56Z</time>
      </trkpt>
      <trkpt lat="42.627878" lon="0.456986">
        <ele>2128.715</ele>
        <time>2022-08-24T05:02:14Z</time>
      </trkpt>
      <trkpt lat="42.627963" lon="0.457031">
        <ele>2129.61</ele>
        <time>2022-08-24T05:02:28Z</time>
      </trkpt>
      <trkpt lat="42.628053" lon="0.457018">
        <ele>2130.321</ele>
        <time>2022-08-24T05:02:42Z</time>
      </trkpt>
      <trkpt lat="42.628151" lon="0.457008">
        <ele>2130.907</ele>
        <time>2022-08-24T05:02:56Z</time>
      </trkpt>
      <trkpt lat="42.628242" lon="0.456999">
        <ele>2131.744</ele>
        <time>2022-08-24T05:03:08Z</time>
      </trkpt>
      <trkpt lat="42.628331" lon="0.456971">
        <ele>2134.624</ele>
        <time>2022-08-24T05:03:29Z</time>
      </trkpt>
      <trkpt lat="42.628421" lon="0.456941">
        <ele>2136.68</ele>
        <time>2022-08-24T05:03:45Z</time>
      </trkpt>
      <trkpt lat="42.62846" lon="0.456826">
        <ele>2140.564</ele>
        <time>2022-08-24T05:04:09Z</time>
      </trkpt>
      <trkpt lat="42.628551" lon="0.45682">
        <ele>2143.395</ele>
        <time>2022-08-24T05:04:32Z</time>
      </trkpt>
      <trkpt lat="42.628583" lon="0.456703">
        <ele>2149.262</ele>
        <time>2022-08-24T05:05:33Z</time>
      </trkpt>
      <trkpt lat="42.628577" lon="0.456577">
        <ele>2151.191</ele>
        <time>2022-08-24T05:05:52Z</time>
      </trkpt>
      <trkpt lat="42.628641" lon="0.456489">
        <ele>2157.205</ele>
        <time>2022-08-24T05:06:42Z</time>
      </trkpt>
      <trkpt lat="42.628733" lon="0.456505">
        <ele>2161.473</ele>
        <time>2022-08-24T05:07:21Z</time>
      </trkpt>
      <trkpt lat="42.628819" lon="0.456465">
        <ele>2164.348</ele>
        <time>2022-08-24T05:07:43Z</time>
      </trkpt>
      <trkpt lat="42.628893" lon="0.456393">
        <ele>2168.537</ele>
        <time>2022-08-24T05:08:11Z</time>
      </trkpt>
      <trkpt lat="42.628978" lon="0.456344">
        <ele>2170.119</ele>
        <time>2022-08-24T05:08:26Z</time>
      </trkpt>
      <trkpt lat="42.629052" lon="0.456265">
        <ele>2173.222</ele>
        <time>2022-08-24T05:08:52Z</time>
      </trkpt>
      <trkpt lat="42.629113" lon="0.456171">
        <ele>2175.157</ele>
        <time>2022-08-24T05:09:09Z</time>
      </trkpt>
      <trkpt lat="42.629093" lon="0.456045">
        <ele>2178.046</ele>
        <time>2022-08-24T05:13:06Z</time>
      </trkpt>
      <trkpt lat="42.629139" lon="0.455934">
        <ele>2179.306</ele>
        <time>2022-08-24T05:13:28Z</time>
      </trkpt>
      <trkpt lat="42.629202" lon="0.455839">
        <ele>2180</ele>
        <time>2022-08-24T05:13:49Z</time>
      </trkpt>
      <trkpt lat="42.629247" lon="0.455731">
        <ele>2182.971</ele>
        <time>2022-08-24T05:14:18Z</time>
      </trkpt>
      <trkpt lat="42.629292" lon="0.455617">
        <ele>2184.519</ele>
        <time>2022-08-24T05:14:37Z</time>
      </trkpt>
      <trkpt lat="42.629363" lon="0.455537">
        <ele>2185.044</ele>
        <time>2022-08-24T05:14:50Z</time>
      </trkpt>
      <trkpt lat="42.629418" lon="0.455438">
        <ele>2187.542</ele>
        <time>2022-08-24T05:15:16Z</time>
      </trkpt>
      <trkpt lat="42.629463" lon="0.455325">
        <ele>2189.528</ele>
        <time>2022-08-24T05:15:37Z</time>
      </trkpt>
      <trkpt lat="42.629527" lon="0.455232">
        <ele>2190.348</ele>
        <time>2022-08-24T05:15:49Z</time>
      </trkpt>
      <trkpt lat="42.629598" lon="0.455149">
        <ele>2191.212</ele>
        <time>2022-08-24T05:16:01Z</time>
      </trkpt>
      <trkpt lat="42.629675" lon="0.455077">
        <ele>2192.256</ele>
        <time>2022-08-24T05:16:16Z</time>
      </trkpt>
      <trkpt lat="42.629759" lon="0.455027">
        <ele>2194.095</ele>
        <time>2022-08-24T05:16:31Z</time>
      </trkpt>
      <trkpt lat="42.629847" lon="0.454985">
        <ele>2195.277</ele>
        <time>2022-08-24T05:16:48Z</time>
      </trkpt>
      <trkpt lat="42.629937" lon="0.454969">
        <ele>2197.626</ele>
        <time>2022-08-24T05:17:11Z</time>
      </trkpt>
      <trkpt lat="42.630016" lon="0.454908">
        <ele>2202.592</ele>
        <time>2022-08-24T05:17:54Z</time>
      </trkpt>
      <trkpt lat="42.630085" lon="0.454827">
        <ele>2207.231</ele>
        <time>2022-08-24T05:18:25Z</time>
      </trkpt>
      <trkpt lat="42.630167" lon="0.454763">
        <ele>2211.713</ele>
        <time>2022-08-24T05:18:51Z</time>
      </trkpt>
      <trkpt lat="42.630252" lon="0.454709">
        <ele>2215.105</ele>
        <time>2022-08-24T05:19:16Z</time>
      </trkpt>
      <trkpt lat="42.630342" lon="0.4547">
        <ele>2216.395</ele>
        <time>2022-08-24T05:19:29Z</time>
      </trkpt>
      <trkpt lat="42.630432" lon="0.454665">
        <ele>2217.448</ele>
        <time>2022-08-24T05:19:43Z</time>
      </trkpt>
      <trkpt lat="42.630506" lon="0.454588">
        <ele>2218.528</ele>
        <time>2022-08-24T05:19:59Z</time>
      </trkpt>
      <trkpt lat="42.630572" lon="0.4545">
        <ele>2220.441</ele>
        <time>2022-08-24T05:20:15Z</time>
      </trkpt>
      <trkpt lat="42.630642" lon="0.454422">
        <ele>2222.264</ele>
        <time>2022-08-24T05:20:27Z</time>
      </trkpt>
      <trkpt lat="42.630737" lon="0.454435">
        <ele>2222.614</ele>
        <time>2022-08-24T05:20:46Z</time>
      </trkpt>
      <trkpt lat="42.630828" lon="0.454449">
        <ele>2226.899</ele>
        <time>2022-08-24T05:21:28Z</time>
      </trkpt>
      <trkpt lat="42.630894" lon="0.454365">
        <ele>2235.172</ele>
        <time>2022-08-24T05:22:46Z</time>
      </trkpt>
      <trkpt lat="42.630979" lon="0.454319">
        <ele>2240.084</ele>
        <time>2022-08-24T05:23:31Z</time>
      </trkpt>
      <trkpt lat="42.63107" lon="0.454281">
        <ele>2243.107</ele>
        <time>2022-08-24T05:27:09Z</time>
      </trkpt>
      <trkpt lat="42.631143" lon="0.454204">
        <ele>2245.019</ele>
        <time>2022-08-24T05:27:27Z</time>
      </trkpt>
      <trkpt lat="42.631216" lon="0.454122">
        <ele>2247.193</ele>
        <time>2022-08-24T05:27:48Z</time>
      </trkpt>
      <trkpt lat="42.631288" lon="0.45405">
        <ele>2248.182</ele>
        <time>2022-08-24T05:28:02Z</time>
      </trkpt>
      <trkpt lat="42.631334" lon="0.45394">
        <ele>2250.221</ele>
        <time>2022-08-24T05:28:27Z</time>
      </trkpt>
      <trkpt lat="42.63142" lon="0.453903">
        <ele>2251.578</ele>
        <time>2022-08-24T05:28:51Z</time>
      </trkpt>
      <trkpt lat="42.63151" lon="0.453942">
        <ele>2253.391</ele>
        <time>2022-08-24T05:29:39Z</time>
      </trkpt>
      <trkpt lat="42.631601" lon="0.453952">
        <ele>2255.026</ele>
        <time>2022-08-24T05:30:11Z</time>
      </trkpt>
      <trkpt lat="42.63166" lon="0.453855">
        <ele>2258.15</ele>
        <time>2022-08-24T05:30:44Z</time>
      </trkpt>
      <trkpt lat="42.63175" lon="0.453842">
        <ele>2262.402</ele>
        <time>2022-08-24T05:31:19Z</time>
      </trkpt>
      <trkpt lat="42.631837" lon="0.453785">
        <ele>2263.035</ele>
        <time>2022-08-24T05:31:38Z</time>
      </trkpt>
      <trkpt lat="42.631905" lon="0.453699">
        <ele>2263.419</ele>
        <time>2022-08-24T05:31:57Z</time>
      </trkpt>
      <trkpt lat="42.631989" lon="0.453636">
        <ele>2263.411</ele>
        <time>2022-08-24T05:32:12Z</time>
      </trkpt>
      <trkpt lat="42.632077" lon="0.453669">
        <ele>2263.881</ele>
        <time>2022-08-24T05:32:25Z</time>
      </trkpt>
      <trkpt lat="42.632166" lon="0.453636">
        <ele>2264.446</ele>
        <time>2022-08-24T05:32:43Z</time>
      </trkpt>
      <trkpt lat="42.632259" lon="0.453666">
        <ele>2266.192</ele>
        <time>2022-08-24T05:33:09Z</time>
      </trkpt>
      <trkpt lat="42.632349" lon="0.453639">
        <ele>2268.195</ele>
        <time>2022-08-24T05:33:49Z</time>
      </trkpt>
      <trkpt lat="42.632336" lon="0.453517">
        <ele>2273.018</ele>
        <time>2022-08-24T05:34:29Z</time>
      </trkpt>
      <trkpt lat="42.632408" lon="0.453439">
        <ele>2276.159</ele>
        <time>2022-08-24T05:35:02Z</time>
      </trkpt>
      <trkpt lat="42.63245" lon="0.45333">
        <ele>2278.475</ele>
        <time>2022-08-24T05:35:32Z</time>
      </trkpt>
      <trkpt lat="42.632447" lon="0.453204">
        <ele>2283.104</ele>
        <time>2022-08-24T05:36:23Z</time>
      </trkpt>
      <trkpt lat="42.632509" lon="0.453113">
        <ele>2287.062</ele>
        <time>2022-08-24T05:36:58Z</time>
      </trkpt>
      <trkpt lat="42.632557" lon="0.453006">
        <ele>2290.067</ele>
        <time>2022-08-24T05:37:27Z</time>
      </trkpt>
      <trkpt lat="42.632647" lon="0.453013">
        <ele>2291.153</ele>
        <time>2022-08-24T05:37:44Z</time>
      </trkpt>
      <trkpt lat="42.63273" lon="0.45296">
        <ele>2291.917</ele>
        <time>2022-08-24T05:38:02Z</time>
      </trkpt>
      <trkpt lat="42.632817" lon="0.452919">
        <ele>2294.21</ele>
        <time>2022-08-24T05:38:26Z</time>
      </trkpt>
      <trkpt lat="42.632813" lon="0.452792">
        <ele>2295.952</ele>
        <time>2022-08-24T05:38:45Z</time>
      </trkpt>
      <trkpt lat="42.632901" lon="0.452751">
        <ele>2298.995</ele>
        <time>2022-08-24T05:40:50Z</time>
      </trkpt>
      <trkpt lat="42.63294" lon="0.452639">
        <ele>2303.051</ele>
        <time>2022-08-24T05:41:31Z</time>
      </trkpt>
      <trkpt lat="42.632972" lon="0.452522">
        <ele>2304.499</ele>
        <time>2022-08-24T05:41:48Z</time>
      </trkpt>
      <trkpt lat="42.632999" lon="0.452405">
        <ele>2306.378</ele>
        <time>2022-08-24T05:42:11Z</time>
      </trkpt>
      <trkpt lat="42.632978" lon="0.452282">
        <ele>2308.876</ele>
        <time>2022-08-24T05:42:34Z</time>
      </trkpt>
      <trkpt lat="42.63296" lon="0.452162">
        <ele>2311.392</ele>
        <time>2022-08-24T05:42:57Z</time>
      </trkpt>
      <trkpt lat="42.63295" lon="0.452039">
        <ele>2313.452</ele>
        <time>2022-08-24T05:43:21Z</time>
      </trkpt>
      <trkpt lat="42.632979" lon="0.451922">
        <ele>2317.269</ele>
        <time>2022-08-24T05:44:08Z</time>
      </trkpt>
      <trkpt lat="42.633032" lon="0.451823">
        <ele>2321.005</ele>
        <time>2022-08-24T05:45:46Z</time>
      </trkpt>
      <trkpt lat="42.632992" lon="0.451709">
        <ele>2324.711</ele>
        <time>2022-08-24T05:46:13Z</time>
      </trkpt>
      <trkpt lat="42.632996" lon="0.451585">
        <ele>2326.543</ele>
        <time>2022-08-24T05:46:34Z</time>
      </trkpt>
      <trkpt lat="42.633069" lon="0.451503">
        <ele>2329.359</ele>
        <time>2022-08-24T05:49:23Z</time>
      </trkpt>
      <trkpt lat="42.633136" lon="0.45142">
        <ele>2331.533</ele>
        <time>2022-08-24T05:49:44Z</time>
      </trkpt>
      <trkpt lat="42.633215" lon="0.451359">
        <ele>2336.238</ele>
        <time>2022-08-24T05:50:21Z</time>
      </trkpt>
      <trkpt lat="42.633265" lon="0.451255">
        <ele>2341.219</ele>
        <time>2022-08-24T05:51:03Z</time>
      </trkpt>
      <trkpt lat="42.633355" lon="0.451269">
        <ele>2344.129</ele>
        <time>2022-08-24T05:51:29Z</time>
      </trkpt>
      <trkpt lat="42.633447" lon="0.451252">
        <ele>2348.633</ele>
        <time>2022-08-24T05:52:14Z</time>
      </trkpt>
      <trkpt lat="42.633532" lon="0.451195">
        <ele>2353.189</ele>
        <time>2022-08-24T05:53:30Z</time>
      </trkpt>
      <trkpt lat="42.633608" lon="0.451129">
        <ele>2355.684</ele>
        <time>2022-08-24T05:54:40Z</time>
      </trkpt>
      <trkpt lat="42.633692" lon="0.451072">
        <ele>2358.503</ele>
        <time>2022-08-24T05:55:02Z</time>
      </trkpt>
      <trkpt lat="42.633775" lon="0.451023">
        <ele>2361.259</ele>
        <time>2022-08-24T05:55:23Z</time>
      </trkpt>
      <trkpt lat="42.633842" lon="0.450935">
        <ele>2363.059</ele>
        <time>2022-08-24T05:57:49Z</time>
      </trkpt>
      <trkpt lat="42.633778" lon="0.450846">
        <ele>2365.242</ele>
        <time>2022-08-24T05:58:09Z</time>
      </trkpt>
      <trkpt lat="42.633752" lon="0.450721">
        <ele>2370.116</ele>
        <time>2022-08-24T05:58:42Z</time>
      </trkpt>
      <trkpt lat="42.63367" lon="0.450654">
        <ele>2371.508</ele>
        <time>2022-08-24T05:59:02Z</time>
      </trkpt>
      <trkpt lat="42.633586" lon="0.450611">
        <ele>2372.164</ele>
        <time>2022-08-24T05:59:19Z</time>
      </trkpt>
      <trkpt lat="42.633581" lon="0.450483">
        <ele>2374.063</ele>
        <time>2022-08-24T05:59:37Z</time>
      </trkpt>
      <trkpt lat="42.633518" lon="0.450387">
        <ele>2375.293</ele>
        <time>2022-08-24T05:59:54Z</time>
      </trkpt>
      <trkpt lat="42.633434" lon="0.450336">
        <ele>2376.081</ele>
        <time>2022-08-24T06:00:08Z</time>
      </trkpt>
      <trkpt lat="42.633434" lon="0.45021">
        <ele>2378.165</ele>
        <time>2022-08-24T06:00:28Z</time>
      </trkpt>
      <trkpt lat="42.633382" lon="0.450107">
        <ele>2379.333</ele>
        <time>2022-08-24T06:02:03Z</time>
      </trkpt>
      <trkpt lat="42.633299" lon="0.450058">
        <ele>2384.768</ele>
        <time>2022-08-24T06:03:31Z</time>
      </trkpt>
      <trkpt lat="42.633206" lon="0.450059">
        <ele>2388.902</ele>
        <time>2022-08-24T06:04:31Z</time>
      </trkpt>
      <trkpt lat="42.633255" lon="0.449953">
        <ele>2393.014</ele>
        <time>2022-08-24T06:05:42Z</time>
      </trkpt>
      <trkpt lat="42.633305" lon="0.449843">
        <ele>2394.956</ele>
        <time>2022-08-24T06:05:59Z</time>
      </trkpt>
      <trkpt lat="42.633363" lon="0.449745">
        <ele>2395.264</ele>
        <time>2022-08-24T06:06:15Z</time>
      </trkpt>
      <trkpt lat="42.633407" lon="0.449639">
        <ele>2392.875</ele>
        <time>2022-08-24T06:06:47Z</time>
      </trkpt>
      <trkpt lat="42.633451" lon="0.449524">
        <ele>2392.851</ele>
        <time>2022-08-24T06:07:06Z</time>
      </trkpt>
      <trkpt lat="42.633486" lon="0.449404">
        <ele>2393.507</ele>
        <time>2022-08-24T06:07:24Z</time>
      </trkpt>
      <trkpt lat="42.633455" lon="0.449284">
        <ele>2395.431</ele>
        <time>2022-08-24T06:07:45Z</time>
      </trkpt>
      <trkpt lat="42.633453" lon="0.449152">
        <ele>2396.569</ele>
        <time>2022-08-24T06:07:58Z</time>
      </trkpt>
      <trkpt lat="42.633455" lon="0.449022">
        <ele>2396.733</ele>
        <time>2022-08-24T06:08:11Z</time>
      </trkpt>
      <trkpt lat="42.633484" lon="0.448901">
        <ele>2397.68</ele>
        <time>2022-08-24T06:09:03Z</time>
      </trkpt>
      <trkpt lat="42.633541" lon="0.448801">
        <ele>2398.065</ele>
        <time>2022-08-24T06:10:02Z</time>
      </trkpt>
      <trkpt lat="42.633544" lon="0.448674">
        <ele>2399.391</ele>
        <time>2022-08-24T06:10:23Z</time>
      </trkpt>
      <trkpt lat="42.633531" lon="0.448545">
        <ele>2400.907</ele>
        <time>2022-08-24T06:10:39Z</time>
      </trkpt>
      <trkpt lat="42.633524" lon="0.44842">
        <ele>2401.585</ele>
        <time>2022-08-24T06:10:55Z</time>
      </trkpt>
      <trkpt lat="42.633536" lon="0.448294">
        <ele>2402.164</ele>
        <time>2022-08-24T06:11:15Z</time>
      </trkpt>
      <trkpt lat="42.633544" lon="0.448167">
        <ele>2403.66</ele>
        <time>2022-08-24T06:11:32Z</time>
      </trkpt>
      <trkpt lat="42.633617" lon="0.448078">
        <ele>2405.807</ele>
        <time>2022-08-24T06:11:53Z</time>
      </trkpt>
      <trkpt lat="42.633702" lon="0.448026">
        <ele>2406.618</ele>
        <time>2022-08-24T06:12:08Z</time>
      </trkpt>
      <trkpt lat="42.633783" lon="0.447966">
        <ele>2408.308</ele>
        <time>2022-08-24T06:12:26Z</time>
      </trkpt>
      <trkpt lat="42.63386" lon="0.447895">
        <ele>2408.955</ele>
        <time>2022-08-24T06:12:39Z</time>
      </trkpt>
      <trkpt lat="42.633934" lon="0.447812">
        <ele>2409.249</ele>
        <time>2022-08-24T06:12:52Z</time>
      </trkpt>
      <trkpt lat="42.634008" lon="0.447729">
        <ele>2409.84</ele>
        <time>2022-08-24T06:13:07Z</time>
      </trkpt>
      <trkpt lat="42.633966" lon="0.447616">
        <ele>2411.824</ele>
        <time>2022-08-24T06:13:28Z</time>
      </trkpt>
      <trkpt lat="42.634041" lon="0.447548">
        <ele>2413.431</ele>
        <time>2022-08-24T06:13:44Z</time>
      </trkpt>
      <trkpt lat="42.63407" lon="0.447431">
        <ele>2416.051</ele>
        <time>2022-08-24T06:14:09Z</time>
      </trkpt>
      <trkpt lat="42.634156" lon="0.447471">
        <ele>2416.788</ele>
        <time>2022-08-24T06:14:25Z</time>
      </trkpt>
      <trkpt lat="42.634198" lon="0.447355">
        <ele>2417.408</ele>
        <time>2022-08-24T06:14:44Z</time>
      </trkpt>
      <trkpt lat="42.634289" lon="0.447379">
        <ele>2419.658</ele>
        <time>2022-08-24T06:15:05Z</time>
      </trkpt>
      <trkpt lat="42.634378" lon="0.447343">
        <ele>2422.039</ele>
        <time>2022-08-24T06:15:32Z</time>
      </trkpt>
      <trkpt lat="42.634468" lon="0.447338">
        <ele>2423.893</ele>
        <time>2022-08-24T06:27:33Z</time>
      </trkpt>
      <trkpt lat="42.634558" lon="0.447347">
        <ele>2424.256</ele>
        <time>2022-08-24T06:27:45Z</time>
      </trkpt>
      <trkpt lat="42.634653" lon="0.447352">
        <ele>2425.921</ele>
        <time>2022-08-24T06:28:02Z</time>
      </trkpt>
      <trkpt lat="42.634733" lon="0.44728">
        <ele>2427.523</ele>
        <time>2022-08-24T06:28:22Z</time>
      </trkpt>
      <trkpt lat="42.634813" lon="0.447343">
        <ele>2428.698</ele>
        <time>2022-08-24T06:28:38Z</time>
      </trkpt>
      <trkpt lat="42.634906" lon="0.447377">
        <ele>2429.292</ele>
        <time>2022-08-24T06:28:49Z</time>
      </trkpt>
      <trkpt lat="42.634987" lon="0.447432">
        <ele>2430.036</ele>
        <time>2022-08-24T06:29:08Z</time>
      </trkpt>
      <trkpt lat="42.635062" lon="0.447361">
        <ele>2432.336</ele>
        <time>2022-08-24T06:29:36Z</time>
      </trkpt>
      <trkpt lat="42.635117" lon="0.44726">
        <ele>2433.372</ele>
        <time>2022-08-24T06:30:04Z</time>
      </trkpt>
      <trkpt lat="42.63517" lon="0.44716">
        <ele>2433.556</ele>
        <time>2022-08-24T06:30:27Z</time>
      </trkpt>
      <trkpt lat="42.635265" lon="0.447156">
        <ele>2435.779</ele>
        <time>2022-08-24T06:32:23Z</time>
      </trkpt>
      <trkpt lat="42.63527" lon="0.447029">
        <ele>2436.041</ele>
        <time>2022-08-24T06:32:35Z</time>
      </trkpt>
      <trkpt lat="42.635226" lon="0.446915">
        <ele>2438.555</ele>
        <time>2022-08-24T06:32:52Z</time>
      </trkpt>
      <trkpt lat="42.63529" lon="0.44682">
        <ele>2441.976</ele>
        <time>2022-08-24T06:33:16Z</time>
      </trkpt>
      <trkpt lat="42.635362" lon="0.446742">
        <ele>2445.559</ele>
        <time>2022-08-24T06:33:43Z</time>
      </trkpt>
      <trkpt lat="42.635454" lon="0.446738">
        <ele>2446.143</ele>
        <time>2022-08-24T06:34:09Z</time>
      </trkpt>
      <trkpt lat="42.635545" lon="0.4467">
        <ele>2447.869</ele>
        <time>2022-08-24T06:34:24Z</time>
      </trkpt>
      <trkpt lat="42.635624" lon="0.446636">
        <ele>2449.511</ele>
        <time>2022-08-24T06:34:39Z</time>
      </trkpt>
      <trkpt lat="42.635712" lon="0.446669">
        <ele>2450.982</ele>
        <time>2022-08-24T06:34:55Z</time>
      </trkpt>
      <trkpt lat="42.635797" lon="0.446617">
        <ele>2453.761</ele>
        <time>2022-08-24T06:35:20Z</time>
      </trkpt>
      <trkpt lat="42.635859" lon="0.446525">
        <ele>2455.069</ele>
        <time>2022-08-24T06:35:37Z</time>
      </trkpt>
      <trkpt lat="42.635926" lon="0.446442">
        <ele>2456.362</ele>
        <time>2022-08-24T06:35:53Z</time>
      </trkpt>
      <trkpt lat="42.635983" lon="0.44634">
        <ele>2458.396</ele>
        <time>2022-08-24T06:36:27Z</time>
      </trkpt>
      <trkpt lat="42.636002" lon="0.44622">
        <ele>2461.738</ele>
        <time>2022-08-24T06:36:47Z</time>
      </trkpt>
      <trkpt lat="42.636094" lon="0.44619">
        <ele>2465.089</ele>
        <time>2022-08-24T06:37:09Z</time>
      </trkpt>
      <trkpt lat="42.636127" lon="0.446071">
        <ele>2467.277</ele>
        <time>2022-08-24T06:37:26Z</time>
      </trkpt>
      <trkpt lat="42.636169" lon="0.445956">
        <ele>2468.788</ele>
        <time>2022-08-24T06:37:39Z</time>
      </trkpt>
      <trkpt lat="42.636218" lon="0.44584">
        <ele>2470.049</ele>
        <time>2022-08-24T06:37:53Z</time>
      </trkpt>
      <trkpt lat="42.636247" lon="0.445722">
        <ele>2471.801</ele>
        <time>2022-08-24T06:38:08Z</time>
      </trkpt>
      <trkpt lat="42.636278" lon="0.445607">
        <ele>2474.799</ele>
        <time>2022-08-24T06:38:30Z</time>
      </trkpt>
      <trkpt lat="42.63626" lon="0.445487">
        <ele>2478.292</ele>
        <time>2022-08-24T06:39:02Z</time>
      </trkpt>
      <trkpt lat="42.636318" lon="0.445394">
        <ele>2478.807</ele>
        <time>2022-08-24T06:42:50Z</time>
      </trkpt>
      <trkpt lat="42.636315" lon="0.445263">
        <ele>2479.47</ele>
        <time>2022-08-24T06:43:02Z</time>
      </trkpt>
      <trkpt lat="42.636347" lon="0.445148">
        <ele>2479.686</ele>
        <time>2022-08-24T06:43:12Z</time>
      </trkpt>
      <trkpt lat="42.636348" lon="0.445019">
        <ele>2479.628</ele>
        <time>2022-08-24T06:43:22Z</time>
      </trkpt>
      <trkpt lat="42.636368" lon="0.444895">
        <ele>2480.183</ele>
        <time>2022-08-24T06:43:32Z</time>
      </trkpt>
      <trkpt lat="42.636369" lon="0.444763">
        <ele>2480.745</ele>
        <time>2022-08-24T06:43:43Z</time>
      </trkpt>
      <trkpt lat="42.636394" lon="0.444641">
        <ele>2481.163</ele>
        <time>2022-08-24T06:43:53Z</time>
      </trkpt>
      <trkpt lat="42.636436" lon="0.444529">
        <ele>2481.666</ele>
        <time>2022-08-24T06:44:50Z</time>
      </trkpt>
      <trkpt lat="42.636482" lon="0.444422">
        <ele>2482.372</ele>
        <time>2022-08-24T06:45:04Z</time>
      </trkpt>
      <trkpt lat="42.63648" lon="0.444299">
        <ele>2484.138</ele>
        <time>2022-08-24T06:45:20Z</time>
      </trkpt>
      <trkpt lat="42.63651" lon="0.444178">
        <ele>2485.893</ele>
        <time>2022-08-24T06:45:34Z</time>
      </trkpt>
      <trkpt lat="42.636528" lon="0.444057">
        <ele>2487.592</ele>
        <time>2022-08-24T06:45:50Z</time>
      </trkpt>
      <trkpt lat="42.636578" lon="0.443952">
        <ele>2489.146</ele>
        <time>2022-08-24T06:46:04Z</time>
      </trkpt>
      <trkpt lat="42.636654" lon="0.443882">
        <ele>2490.631</ele>
        <time>2022-08-24T06:46:19Z</time>
      </trkpt>
      <trkpt lat="42.636732" lon="0.443818">
        <ele>2493.317</ele>
        <time>2022-08-24T06:46:37Z</time>
      </trkpt>
      <trkpt lat="42.636822" lon="0.443796">
        <ele>2496.556</ele>
        <time>2022-08-24T06:46:59Z</time>
      </trkpt>
      <trkpt lat="42.636876" lon="0.443698">
        <ele>2499.134</ele>
        <time>2022-08-24T06:47:18Z</time>
      </trkpt>
      <trkpt lat="42.636961" lon="0.443649">
        <ele>2502.046</ele>
        <time>2022-08-24T06:47:42Z</time>
      </trkpt>
      <trkpt lat="42.637016" lon="0.443549">
        <ele>2505.222</ele>
        <time>2022-08-24T06:48:07Z</time>
      </trkpt>
      <trkpt lat="42.637062" lon="0.443441">
        <ele>2506.993</ele>
        <time>2022-08-24T06:48:26Z</time>
      </trkpt>
      <trkpt lat="42.63714" lon="0.443375">
        <ele>2511.119</ele>
        <time>2022-08-24T06:48:54Z</time>
      </trkpt>
      <trkpt lat="42.637192" lon="0.443274">
        <ele>2514.465</ele>
        <time>2022-08-24T06:49:19Z</time>
      </trkpt>
      <trkpt lat="42.637265" lon="0.4432">
        <ele>2517.446</ele>
        <time>2022-08-24T06:49:43Z</time>
      </trkpt>
      <trkpt lat="42.637317" lon="0.443099">
        <ele>2519.725</ele>
        <time>2022-08-24T06:50:02Z</time>
      </trkpt>
      <trkpt lat="42.637393" lon="0.44303">
        <ele>2523.017</ele>
        <time>2022-08-24T06:50:26Z</time>
      </trkpt>
      <trkpt lat="42.637464" lon="0.442951">
        <ele>2525.312</ele>
        <time>2022-08-24T06:50:44Z</time>
      </trkpt>
      <trkpt lat="42.637497" lon="0.442835">
        <ele>2527.033</ele>
        <time>2022-08-24T06:50:59Z</time>
      </trkpt>
      <trkpt lat="42.637513" lon="0.442709">
        <ele>2529.045</ele>
        <time>2022-08-24T06:51:17Z</time>
      </trkpt>
      <trkpt lat="42.637541" lon="0.442583">
        <ele>2530.945</ele>
        <time>2022-08-24T06:51:34Z</time>
      </trkpt>
      <trkpt lat="42.637555" lon="0.442459">
        <ele>2532.233</ele>
        <time>2022-08-24T06:51:49Z</time>
      </trkpt>
      <trkpt lat="42.637574" lon="0.442337">
        <ele>2533.711</ele>
        <time>2022-08-24T06:52:06Z</time>
      </trkpt>
      <trkpt lat="42.637624" lon="0.442232">
        <ele>2536.033</ele>
        <time>2022-08-24T06:54:33Z</time>
      </trkpt>
      <trkpt lat="42.637629" lon="0.4421">
        <ele>2537.733</ele>
        <time>2022-08-24T06:54:49Z</time>
      </trkpt>
      <trkpt lat="42.637623" lon="0.441978">
        <ele>2538.926</ele>
        <time>2022-08-24T06:55:02Z</time>
      </trkpt>
      <trkpt lat="42.637588" lon="0.441861">
        <ele>2540.905</ele>
        <time>2022-08-24T06:55:21Z</time>
      </trkpt>
      <trkpt lat="42.637569" lon="0.44174">
        <ele>2543.877</ele>
        <time>2022-08-24T06:55:42Z</time>
      </trkpt>
      <trkpt lat="42.63755" lon="0.441615">
        <ele>2545.917</ele>
        <time>2022-08-24T06:55:59Z</time>
      </trkpt>
      <trkpt lat="42.637495" lon="0.441513">
        <ele>2548.227</ele>
        <time>2022-08-24T06:56:15Z</time>
      </trkpt>
      <trkpt lat="42.637579" lon="0.441469">
        <ele>2552.001</ele>
        <time>2022-08-24T06:57:05Z</time>
      </trkpt>
      <trkpt lat="42.63767" lon="0.441472">
        <ele>2554.572</ele>
        <time>2022-08-24T06:57:29Z</time>
      </trkpt>
      <trkpt lat="42.63773" lon="0.441381">
        <ele>2556.981</ele>
        <time>2022-08-24T06:57:53Z</time>
      </trkpt>
      <trkpt lat="42.637716" lon="0.441256">
        <ele>2560.213</ele>
        <time>2022-08-24T06:58:18Z</time>
      </trkpt>
      <trkpt lat="42.637761" lon="0.44115">
        <ele>2565.549</ele>
        <time>2022-08-24T06:58:58Z</time>
      </trkpt>
      <trkpt lat="42.637793" lon="0.441035">
        <ele>2568.728</ele>
        <time>2022-08-24T07:01:12Z</time>
      </trkpt>
      <trkpt lat="42.63787" lon="0.440961">
        <ele>2570.631</ele>
        <time>2022-08-24T07:02:34Z</time>
      </trkpt>
      <trkpt lat="42.637964" lon="0.440983">
        <ele>2573.046</ele>
        <time>2022-08-24T07:02:53Z</time>
      </trkpt>
      <trkpt lat="42.638002" lon="0.440868">
        <ele>2577.848</ele>
        <time>2022-08-24T07:03:24Z</time>
      </trkpt>
      <trkpt lat="42.638075" lon="0.440796">
        <ele>2582.654</ele>
        <time>2022-08-24T07:03:57Z</time>
      </trkpt>
      <trkpt lat="42.638126" lon="0.440689">
        <ele>2586.729</ele>
        <time>2022-08-24T07:04:24Z</time>
      </trkpt>
      <trkpt lat="42.638165" lon="0.440577">
        <ele>2589.265</ele>
        <time>2022-08-24T07:04:44Z</time>
      </trkpt>
      <trkpt lat="42.638253" lon="0.440602">
        <ele>2591.182</ele>
        <time>2022-08-24T07:05:04Z</time>
      </trkpt>
      <trkpt lat="42.638328" lon="0.440675">
        <ele>2593.094</ele>
        <time>2022-08-24T07:05:24Z</time>
      </trkpt>
      <trkpt lat="42.638414" lon="0.440721">
        <ele>2594.206</ele>
        <time>2022-08-24T07:05:45Z</time>
      </trkpt>
      <trkpt lat="42.638496" lon="0.440771">
        <ele>2595.046</ele>
        <time>2022-08-24T07:06:01Z</time>
      </trkpt>
      <trkpt lat="42.638576" lon="0.440828">
        <ele>2595.643</ele>
        <time>2022-08-24T07:06:17Z</time>
      </trkpt>
      <trkpt lat="42.638665" lon="0.440835">
        <ele>2599.559</ele>
        <time>2022-08-24T07:06:46Z</time>
      </trkpt>
      <trkpt lat="42.638751" lon="0.440879">
        <ele>2602.876</ele>
        <time>2022-08-24T07:11:26Z</time>
      </trkpt>
      <trkpt lat="42.638837" lon="0.440834">
        <ele>2604.754</ele>
        <time>2022-08-24T07:11:49Z</time>
      </trkpt>
      <trkpt lat="42.638864" lon="0.440713">
        <ele>2606.829</ele>
        <time>2022-08-24T07:12:12Z</time>
      </trkpt>
      <trkpt lat="42.638858" lon="0.440589">
        <ele>2607.885</ele>
        <time>2022-08-24T07:12:28Z</time>
      </trkpt>
      <trkpt lat="42.638889" lon="0.440465">
        <ele>2609.901</ele>
        <time>2022-08-24T07:13:09Z</time>
      </trkpt>
      <trkpt lat="42.638943" lon="0.440359">
        <ele>2611.009</ele>
        <time>2022-08-24T07:13:23Z</time>
      </trkpt>
      <trkpt lat="42.639022" lon="0.44029">
        <ele>2612.734</ele>
        <time>2022-08-24T07:13:41Z</time>
      </trkpt>
      <trkpt lat="42.639106" lon="0.44024">
        <ele>2613.814</ele>
        <time>2022-08-24T07:14:00Z</time>
      </trkpt>
      <trkpt lat="42.639191" lon="0.440188">
        <ele>2614.464</ele>
        <time>2022-08-24T07:14:15Z</time>
      </trkpt>
      <trkpt lat="42.639283" lon="0.440164">
        <ele>2615.596</ele>
        <time>2022-08-24T07:14:31Z</time>
      </trkpt>
      <trkpt lat="42.639373" lon="0.440147">
        <ele>2617.284</ele>
        <time>2022-08-24T07:14:51Z</time>
      </trkpt>
      <trkpt lat="42.639453" lon="0.440086">
        <ele>2619.914</ele>
        <time>2022-08-24T07:15:17Z</time>
      </trkpt>
      <trkpt lat="42.639515" lon="0.439997">
        <ele>2621.793</ele>
        <time>2022-08-24T07:15:36Z</time>
      </trkpt>
      <trkpt lat="42.639558" lon="0.439884">
        <ele>2622.482</ele>
        <time>2022-08-24T07:15:55Z</time>
      </trkpt>
      <trkpt lat="42.63959" lon="0.43977">
        <ele>2626.059</ele>
        <time>2022-08-24T07:16:42Z</time>
      </trkpt>
      <trkpt lat="42.639638" lon="0.43966">
        <ele>2631.439</ele>
        <time>2022-08-24T07:17:32Z</time>
      </trkpt>
      <trkpt lat="42.639731" lon="0.439663">
        <ele>2633.973</ele>
        <time>2022-08-24T07:17:54Z</time>
      </trkpt>
      <trkpt lat="42.639821" lon="0.439658">
        <ele>2636.695</ele>
        <time>2022-08-24T07:18:18Z</time>
      </trkpt>
      <trkpt lat="42.639912" lon="0.439635">
        <ele>2639.675</ele>
        <time>2022-08-24T07:18:46Z</time>
      </trkpt>
      <trkpt lat="42.640005" lon="0.439609">
        <ele>2641.617</ele>
        <time>2022-08-24T07:19:06Z</time>
      </trkpt>
      <trkpt lat="42.640085" lon="0.439548">
        <ele>2643.747</ele>
        <time>2022-08-24T07:19:24Z</time>
      </trkpt>
      <trkpt lat="42.640174" lon="0.439511">
        <ele>2646.634</ele>
        <time>2022-08-24T07:19:47Z</time>
      </trkpt>
      <trkpt lat="42.640258" lon="0.439458">
        <ele>2649.131</ele>
        <time>2022-08-24T07:20:12Z</time>
      </trkpt>
      <trkpt lat="42.640352" lon="0.439459">
        <ele>2651.449</ele>
        <time>2022-08-24T07:20:37Z</time>
      </trkpt>
      <trkpt lat="42.640426" lon="0.439385">
        <ele>2654.552</ele>
        <time>2022-08-24T07:21:08Z</time>
      </trkpt>
      <trkpt lat="42.640505" lon="0.439318">
        <ele>2656.307</ele>
        <time>2022-08-24T07:21:27Z</time>
      </trkpt>
      <trkpt lat="42.640583" lon="0.439251">
        <ele>2657.891</ele>
        <time>2022-08-24T07:21:47Z</time>
      </trkpt>
      <trkpt lat="42.640658" lon="0.439182">
        <ele>2660.01</ele>
        <time>2022-08-24T07:22:07Z</time>
      </trkpt>
      <trkpt lat="42.640738" lon="0.439125">
        <ele>2662.376</ele>
        <time>2022-08-24T07:22:28Z</time>
      </trkpt>
      <trkpt lat="42.640822" lon="0.439078">
        <ele>2664.881</ele>
        <time>2022-08-24T07:22:49Z</time>
      </trkpt>
      <trkpt lat="42.640903" lon="0.439018">
        <ele>2666.853</ele>
        <time>2022-08-24T07:23:28Z</time>
      </trkpt>
      <trkpt lat="42.640986" lon="0.438956">
        <ele>2670.391</ele>
        <time>2022-08-24T07:23:50Z</time>
      </trkpt>
      <trkpt lat="42.641064" lon="0.438892">
        <ele>2675.184</ele>
        <time>2022-08-24T07:24:23Z</time>
      </trkpt>
      <trkpt lat="42.641154" lon="0.438909">
        <ele>2678.823</ele>
        <time>2022-08-24T07:24:52Z</time>
      </trkpt>
      <trkpt lat="42.641224" lon="0.438829">
        <ele>2681.375</ele>
        <time>2022-08-24T07:25:44Z</time>
      </trkpt>
      <trkpt lat="42.641315" lon="0.438813">
        <ele>2684.52</ele>
        <time>2022-08-24T07:26:09Z</time>
      </trkpt>
      <trkpt lat="42.641403" lon="0.438758">
        <ele>2687</ele>
        <time>2022-08-24T07:26:43Z</time>
      </trkpt>
      <trkpt lat="42.641483" lon="0.43869">
        <ele>2689</ele>
        <time>2022-08-24T07:27:00Z</time>
      </trkpt>
      <trkpt lat="42.641578" lon="0.438693">
        <ele>2691.456</ele>
        <time>2022-08-24T07:27:26Z</time>
      </trkpt>
      <trkpt lat="42.641669" lon="0.438721">
        <ele>2694</ele>
        <time>2022-08-24T07:27:54Z</time>
      </trkpt>
      <trkpt lat="42.641764" lon="0.438735">
        <ele>2697</ele>
        <time>2022-08-24T07:28:26Z</time>
      </trkpt>
      <trkpt lat="42.641864" lon="0.43873">
        <ele>2702</ele>
        <time>2022-08-24T07:29:20Z</time>
      </trkpt>
      <trkpt lat="42.641954" lon="0.438677">
        <ele>2707</ele>
        <time>2022-08-24T07:29:57Z</time>
      </trkpt>
      <trkpt lat="42.642035" lon="0.438752">
        <ele>2713.034</ele>
        <time>2022-08-24T07:30:43Z</time>
      </trkpt>
      <trkpt lat="42.642105" lon="0.438674">
        <ele>2717.852</ele>
        <time>2022-08-24T07:31:27Z</time>
      </trkpt>
      <trkpt lat="42.642197" lon="0.438663">
        <ele>2721.139</ele>
        <time>2022-08-24T07:32:03Z</time>
      </trkpt>
      <trkpt lat="42.64228" lon="0.438607">
        <ele>2722</ele>
        <time>2022-08-24T07:32:22Z</time>
      </trkpt>
      <trkpt lat="42.64235" lon="0.438528">
        <ele>2724</ele>
        <time>2022-08-24T07:32:38Z</time>
      </trkpt>
      <trkpt lat="42.642416" lon="0.438442">
        <ele>2727.301</ele>
        <time>2022-08-24T07:33:01Z</time>
      </trkpt>
      <trkpt lat="42.642479" lon="0.438355">
        <ele>2729.066</ele>
        <time>2022-08-24T07:33:26Z</time>
      </trkpt>
      <trkpt lat="42.642535" lon="0.438258">
        <ele>2731.021</ele>
        <time>2022-08-24T07:33:48Z</time>
      </trkpt>
      <trkpt lat="42.64261" lon="0.438179">
        <ele>2732.634</ele>
        <time>2022-08-24T07:34:18Z</time>
      </trkpt>
      <trkpt lat="42.642685" lon="0.438112">
        <ele>2734.684</ele>
        <time>2022-08-24T07:34:38Z</time>
      </trkpt>
      <trkpt lat="42.642776" lon="0.438101">
        <ele>2735.71</ele>
        <time>2022-08-24T07:34:50Z</time>
      </trkpt>
      <trkpt lat="42.64287" lon="0.438096">
        <ele>2737.026</ele>
        <time>2022-08-24T07:35:05Z</time>
      </trkpt>
      <trkpt lat="42.642964" lon="0.438081">
        <ele>2738.496</ele>
        <time>2022-08-24T07:35:26Z</time>
      </trkpt>
      <trkpt lat="42.643062" lon="0.438071">
        <ele>2739.107</ele>
        <time>2022-08-24T07:35:40Z</time>
      </trkpt>
      <trkpt lat="42.643146" lon="0.438025">
        <ele>2740.001</ele>
        <time>2022-08-24T07:35:59Z</time>
      </trkpt>
      <trkpt lat="42.643223" lon="0.43796">
        <ele>2740.089</ele>
        <time>2022-08-24T07:37:33Z</time>
      </trkpt>
      <trkpt lat="42.643299" lon="0.437894">
        <ele>2742.858</ele>
        <time>2022-08-24T07:38:04Z</time>
      </trkpt>
      <trkpt lat="42.643386" lon="0.437844">
        <ele>2746.026</ele>
        <time>2022-08-24T07:38:38Z</time>
      </trkpt>
      <trkpt lat="42.643474" lon="0.437808">
        <ele>2750.774</ele>
        <time>2022-08-24T07:39:38Z</time>
      </trkpt>
      <trkpt lat="42.643556" lon="0.437755">
        <ele>2754.387</ele>
        <time>2022-08-24T07:41:14Z</time>
      </trkpt>
      <trkpt lat="42.643646" lon="0.437741">
        <ele>2758.551</ele>
        <time>2022-08-24T07:41:51Z</time>
      </trkpt>
      <trkpt lat="42.643707" lon="0.437648">
        <ele>2763.531</ele>
        <time>2022-08-24T07:42:35Z</time>
      </trkpt>
      <trkpt lat="42.643778" lon="0.437568">
        <ele>2767.588</ele>
        <time>2022-08-24T07:43:01Z</time>
      </trkpt>
      <trkpt lat="42.643868" lon="0.437529">
        <ele>2770.962</ele>
        <time>2022-08-24T07:43:32Z</time>
      </trkpt>
      <trkpt lat="42.643952" lon="0.437475">
        <ele>2773.306</ele>
        <time>2022-08-24T07:43:55Z</time>
      </trkpt>
      <trkpt lat="42.644043" lon="0.437457">
        <ele>2776.565</ele>
        <time>2022-08-24T07:44:35Z</time>
      </trkpt>
      <trkpt lat="42.644128" lon="0.437405">
        <ele>2779.99</ele>
        <time>2022-08-24T07:45:08Z</time>
      </trkpt>
      <trkpt lat="42.644216" lon="0.437376">
        <ele>2782.866</ele>
        <time>2022-08-24T07:45:31Z</time>
      </trkpt>
      <trkpt lat="42.644296" lon="0.437312">
        <ele>2786.255</ele>
        <time>2022-08-24T07:46:03Z</time>
      </trkpt>
      <trkpt lat="42.644382" lon="0.437272">
        <ele>2789.105</ele>
        <time>2022-08-24T07:46:43Z</time>
      </trkpt>
      <trkpt lat="42.644467" lon="0.437226">
        <ele>2792.193</ele>
        <time>2022-08-24T07:47:57Z</time>
      </trkpt>
      <trkpt lat="42.644556" lon="0.437191">
        <ele>2795.746</ele>
        <time>2022-08-24T07:51:09Z</time>
      </trkpt>
      <trkpt lat="42.644646" lon="0.437182">
        <ele>2799.543</ele>
        <time>2022-08-24T07:51:46Z</time>
      </trkpt>
      <trkpt lat="42.644725" lon="0.437108">
        <ele>2803.862</ele>
        <time>2022-08-24T07:52:42Z</time>
      </trkpt>
      <trkpt lat="42.644816" lon="0.437087">
        <ele>2808.668</ele>
        <time>2022-08-24T07:53:21Z</time>
      </trkpt>
      <trkpt lat="42.644903" lon="0.437048">
        <ele>2813.152</ele>
        <time>2022-08-24T07:54:06Z</time>
      </trkpt>
      <trkpt lat="42.644986" lon="0.436991">
        <ele>2817.983</ele>
        <time>2022-08-24T07:54:51Z</time>
      </trkpt>
      <trkpt lat="42.645077" lon="0.436961">
        <ele>2822.38</ele>
        <time>2022-08-24T07:55:35Z</time>
      </trkpt>
      <trkpt lat="42.645138" lon="0.436869">
        <ele>2827.231</ele>
        <time>2022-08-24T07:56:24Z</time>
      </trkpt>
      <trkpt lat="42.645225" lon="0.436836">
        <ele>2831.12</ele>
        <time>2022-08-24T07:56:58Z</time>
      </trkpt>
      <trkpt lat="42.645316" lon="0.436828">
        <ele>2835.622</ele>
        <time>2022-08-24T07:57:39Z</time>
      </trkpt>
      <trkpt lat="42.645404" lon="0.436861">
        <ele>2838.031</ele>
        <time>2022-08-24T07:58:16Z</time>
      </trkpt>
      <trkpt lat="42.645488" lon="0.436911">
        <ele>2840.102</ele>
        <time>2022-08-24T07:58:37Z</time>
      </trkpt>
      <trkpt lat="42.64558" lon="0.436898">
        <ele>2844.625</ele>
        <time>2022-08-24T07:59:14Z</time>
      </trkpt>
      <trkpt lat="42.645669" lon="0.436921">
        <ele>2849.342</ele>
        <time>2022-08-24T07:59:56Z</time>
      </trkpt>
      <trkpt lat="42.645742" lon="0.436848">
        <ele>2852.936</ele>
        <time>2022-08-24T08:00:33Z</time>
      </trkpt>
      <trkpt lat="42.645808" lon="0.436756">
        <ele>2857.692</ele>
        <time>2022-08-24T08:01:07Z</time>
      </trkpt>
      <trkpt lat="42.645899" lon="0.436757">
        <ele>2862.138</ele>
        <time>2022-08-24T08:02:05Z</time>
      </trkpt>
      <trkpt lat="42.645951" lon="0.436656">
        <ele>2866.044</ele>
        <time>2022-08-24T08:02:40Z</time>
      </trkpt>
      <trkpt lat="42.64604" lon="0.436626">
        <ele>2870.199</ele>
        <time>2022-08-24T08:03:21Z</time>
      </trkpt>
      <trkpt lat="42.646118" lon="0.436565">
        <ele>2874.658</ele>
        <time>2022-08-24T08:04:01Z</time>
      </trkpt>
      <trkpt lat="42.646202" lon="0.436516">
        <ele>2881.611</ele>
        <time>2022-08-24T08:04:57Z</time>
      </trkpt>
      <trkpt lat="42.646285" lon="0.436462">
        <ele>2889.536</ele>
        <time>2022-08-24T08:06:10Z</time>
      </trkpt>
      <trkpt lat="42.646368" lon="0.436411">
        <ele>2894.377</ele>
        <time>2022-08-24T08:07:04Z</time>
      </trkpt>
      <trkpt lat="42.646433" lon="0.436327">
        <ele>2897.735</ele>
        <time>2022-08-24T08:08:24Z</time>
      </trkpt>
      <trkpt lat="42.646525" lon="0.436314">
        <ele>2904.554</ele>
        <time>2022-08-24T08:09:19Z</time>
      </trkpt>
      <trkpt lat="42.646617" lon="0.436318">
        <ele>2907.7</ele>
        <time>2022-08-24T08:10:07Z</time>
      </trkpt>
      <trkpt lat="42.646687" lon="0.43624">
        <ele>2911.042</ele>
        <time>2022-08-24T08:11:02Z</time>
      </trkpt>
      <trkpt lat="42.646773" lon="0.436197">
        <ele>2915.043</ele>
        <time>2022-08-24T08:11:53Z</time>
      </trkpt>
      <trkpt lat="42.646848" lon="0.436129">
        <ele>2919.229</ele>
        <time>2022-08-24T08:12:40Z</time>
      </trkpt>
      <trkpt lat="42.646936" lon="0.436092">
        <ele>2924.731</ele>
        <time>2022-08-24T08:13:25Z</time>
      </trkpt>
      <trkpt lat="42.647026" lon="0.436051">
        <ele>2929.475</ele>
        <time>2022-08-24T08:14:21Z</time>
      </trkpt>
      <trkpt lat="42.647112" lon="0.436012">
        <ele>2935.188</ele>
        <time>2022-08-24T08:15:04Z</time>
      </trkpt>
      <trkpt lat="42.647205" lon="0.435988">
        <ele>2939.609</ele>
        <time>2022-08-24T08:15:50Z</time>
      </trkpt>
      <trkpt lat="42.6473" lon="0.435973">
        <ele>2943.873</ele>
        <time>2022-08-24T08:16:27Z</time>
      </trkpt>
      <trkpt lat="42.647384" lon="0.435927">
        <ele>2947.256</ele>
        <time>2022-08-24T08:16:50Z</time>
      </trkpt>
      <trkpt lat="42.647472" lon="0.435904">
        <ele>2950.415</ele>
        <time>2022-08-24T08:17:14Z</time>
      </trkpt>
      <trkpt lat="42.647565" lon="0.435907">
        <ele>2954.282</ele>
        <time>2022-08-24T08:18:04Z</time>
      </trkpt>
      <trkpt lat="42.647652" lon="0.43587">
        <ele>2957.129</ele>
        <time>2022-08-24T08:18:25Z</time>
      </trkpt>
      <trkpt lat="42.647736" lon="0.435819">
        <ele>2959.917</ele>
        <time>2022-08-24T08:18:52Z</time>
      </trkpt>
      <trkpt lat="42.647822" lon="0.435771">
        <ele>2962.656</ele>
        <time>2022-08-24T08:19:19Z</time>
      </trkpt>
      <trkpt lat="42.647785" lon="0.435884">
        <ele>2963.408</ele>
        <time>2022-08-24T08:29:00Z</time>
      </trkpt>
      <trkpt lat="42.647812" lon="0.435765">
        <ele>2963.467</ele>
        <time>2022-08-24T08:30:14Z</time>
      </trkpt>
      <trkpt lat="42.647903" lon="0.435761">
        <ele>2964.053</ele>
        <time>2022-08-24T08:32:53Z</time>
      </trkpt>
      <trkpt lat="42.647921" lon="0.435642">
        <ele>2968</ele>
        <time>2022-08-24T08:33:27Z</time>
      </trkpt>
      <trkpt lat="42.647934" lon="0.435763">
        <ele>2970.732</ele>
        <time>2022-08-24T08:33:55Z</time>
      </trkpt>
      <trkpt lat="42.64803" lon="0.435769">
        <ele>2977.244</ele>
        <time>2022-08-24T08:35:09Z</time>
      </trkpt>
      <trkpt lat="42.648119" lon="0.43579">
        <ele>2979.648</ele>
        <time>2022-08-24T08:35:31Z</time>
      </trkpt>
      <trkpt lat="42.648205" lon="0.435856">
        <ele>2982.797</ele>
        <time>2022-08-24T08:36:32Z</time>
      </trkpt>
      <trkpt lat="42.648295" lon="0.435899">
        <ele>2984.835</ele>
        <time>2022-08-24T08:36:50Z</time>
      </trkpt>
      <trkpt lat="42.648286" lon="0.436021">
        <ele>2987.907</ele>
        <time>2022-08-24T08:38:46Z</time>
      </trkpt>
      <trkpt lat="42.648312" lon="0.436138">
        <ele>2991.419</ele>
        <time>2022-08-24T08:43:44Z</time>
      </trkpt>
      <trkpt lat="42.648223" lon="0.436114">
        <ele>2991.618</ele>
        <time>2022-08-24T08:47:57Z</time>
      </trkpt>
      <trkpt lat="42.648314" lon="0.436105">
        <ele>2992.612</ele>
        <time>2022-08-24T08:50:04Z</time>
      </trkpt>
      <trkpt lat="42.648389" lon="0.436026">
        <ele>2994.802</ele>
        <time>2022-08-24T08:50:31Z</time>
      </trkpt>
      <trkpt lat="42.648482" lon="0.436027">
        <ele>2999.017</ele>
        <time>2022-08-24T08:51:12Z</time>
      </trkpt>
      <trkpt lat="42.648576" lon="0.436036">
        <ele>3001.627</ele>
        <time>2022-08-24T08:51:38Z</time>
      </trkpt>
      <trkpt lat="42.648668" lon="0.436038">
        <ele>3005.255</ele>
        <time>2022-08-24T08:52:06Z</time>
      </trkpt>
      <trkpt lat="42.648759" lon="0.436049">
        <ele>3008.578</ele>
        <time>2022-08-24T08:52:31Z</time>
      </trkpt>
      <trkpt lat="42.648848" lon="0.43608">
        <ele>3012.685</ele>
        <time>2022-08-24T08:53:29Z</time>
      </trkpt>
      <trkpt lat="42.648891" lon="0.436193">
        <ele>3016.073</ele>
        <time>2022-08-24T08:54:07Z</time>
      </trkpt>
      <trkpt lat="42.64898" lon="0.436219">
        <ele>3021.03</ele>
        <time>2022-08-24T08:54:47Z</time>
      </trkpt>
      <trkpt lat="42.649072" lon="0.436223">
        <ele>3027.088</ele>
        <time>2022-08-24T08:55:37Z</time>
      </trkpt>
      <trkpt lat="42.649161" lon="0.43624">
        <ele>3031.578</ele>
        <time>2022-08-24T08:56:18Z</time>
      </trkpt>
      <trkpt lat="42.649242" lon="0.436294">
        <ele>3033.614</ele>
        <time>2022-08-24T08:58:46Z</time>
      </trkpt>
      <trkpt lat="42.649233" lon="0.436418">
        <ele>3033.553</ele>
        <time>2022-08-24T09:03:41Z</time>
      </trkpt>
      <trkpt lat="42.649221" lon="0.436296">
        <ele>3033.736</ele>
        <time>2022-08-24T09:04:18Z</time>
      </trkpt>
      <trkpt lat="42.649304" lon="0.436353">
        <ele>3037.964</ele>
        <time>2022-08-24T09:13:15Z</time>
      </trkpt>
      <trkpt lat="42.649395" lon="0.436373">
        <ele>3042.948</ele>
        <time>2022-08-24T09:14:16Z</time>
      </trkpt>
      <trkpt lat="42.649486" lon="0.4364">
        <ele>3049.333</ele>
        <time>2022-08-24T09:15:11Z</time>
      </trkpt>
      <trkpt lat="42.649576" lon="0.436396">
        <ele>3055.401</ele>
        <time>2022-08-24T09:16:01Z</time>
      </trkpt>
      <trkpt lat="42.649664" lon="0.436366">
        <ele>3057.585</ele>
        <time>2022-08-24T09:16:30Z</time>
      </trkpt>
      <trkpt lat="42.649757" lon="0.436358">
        <ele>3061.94</ele>
        <time>2022-08-24T09:17:12Z</time>
      </trkpt>
      <trkpt lat="42.649845" lon="0.436391">
        <ele>3066.211</ele>
        <time>2022-08-24T09:18:01Z</time>
      </trkpt>
      <trkpt lat="42.649916" lon="0.436312">
        <ele>3070.48</ele>
        <time>2022-08-24T09:18:36Z</time>
      </trkpt>
      <trkpt lat="42.650006" lon="0.436332">
        <ele>3074.598</ele>
        <time>2022-08-24T09:19:24Z</time>
      </trkpt>
      <trkpt lat="42.650097" lon="0.436315">
        <ele>3078.505</ele>
        <time>2022-08-24T09:20:08Z</time>
      </trkpt>
      <trkpt lat="42.650183" lon="0.436283">
        <ele>3081.471</ele>
        <time>2022-08-24T09:20:39Z</time>
      </trkpt>
      <trkpt lat="42.650271" lon="0.436239">
        <ele>3086.654</ele>
        <time>2022-08-24T09:21:15Z</time>
      </trkpt>
      <trkpt lat="42.650358" lon="0.436202">
        <ele>3091.445</ele>
        <time>2022-08-24T09:22:06Z</time>
      </trkpt>
      <trkpt lat="42.650443" lon="0.436153">
        <ele>3095.125</ele>
        <time>2022-08-24T09:22:46Z</time>
      </trkpt>
      <trkpt lat="42.650531" lon="0.436118">
        <ele>3100.945</ele>
        <time>2022-08-24T09:23:29Z</time>
      </trkpt>
      <trkpt lat="42.650622" lon="0.436132">
        <ele>3105.347</ele>
        <time>2022-08-24T09:24:11Z</time>
      </trkpt>
      <trkpt lat="42.65071" lon="0.436088">
        <ele>3111.434</ele>
        <time>2022-08-24T09:26:00Z</time>
      </trkpt>
      <trkpt lat="42.650796" lon="0.436047">
        <ele>3116.696</ele>
        <time>2022-08-24T09:26:52Z</time>
      </trkpt>
      <trkpt lat="42.650882" lon="0.436001">
        <ele>3121.335</ele>
        <time>2022-08-24T09:27:32Z</time>
      </trkpt>
      <trkpt lat="42.650946" lon="0.436087">
        <ele>3123.953</ele>
        <time>2022-08-24T09:27:57Z</time>
      </trkpt>
      <trkpt lat="42.65103" lon="0.436034">
        <ele>3129.743</ele>
        <time>2022-08-24T09:29:18Z</time>
      </trkpt>
      <trkpt lat="42.651093" lon="0.435946">
        <ele>3133.321</ele>
        <time>2022-08-24T09:29:46Z</time>
      </trkpt>
      <trkpt lat="42.651181" lon="0.435907">
        <ele>3138.307</ele>
        <time>2022-08-24T09:31:29Z</time>
      </trkpt>
      <trkpt lat="42.651236" lon="0.435807">
        <ele>3141.865</ele>
        <time>2022-08-24T09:31:53Z</time>
      </trkpt>
      <trkpt lat="42.651316" lon="0.435867">
        <ele>3145.382</ele>
        <time>2022-08-24T09:32:21Z</time>
      </trkpt>
      <trkpt lat="42.651393" lon="0.435798">
        <ele>3149.611</ele>
        <time>2022-08-24T09:32:50Z</time>
      </trkpt>
      <trkpt lat="42.651483" lon="0.435819">
        <ele>3153.264</ele>
        <time>2022-08-24T09:33:22Z</time>
      </trkpt>
      <trkpt lat="42.651515" lon="0.435934">
        <ele>3156.431</ele>
        <time>2022-08-24T09:33:44Z</time>
      </trkpt>
      <trkpt lat="42.651591" lon="0.435863">
        <ele>3161.602</ele>
        <time>2022-08-24T09:34:16Z</time>
      </trkpt>
      <trkpt lat="42.651664" lon="0.435935">
        <ele>3167.019</ele>
        <time>2022-08-24T09:35:03Z</time>
      </trkpt>
      <trkpt lat="42.651755" lon="0.435918">
        <ele>3172.52</ele>
        <time>2022-08-24T09:35:47Z</time>
      </trkpt>
      <trkpt lat="42.651846" lon="0.435924">
        <ele>3177.014</ele>
        <time>2022-08-24T09:36:30Z</time>
      </trkpt>
      <trkpt lat="42.651914" lon="0.43601">
        <ele>3182.278</ele>
        <time>2022-08-24T09:37:20Z</time>
      </trkpt>
      <trkpt lat="42.651981" lon="0.436095">
        <ele>3188.125</ele>
        <time>2022-08-24T09:38:19Z</time>
      </trkpt>
      <trkpt lat="42.652056" lon="0.436164">
        <ele>3193.089</ele>
        <time>2022-08-24T09:39:46Z</time>
      </trkpt>
      <trkpt lat="42.652142" lon="0.436203">
        <ele>3200.58</ele>
        <time>2022-08-24T09:40:52Z</time>
      </trkpt>
      <trkpt lat="42.652234" lon="0.436189">
        <ele>3204.333</ele>
        <time>2022-08-24T09:41:27Z</time>
      </trkpt>
      <trkpt lat="42.652322" lon="0.436161">
        <ele>3206.392</ele>
        <time>2022-08-24T09:41:53Z</time>
      </trkpt>
      <trkpt lat="42.652414" lon="0.436148">
        <ele>3211.991</ele>
        <time>2022-08-24T09:42:31Z</time>
      </trkpt>
      <trkpt lat="42.652494" lon="0.436206">
        <ele>3216.881</ele>
        <time>2022-08-24T09:43:13Z</time>
      </trkpt>
      <trkpt lat="42.652576" lon="0.436259">
        <ele>3221.689</ele>
        <time>2022-08-24T09:44:20Z</time>
      </trkpt>
      <trkpt lat="42.65263" lon="0.436153">
        <ele>3224.173</ele>
        <time>2022-08-24T09:44:58Z</time>
      </trkpt>
      <trkpt lat="42.652716" lon="0.436191">
        <ele>3227.946</ele>
        <time>2022-08-24T09:46:45Z</time>
      </trkpt>
      <trkpt lat="42.652801" lon="0.436144">
        <ele>3229.018</ele>
        <time>2022-08-24T09:47:15Z</time>
      </trkpt>
      <trkpt lat="42.652889" lon="0.43619">
        <ele>3233.124</ele>
        <time>2022-08-24T09:47:59Z</time>
      </trkpt>
      <trkpt lat="42.652978" lon="0.436211">
        <ele>3234.455</ele>
        <time>2022-08-24T09:48:39Z</time>
      </trkpt>
      <trkpt lat="42.653059" lon="0.436149">
        <ele>3235.469</ele>
        <time>2022-08-24T09:48:56Z</time>
      </trkpt>
      <trkpt lat="42.653142" lon="0.436199">
        <ele>3240.846</ele>
        <time>2022-08-24T09:50:11Z</time>
      </trkpt>
      <trkpt lat="42.653231" lon="0.436223">
        <ele>3243.743</ele>
        <time>2022-08-24T09:50:52Z</time>
      </trkpt>
      <trkpt lat="42.653324" lon="0.436238">
        <ele>3246.914</ele>
        <time>2022-08-24T09:52:45Z</time>
      </trkpt>
      <trkpt lat="42.653415" lon="0.43623">
        <ele>3250.539</ele>
        <time>2022-08-24T09:53:38Z</time>
      </trkpt>
      <trkpt lat="42.653504" lon="0.436267">
        <ele>3254.467</ele>
        <time>2022-08-24T09:54:35Z</time>
      </trkpt>
      <trkpt lat="42.653596" lon="0.436278">
        <ele>3256.628</ele>
        <time>2022-08-24T09:55:59Z</time>
      </trkpt>
      <trkpt lat="42.653681" lon="0.436239">
        <ele>3260.635</ele>
        <time>2022-08-24T09:56:30Z</time>
      </trkpt>
      <trkpt lat="42.65375" lon="0.436158">
        <ele>3263.994</ele>
        <time>2022-08-24T09:57:23Z</time>
      </trkpt>
      <trkpt lat="42.653795" lon="0.436048">
        <ele>3265.637</ele>
        <time>2022-08-24T09:58:02Z</time>
      </trkpt>
      <trkpt lat="42.653877" lon="0.435991">
        <ele>3269.195</ele>
        <time>2022-08-24T09:58:48Z</time>
      </trkpt>
      <trkpt lat="42.653957" lon="0.435924">
        <ele>3271.812</ele>
        <time>2022-08-24T09:59:19Z</time>
      </trkpt>
      <trkpt lat="42.654034" lon="0.435845">
        <ele>3271.954</ele>
        <time>2022-08-24T09:59:58Z</time>
      </trkpt>
      <trkpt lat="42.654112" lon="0.435777">
        <ele>3274.789</ele>
        <time>2022-08-24T10:00:38Z</time>
      </trkpt>
      <trkpt lat="42.654174" lon="0.435681">
        <ele>3276.283</ele>
        <time>2022-08-24T10:00:57Z</time>
      </trkpt>
      <trkpt lat="42.654254" lon="0.435613">
        <ele>3278.89</ele>
        <time>2022-08-24T10:01:35Z</time>
      </trkpt>
      <trkpt lat="42.654328" lon="0.435537">
        <ele>3282.93</ele>
        <time>2022-08-24T10:02:08Z</time>
      </trkpt>
      <trkpt lat="42.654388" lon="0.435441">
        <ele>3286.668</ele>
        <time>2022-08-24T10:02:50Z</time>
      </trkpt>
      <trkpt lat="42.65447" lon="0.435379">
        <ele>3288.599</ele>
        <time>2022-08-24T10:03:07Z</time>
      </trkpt>
      <trkpt lat="42.65454" lon="0.435301">
        <ele>3290.903</ele>
        <time>2022-08-24T10:03:25Z</time>
      </trkpt>
      <trkpt lat="42.654621" lon="0.435244">
        <ele>3294.02</ele>
        <time>2022-08-24T10:04:31Z</time>
      </trkpt>
      <trkpt lat="42.654533" lon="0.435284">
        <ele>3373.152</ele>
        <time>2022-08-24T10:52:11Z</time>
      </trkpt>
      <trkpt lat="42.654464" lon="0.435367">
        <ele>3369.923</ele>
        <time>2022-08-24T10:52:46Z</time>
      </trkpt>
      <trkpt lat="42.654385" lon="0.435427">
        <ele>3368.009</ele>
        <time>2022-08-24T10:53:12Z</time>
      </trkpt>
      <trkpt lat="42.654315" lon="0.435505">
        <ele>3363.326</ele>
        <time>2022-08-24T10:54:45Z</time>
      </trkpt>
      <trkpt lat="42.654243" lon="0.435587">
        <ele>3360.593</ele>
        <time>2022-08-24T10:55:11Z</time>
      </trkpt>
      <trkpt lat="42.654169" lon="0.435659">
        <ele>3356.763</ele>
        <time>2022-08-24T10:55:44Z</time>
      </trkpt>
      <trkpt lat="42.654107" lon="0.435747">
        <ele>3355.44</ele>
        <time>2022-08-24T10:56:02Z</time>
      </trkpt>
      <trkpt lat="42.654026" lon="0.43581">
        <ele>3351.975</ele>
        <time>2022-08-24T10:56:37Z</time>
      </trkpt>
      <trkpt lat="42.653953" lon="0.435881">
        <ele>3352.072</ele>
        <time>2022-08-24T10:56:58Z</time>
      </trkpt>
      <trkpt lat="42.653878" lon="0.435953">
        <ele>3350.151</ele>
        <time>2022-08-24T10:57:37Z</time>
      </trkpt>
      <trkpt lat="42.653802" lon="0.436021">
        <ele>3345.583</ele>
        <time>2022-08-24T10:58:26Z</time>
      </trkpt>
      <trkpt lat="42.653722" lon="0.436084">
        <ele>3343.175</ele>
        <time>2022-08-24T10:59:12Z</time>
      </trkpt>
      <trkpt lat="42.653651" lon="0.436161">
        <ele>3339.486</ele>
        <time>2022-08-24T11:00:47Z</time>
      </trkpt>
      <trkpt lat="42.653567" lon="0.436207">
        <ele>3335.283</ele>
        <time>2022-08-24T11:01:36Z</time>
      </trkpt>
      <trkpt lat="42.653474" lon="0.436189">
        <ele>3332.415</ele>
        <time>2022-08-24T11:02:15Z</time>
      </trkpt>
      <trkpt lat="42.653383" lon="0.436198">
        <ele>3327.828</ele>
        <time>2022-08-24T11:02:55Z</time>
      </trkpt>
      <trkpt lat="42.653293" lon="0.436219">
        <ele>3324.106</ele>
        <time>2022-08-24T11:03:30Z</time>
      </trkpt>
      <trkpt lat="42.653207" lon="0.436182">
        <ele>3322.892</ele>
        <time>2022-08-24T11:03:50Z</time>
      </trkpt>
      <trkpt lat="42.653117" lon="0.436182">
        <ele>3319.989</ele>
        <time>2022-08-24T11:04:19Z</time>
      </trkpt>
      <trkpt lat="42.653027" lon="0.436169">
        <ele>3315.537</ele>
        <time>2022-08-24T11:04:58Z</time>
      </trkpt>
      <trkpt lat="42.652936" lon="0.436164">
        <ele>3312.532</ele>
        <time>2022-08-24T11:05:24Z</time>
      </trkpt>
      <trkpt lat="42.652848" lon="0.436193">
        <ele>3309.638</ele>
        <time>2022-08-24T11:06:13Z</time>
      </trkpt>
      <trkpt lat="42.652759" lon="0.436173">
        <ele>3308.203</ele>
        <time>2022-08-24T11:06:44Z</time>
      </trkpt>
      <trkpt lat="42.65267" lon="0.436159">
        <ele>3304.261</ele>
        <time>2022-08-24T11:09:15Z</time>
      </trkpt>
      <trkpt lat="42.652587" lon="0.436211">
        <ele>3300.368</ele>
        <time>2022-08-24T11:16:00Z</time>
      </trkpt>
      <trkpt lat="42.652504" lon="0.436156">
        <ele>3295.1</ele>
        <time>2022-08-24T11:17:00Z</time>
      </trkpt>
      <trkpt lat="42.652415" lon="0.436175">
        <ele>3291.989</ele>
        <time>2022-08-24T11:17:25Z</time>
      </trkpt>
      <trkpt lat="42.65233" lon="0.43612">
        <ele>3286.501</ele>
        <time>2022-08-24T11:18:01Z</time>
      </trkpt>
      <trkpt lat="42.652238" lon="0.436144">
        <ele>3282.62</ele>
        <time>2022-08-24T11:18:22Z</time>
      </trkpt>
      <trkpt lat="42.652148" lon="0.436162">
        <ele>3279.158</ele>
        <time>2022-08-24T11:18:41Z</time>
      </trkpt>
      <trkpt lat="42.652057" lon="0.436181">
        <ele>3274.155</ele>
        <time>2022-08-24T11:19:19Z</time>
      </trkpt>
      <trkpt lat="42.651997" lon="0.436088">
        <ele>3267.161</ele>
        <time>2022-08-24T11:20:42Z</time>
      </trkpt>
      <trkpt lat="42.651906" lon="0.436103">
        <ele>3262.831</ele>
        <time>2022-08-24T11:21:27Z</time>
      </trkpt>
      <trkpt lat="42.651841" lon="0.436013">
        <ele>3257.533</ele>
        <time>2022-08-24T11:22:08Z</time>
      </trkpt>
      <trkpt lat="42.651756" lon="0.436058">
        <ele>3253.305</ele>
        <time>2022-08-24T11:22:37Z</time>
      </trkpt>
      <trkpt lat="42.651697" lon="0.435957">
        <ele>3248.003</ele>
        <time>2022-08-24T11:23:15Z</time>
      </trkpt>
      <trkpt lat="42.651664" lon="0.435842">
        <ele>3243.035</ele>
        <time>2022-08-24T11:23:47Z</time>
      </trkpt>
      <trkpt lat="42.65157" lon="0.435846">
        <ele>3239.617</ele>
        <time>2022-08-24T11:24:14Z</time>
      </trkpt>
      <trkpt lat="42.651506" lon="0.435939">
        <ele>3235.693</ele>
        <time>2022-08-24T11:25:08Z</time>
      </trkpt>
      <trkpt lat="42.651495" lon="0.435814">
        <ele>3232.425</ele>
        <time>2022-08-24T11:25:39Z</time>
      </trkpt>
      <trkpt lat="42.651403" lon="0.435794">
        <ele>3228.313</ele>
        <time>2022-08-24T11:26:03Z</time>
      </trkpt>
      <trkpt lat="42.651327" lon="0.435868">
        <ele>3225.018</ele>
        <time>2022-08-24T11:26:26Z</time>
      </trkpt>
      <trkpt lat="42.651274" lon="0.435769">
        <ele>3221.478</ele>
        <time>2022-08-24T11:26:48Z</time>
      </trkpt>
      <trkpt lat="42.651207" lon="0.43586">
        <ele>3218.14</ele>
        <time>2022-08-24T11:27:09Z</time>
      </trkpt>
      <trkpt lat="42.651156" lon="0.43597">
        <ele>3215.073</ele>
        <time>2022-08-24T11:27:27Z</time>
      </trkpt>
      <trkpt lat="42.651104" lon="0.436069">
        <ele>3211.16</ele>
        <time>2022-08-24T11:27:47Z</time>
      </trkpt>
      <trkpt lat="42.65105" lon="0.436173">
        <ele>3206.679</ele>
        <time>2022-08-24T11:28:18Z</time>
      </trkpt>
      <trkpt lat="42.650957" lon="0.436191">
        <ele>3201.223</ele>
        <time>2022-08-24T11:28:44Z</time>
      </trkpt>
      <trkpt lat="42.650873" lon="0.436243">
        <ele>3196.039</ele>
        <time>2022-08-24T11:29:09Z</time>
      </trkpt>
      <trkpt lat="42.650783" lon="0.43624">
        <ele>3192.162</ele>
        <time>2022-08-24T11:29:38Z</time>
      </trkpt>
      <trkpt lat="42.650733" lon="0.436354">
        <ele>3187.915</ele>
        <time>2022-08-24T11:30:11Z</time>
      </trkpt>
      <trkpt lat="42.650649" lon="0.436307">
        <ele>3182.69</ele>
        <time>2022-08-24T11:30:39Z</time>
      </trkpt>
      <trkpt lat="42.650561" lon="0.43636">
        <ele>3178.033</ele>
        <time>2022-08-24T11:30:59Z</time>
      </trkpt>
      <trkpt lat="42.650471" lon="0.436377">
        <ele>3173.292</ele>
        <time>2022-08-24T11:31:21Z</time>
      </trkpt>
      <trkpt lat="42.650387" lon="0.436433">
        <ele>3168.649</ele>
        <time>2022-08-24T11:31:52Z</time>
      </trkpt>
      <trkpt lat="42.650296" lon="0.436401">
        <ele>3163.655</ele>
        <time>2022-08-24T11:32:26Z</time>
      </trkpt>
      <trkpt lat="42.650207" lon="0.436362">
        <ele>3159.964</ele>
        <time>2022-08-24T11:32:47Z</time>
      </trkpt>
      <trkpt lat="42.650134" lon="0.43629">
        <ele>3156.309</ele>
        <time>2022-08-24T11:33:09Z</time>
      </trkpt>
      <trkpt lat="42.650042" lon="0.4363">
        <ele>3152.618</ele>
        <time>2022-08-24T11:33:31Z</time>
      </trkpt>
      <trkpt lat="42.649951" lon="0.436313">
        <ele>3147.787</ele>
        <time>2022-08-24T11:35:12Z</time>
      </trkpt>
      <trkpt lat="42.64986" lon="0.436331">
        <ele>3142.57</ele>
        <time>2022-08-24T11:35:43Z</time>
      </trkpt>
      <trkpt lat="42.64977" lon="0.436313">
        <ele>3135.997</ele>
        <time>2022-08-24T11:36:23Z</time>
      </trkpt>
      <trkpt lat="42.649677" lon="0.436311">
        <ele>3131.018</ele>
        <time>2022-08-24T11:37:25Z</time>
      </trkpt>
      <trkpt lat="42.649597" lon="0.436376">
        <ele>3127.937</ele>
        <time>2022-08-24T11:37:43Z</time>
      </trkpt>
      <trkpt lat="42.649513" lon="0.436327">
        <ele>3123.501</ele>
        <time>2022-08-24T11:38:19Z</time>
      </trkpt>
      <trkpt lat="42.649424" lon="0.4363">
        <ele>3118.404</ele>
        <time>2022-08-24T11:38:58Z</time>
      </trkpt>
      <trkpt lat="42.649332" lon="0.436297">
        <ele>3111.851</ele>
        <time>2022-08-24T11:40:04Z</time>
      </trkpt>
      <trkpt lat="42.649243" lon="0.436272">
        <ele>3106.266</ele>
        <time>2022-08-24T11:40:50Z</time>
      </trkpt>
      <trkpt lat="42.649153" lon="0.436278">
        <ele>3101.749</ele>
        <time>2022-08-24T11:41:13Z</time>
      </trkpt>
      <trkpt lat="42.649063" lon="0.436286">
        <ele>3097.826</ele>
        <time>2022-08-24T11:41:34Z</time>
      </trkpt>
      <trkpt lat="42.648973" lon="0.436289">
        <ele>3092.696</ele>
        <time>2022-08-24T11:42:04Z</time>
      </trkpt>
      <trkpt lat="42.648898" lon="0.436218">
        <ele>3085.114</ele>
        <time>2022-08-24T11:42:59Z</time>
      </trkpt>
      <trkpt lat="42.648834" lon="0.436132">
        <ele>3080.238</ele>
        <time>2022-08-24T11:43:34Z</time>
      </trkpt>
      <trkpt lat="42.648746" lon="0.43609">
        <ele>3076.477</ele>
        <time>2022-08-24T11:43:57Z</time>
      </trkpt>
      <trkpt lat="42.648664" lon="0.436036">
        <ele>3073.49</ele>
        <time>2022-08-24T11:44:10Z</time>
      </trkpt>
      <trkpt lat="42.648572" lon="0.436034">
        <ele>3070.548</ele>
        <time>2022-08-24T11:44:29Z</time>
      </trkpt>
      <trkpt lat="42.648483" lon="0.436001">
        <ele>3066.674</ele>
        <time>2022-08-24T11:44:50Z</time>
      </trkpt>
      <trkpt lat="42.648395" lon="0.436055">
        <ele>3063.334</ele>
        <time>2022-08-24T11:45:17Z</time>
      </trkpt>
      <trkpt lat="42.648303" lon="0.436062">
        <ele>3057.781</ele>
        <time>2022-08-24T11:46:29Z</time>
      </trkpt>
      <trkpt lat="42.6483" lon="0.435939">
        <ele>3049.484</ele>
        <time>2022-08-24T11:49:55Z</time>
      </trkpt>
      <trkpt lat="42.648222" lon="0.435858">
        <ele>3045.443</ele>
        <time>2022-08-24T11:51:12Z</time>
      </trkpt>
      <trkpt lat="42.648132" lon="0.435835">
        <ele>3041.883</ele>
        <time>2022-08-24T11:51:32Z</time>
      </trkpt>
      <trkpt lat="42.648053" lon="0.43576">
        <ele>3033.146</ele>
        <time>2022-08-24T11:53:03Z</time>
      </trkpt>
      <trkpt lat="42.647964" lon="0.435745">
        <ele>3029.732</ele>
        <time>2022-08-24T11:53:21Z</time>
      </trkpt>
      <trkpt lat="42.647868" lon="0.435753">
        <ele>3027.466</ele>
        <time>2022-08-24T11:53:35Z</time>
      </trkpt>
      <trkpt lat="42.647776" lon="0.435761">
        <ele>3025.39</ele>
        <time>2022-08-24T11:53:51Z</time>
      </trkpt>
      <trkpt lat="42.647686" lon="0.435798">
        <ele>3021.481</ele>
        <time>2022-08-24T11:54:51Z</time>
      </trkpt>
      <trkpt lat="42.647638" lon="0.435902">
        <ele>3019.191</ele>
        <time>2022-08-24T11:56:03Z</time>
      </trkpt>
      <trkpt lat="42.647548" lon="0.435876">
        <ele>3015.656</ele>
        <time>2022-08-24T11:56:25Z</time>
      </trkpt>
      <trkpt lat="42.647457" lon="0.435875">
        <ele>3011.934</ele>
        <time>2022-08-24T11:56:50Z</time>
      </trkpt>
      <trkpt lat="42.64737" lon="0.435914">
        <ele>3007.802</ele>
        <time>2022-08-24T11:57:13Z</time>
      </trkpt>
      <trkpt lat="42.647281" lon="0.435936">
        <ele>3003.656</ele>
        <time>2022-08-24T11:57:33Z</time>
      </trkpt>
      <trkpt lat="42.647205" lon="0.436006">
        <ele>2999.888</ele>
        <time>2022-08-24T11:58:03Z</time>
      </trkpt>
      <trkpt lat="42.647113" lon="0.436007">
        <ele>2997.25</ele>
        <time>2022-08-24T11:58:16Z</time>
      </trkpt>
      <trkpt lat="42.647018" lon="0.435986">
        <ele>2994.842</ele>
        <time>2022-08-24T11:58:31Z</time>
      </trkpt>
      <trkpt lat="42.646934" lon="0.436032">
        <ele>2991.629</ele>
        <time>2022-08-24T11:58:46Z</time>
      </trkpt>
      <trkpt lat="42.646847" lon="0.436082">
        <ele>2986.905</ele>
        <time>2022-08-24T11:59:30Z</time>
      </trkpt>
      <trkpt lat="42.64676" lon="0.436113">
        <ele>2983.26</ele>
        <time>2022-08-24T12:00:08Z</time>
      </trkpt>
      <trkpt lat="42.646677" lon="0.436175">
        <ele>2975.746</ele>
        <time>2022-08-24T12:00:49Z</time>
      </trkpt>
      <trkpt lat="42.646594" lon="0.436229">
        <ele>2970.035</ele>
        <time>2022-08-24T12:01:21Z</time>
      </trkpt>
      <trkpt lat="42.646508" lon="0.436278">
        <ele>2963.006</ele>
        <time>2022-08-24T12:02:18Z</time>
      </trkpt>
      <trkpt lat="42.646446" lon="0.436376">
        <ele>2960.542</ele>
        <time>2022-08-24T12:02:39Z</time>
      </trkpt>
      <trkpt lat="42.646359" lon="0.436414">
        <ele>2957.865</ele>
        <time>2022-08-24T12:03:15Z</time>
      </trkpt>
      <trkpt lat="42.646299" lon="0.436512">
        <ele>2954.583</ele>
        <time>2022-08-24T12:03:40Z</time>
      </trkpt>
      <trkpt lat="42.646226" lon="0.436601">
        <ele>2951.358</ele>
        <time>2022-08-24T12:04:04Z</time>
      </trkpt>
      <trkpt lat="42.64614" lon="0.436642">
        <ele>2944.945</ele>
        <time>2022-08-24T12:04:48Z</time>
      </trkpt>
      <trkpt lat="42.646047" lon="0.436655">
        <ele>2939.908</ele>
        <time>2022-08-24T12:05:26Z</time>
      </trkpt>
      <trkpt lat="42.645956" lon="0.436652">
        <ele>2937.158</ele>
        <time>2022-08-24T12:05:49Z</time>
      </trkpt>
      <trkpt lat="42.645863" lon="0.436651">
        <ele>2932.606</ele>
        <time>2022-08-24T12:06:13Z</time>
      </trkpt>
      <trkpt lat="42.645775" lon="0.436612">
        <ele>2929.041</ele>
        <time>2022-08-24T12:06:35Z</time>
      </trkpt>
      <trkpt lat="42.64568" lon="0.436619">
        <ele>2925.398</ele>
        <time>2022-08-24T12:06:55Z</time>
      </trkpt>
      <trkpt lat="42.645588" lon="0.436641">
        <ele>2921.808</ele>
        <time>2022-08-24T12:07:30Z</time>
      </trkpt>
      <trkpt lat="42.645512" lon="0.436707">
        <ele>2918.495</ele>
        <time>2022-08-24T12:07:50Z</time>
      </trkpt>
      <trkpt lat="42.645424" lon="0.436744">
        <ele>2913.658</ele>
        <time>2022-08-24T12:08:23Z</time>
      </trkpt>
      <trkpt lat="42.645344" lon="0.436812">
        <ele>2909.752</ele>
        <time>2022-08-24T12:08:44Z</time>
      </trkpt>
      <trkpt lat="42.645259" lon="0.436853">
        <ele>2904.532</ele>
        <time>2022-08-24T12:09:22Z</time>
      </trkpt>
      <trkpt lat="42.645181" lon="0.436916">
        <ele>2900.18</ele>
        <time>2022-08-24T12:09:47Z</time>
      </trkpt>
      <trkpt lat="42.645143" lon="0.437034">
        <ele>2889</ele>
        <time>2022-08-24T12:11:00Z</time>
      </trkpt>
      <trkpt lat="42.645089" lon="0.437136">
        <ele>2886.103</ele>
        <time>2022-08-24T12:11:21Z</time>
      </trkpt>
      <trkpt lat="42.644997" lon="0.437135">
        <ele>2876.619</ele>
        <time>2022-08-24T12:13:16Z</time>
      </trkpt>
      <trkpt lat="42.644901" lon="0.437125">
        <ele>2871</ele>
        <time>2022-08-24T12:14:15Z</time>
      </trkpt>
      <trkpt lat="42.644807" lon="0.437109">
        <ele>2865</ele>
        <time>2022-08-24T12:14:43Z</time>
      </trkpt>
      <trkpt lat="42.644701" lon="0.437122">
        <ele>2860</ele>
        <time>2022-08-24T12:15:15Z</time>
      </trkpt>
      <trkpt lat="42.644602" lon="0.437173">
        <ele>2855</ele>
        <time>2022-08-24T12:16:03Z</time>
      </trkpt>
      <trkpt lat="42.644518" lon="0.437219">
        <ele>2852</ele>
        <time>2022-08-24T12:16:27Z</time>
      </trkpt>
      <trkpt lat="42.644427" lon="0.437236">
        <ele>2848</ele>
        <time>2022-08-24T12:16:55Z</time>
      </trkpt>
      <trkpt lat="42.644338" lon="0.437288">
        <ele>2845</ele>
        <time>2022-08-24T12:17:19Z</time>
      </trkpt>
      <trkpt lat="42.644255" lon="0.437374">
        <ele>2842</ele>
        <time>2022-08-24T12:17:43Z</time>
      </trkpt>
      <trkpt lat="42.644158" lon="0.437407">
        <ele>2838</ele>
        <time>2022-08-24T12:18:11Z</time>
      </trkpt>
      <trkpt lat="42.644071" lon="0.437475">
        <ele>2835</ele>
        <time>2022-08-24T12:18:35Z</time>
      </trkpt>
      <trkpt lat="42.643974" lon="0.43745">
        <ele>2831</ele>
        <time>2022-08-24T12:18:59Z</time>
      </trkpt>
      <trkpt lat="42.643879" lon="0.437494">
        <ele>2828</ele>
        <time>2022-08-24T12:19:28Z</time>
      </trkpt>
      <trkpt lat="42.643782" lon="0.43753">
        <ele>2825</ele>
        <time>2022-08-24T12:19:48Z</time>
      </trkpt>
      <trkpt lat="42.643723" lon="0.437632">
        <ele>2822</ele>
        <time>2022-08-24T12:20:08Z</time>
      </trkpt>
      <trkpt lat="42.643694" lon="0.437748">
        <ele>2821.777</ele>
        <time>2022-08-24T12:20:17Z</time>
      </trkpt>
      <trkpt lat="42.643687" lon="0.43787">
        <ele>2820.525</ele>
        <time>2022-08-24T12:20:30Z</time>
      </trkpt>
      <trkpt lat="42.643686" lon="0.437999">
        <ele>2820.209</ele>
        <time>2022-08-24T12:20:51Z</time>
      </trkpt>
      <trkpt lat="42.643675" lon="0.438121">
        <ele>2820.064</ele>
        <time>2022-08-24T12:21:03Z</time>
      </trkpt>
      <trkpt lat="42.643674" lon="0.438245">
        <ele>2820.176</ele>
        <time>2022-08-24T12:21:27Z</time>
      </trkpt>
      <trkpt lat="42.643633" lon="0.438355">
        <ele>2816.167</ele>
        <time>2022-08-24T12:22:38Z</time>
      </trkpt>
      <trkpt lat="42.643548" lon="0.438417">
        <ele>2813.667</ele>
        <time>2022-08-24T12:22:54Z</time>
      </trkpt>
      <trkpt lat="42.643465" lon="0.438465">
        <ele>2810.521</ele>
        <time>2022-08-24T12:23:14Z</time>
      </trkpt>
      <trkpt lat="42.643373" lon="0.438467">
        <ele>2807.359</ele>
        <time>2022-08-24T12:23:30Z</time>
      </trkpt>
      <trkpt lat="42.643266" lon="0.438485">
        <ele>2803</ele>
        <time>2022-08-24T12:23:48Z</time>
      </trkpt>
      <trkpt lat="42.643185" lon="0.438421">
        <ele>2799.887</ele>
        <time>2022-08-24T12:24:24Z</time>
      </trkpt>
      <trkpt lat="42.643132" lon="0.438293">
        <ele>2798.25</ele>
        <time>2022-08-24T12:24:39Z</time>
      </trkpt>
      <trkpt lat="42.643045" lon="0.438254">
        <ele>2797.299</ele>
        <time>2022-08-24T12:24:52Z</time>
      </trkpt>
      <trkpt lat="42.64295" lon="0.438276">
        <ele>2796.175</ele>
        <time>2022-08-24T12:25:06Z</time>
      </trkpt>
      <trkpt lat="42.642858" lon="0.438237">
        <ele>2795.365</ele>
        <time>2022-08-24T12:25:22Z</time>
      </trkpt>
      <trkpt lat="42.642768" lon="0.438284">
        <ele>2794.753</ele>
        <time>2022-08-24T12:25:38Z</time>
      </trkpt>
      <trkpt lat="42.642672" lon="0.438296">
        <ele>2791.121</ele>
        <time>2022-08-24T12:26:17Z</time>
      </trkpt>
      <trkpt lat="42.642587" lon="0.438352">
        <ele>2790.141</ele>
        <time>2022-08-24T12:26:35Z</time>
      </trkpt>
      <trkpt lat="42.642499" lon="0.438389">
        <ele>2788.245</ele>
        <time>2022-08-24T12:26:55Z</time>
      </trkpt>
      <trkpt lat="42.642411" lon="0.438422">
        <ele>2785.913</ele>
        <time>2022-08-24T12:27:17Z</time>
      </trkpt>
      <trkpt lat="42.642331" lon="0.438486">
        <ele>2782.47</ele>
        <time>2022-08-24T12:27:36Z</time>
      </trkpt>
      <trkpt lat="42.642262" lon="0.438568">
        <ele>2779.793</ele>
        <time>2022-08-24T12:27:59Z</time>
      </trkpt>
      <trkpt lat="42.642184" lon="0.43863">
        <ele>2778.242</ele>
        <time>2022-08-24T12:28:26Z</time>
      </trkpt>
      <trkpt lat="42.642096" lon="0.438659">
        <ele>2775.079</ele>
        <time>2022-08-24T12:28:43Z</time>
      </trkpt>
      <trkpt lat="42.642009" lon="0.438692">
        <ele>2772.666</ele>
        <time>2022-08-24T12:28:57Z</time>
      </trkpt>
      <trkpt lat="42.641922" lon="0.438722">
        <ele>2769.752</ele>
        <time>2022-08-24T12:29:13Z</time>
      </trkpt>
      <trkpt lat="42.641827" lon="0.438697">
        <ele>2766.27</ele>
        <time>2022-08-24T12:29:33Z</time>
      </trkpt>
      <trkpt lat="42.64183" lon="0.438822">
        <ele>2763.787</ele>
        <time>2022-08-24T12:30:22Z</time>
      </trkpt>
      <trkpt lat="42.64174" lon="0.438802">
        <ele>2762.152</ele>
        <time>2022-08-24T12:30:49Z</time>
      </trkpt>
      <trkpt lat="42.641649" lon="0.438802">
        <ele>2756.498</ele>
        <time>2022-08-24T12:31:36Z</time>
      </trkpt>
      <trkpt lat="42.641559" lon="0.438765">
        <ele>2752.749</ele>
        <time>2022-08-24T12:31:55Z</time>
      </trkpt>
      <trkpt lat="42.641467" lon="0.438768">
        <ele>2750.412</ele>
        <time>2022-08-24T12:32:09Z</time>
      </trkpt>
      <trkpt lat="42.641376" lon="0.438754">
        <ele>2747.356</ele>
        <time>2022-08-24T12:32:31Z</time>
      </trkpt>
      <trkpt lat="42.641286" lon="0.438749">
        <ele>2742.919</ele>
        <time>2022-08-24T12:35:37Z</time>
      </trkpt>
      <trkpt lat="42.641196" lon="0.43877">
        <ele>2742.104</ele>
        <time>2022-08-24T12:35:47Z</time>
      </trkpt>
      <trkpt lat="42.641131" lon="0.43886">
        <ele>2737.201</ele>
        <time>2022-08-24T12:40:32Z</time>
      </trkpt>
      <trkpt lat="42.641051" lon="0.438919">
        <ele>2731.421</ele>
        <time>2022-08-24T12:41:02Z</time>
      </trkpt>
      <trkpt lat="42.640974" lon="0.43899">
        <ele>2726.695</ele>
        <time>2022-08-24T12:41:32Z</time>
      </trkpt>
      <trkpt lat="42.640889" lon="0.439038">
        <ele>2724.743</ele>
        <time>2022-08-24T12:41:47Z</time>
      </trkpt>
      <trkpt lat="42.6408" lon="0.439093">
        <ele>2722.389</ele>
        <time>2022-08-24T12:41:59Z</time>
      </trkpt>
      <trkpt lat="42.640704" lon="0.439096">
        <ele>2719.301</ele>
        <time>2022-08-24T12:42:17Z</time>
      </trkpt>
      <trkpt lat="42.640622" lon="0.439165">
        <ele>2716.64</ele>
        <time>2022-08-24T12:42:34Z</time>
      </trkpt>
      <trkpt lat="42.640547" lon="0.439244">
        <ele>2714.47</ele>
        <time>2022-08-24T12:42:48Z</time>
      </trkpt>
      <trkpt lat="42.640465" lon="0.439304">
        <ele>2712.395</ele>
        <time>2022-08-24T12:43:02Z</time>
      </trkpt>
      <trkpt lat="42.640405" lon="0.439403">
        <ele>2709.851</ele>
        <time>2022-08-24T12:43:59Z</time>
      </trkpt>
      <trkpt lat="42.640319" lon="0.439445">
        <ele>2707.088</ele>
        <time>2022-08-24T12:44:20Z</time>
      </trkpt>
      <trkpt lat="42.640234" lon="0.439492">
        <ele>2703.99</ele>
        <time>2022-08-24T12:44:37Z</time>
      </trkpt>
      <trkpt lat="42.640138" lon="0.439503">
        <ele>2701.993</ele>
        <time>2022-08-24T12:44:52Z</time>
      </trkpt>
      <trkpt lat="42.640056" lon="0.439555">
        <ele>2700.275</ele>
        <time>2022-08-24T12:45:04Z</time>
      </trkpt>
      <trkpt lat="42.639971" lon="0.439606">
        <ele>2698.803</ele>
        <time>2022-08-24T12:45:18Z</time>
      </trkpt>
      <trkpt lat="42.63988" lon="0.439616">
        <ele>2695.501</ele>
        <time>2022-08-24T12:45:42Z</time>
      </trkpt>
      <trkpt lat="42.639788" lon="0.439625">
        <ele>2692.801</ele>
        <time>2022-08-24T12:46:00Z</time>
      </trkpt>
      <trkpt lat="42.639735" lon="0.439729">
        <ele>2688.141</ele>
        <time>2022-08-24T12:47:05Z</time>
      </trkpt>
      <trkpt lat="42.639653" lon="0.43979">
        <ele>2684.272</ele>
        <time>2022-08-24T12:47:36Z</time>
      </trkpt>
      <trkpt lat="42.6396" lon="0.439892">
        <ele>2680.479</ele>
        <time>2022-08-24T12:47:55Z</time>
      </trkpt>
      <trkpt lat="42.639525" lon="0.43997">
        <ele>2679.41</ele>
        <time>2022-08-24T12:48:10Z</time>
      </trkpt>
      <trkpt lat="42.639452" lon="0.440042">
        <ele>2677.145</ele>
        <time>2022-08-24T12:48:31Z</time>
      </trkpt>
      <trkpt lat="42.63938" lon="0.440118">
        <ele>2674.26</ele>
        <time>2022-08-24T12:50:19Z</time>
      </trkpt>
      <trkpt lat="42.639287" lon="0.440146">
        <ele>2673.024</ele>
        <time>2022-08-24T12:50:32Z</time>
      </trkpt>
      <trkpt lat="42.639197" lon="0.440197">
        <ele>2671.605</ele>
        <time>2022-08-24T12:50:42Z</time>
      </trkpt>
      <trkpt lat="42.639107" lon="0.440237">
        <ele>2670.615</ele>
        <time>2022-08-24T12:50:54Z</time>
      </trkpt>
      <trkpt lat="42.639021" lon="0.440293">
        <ele>2669.679</ele>
        <time>2022-08-24T12:51:06Z</time>
      </trkpt>
      <trkpt lat="42.638957" lon="0.440381">
        <ele>2668.692</ele>
        <time>2022-08-24T12:51:17Z</time>
      </trkpt>
      <trkpt lat="42.638902" lon="0.440484">
        <ele>2667.632</ele>
        <time>2022-08-24T12:51:32Z</time>
      </trkpt>
      <trkpt lat="42.638866" lon="0.440602">
        <ele>2666.397</ele>
        <time>2022-08-24T12:51:44Z</time>
      </trkpt>
      <trkpt lat="42.638846" lon="0.440724">
        <ele>2664.503</ele>
        <time>2022-08-24T12:51:59Z</time>
      </trkpt>
      <trkpt lat="42.638839" lon="0.440851">
        <ele>2662.88</ele>
        <time>2022-08-24T12:52:14Z</time>
      </trkpt>
      <trkpt lat="42.638823" lon="0.440974">
        <ele>2660.666</ele>
        <time>2022-08-24T12:52:26Z</time>
      </trkpt>
      <trkpt lat="42.638784" lon="0.441095">
        <ele>2659.038</ele>
        <time>2022-08-24T12:52:37Z</time>
      </trkpt>
      <trkpt lat="42.638807" lon="0.441215">
        <ele>2656.982</ele>
        <time>2022-08-24T12:53:24Z</time>
      </trkpt>
      <trkpt lat="42.638793" lon="0.441338">
        <ele>2655.364</ele>
        <time>2022-08-24T12:53:35Z</time>
      </trkpt>
      <trkpt lat="42.638782" lon="0.441465">
        <ele>2653.407</ele>
        <time>2022-08-24T12:53:48Z</time>
      </trkpt>
      <trkpt lat="42.638783" lon="0.441595">
        <ele>2650.945</ele>
        <time>2022-08-24T12:54:08Z</time>
      </trkpt>
      <trkpt lat="42.638773" lon="0.44172">
        <ele>2648.808</ele>
        <time>2022-08-24T12:54:20Z</time>
      </trkpt>
      <trkpt lat="42.638768" lon="0.441843">
        <ele>2647.063</ele>
        <time>2022-08-24T12:54:34Z</time>
      </trkpt>
      <trkpt lat="42.63881" lon="0.441952">
        <ele>2644.652</ele>
        <time>2022-08-24T12:55:13Z</time>
      </trkpt>
      <trkpt lat="42.63876" lon="0.44206">
        <ele>2643.152</ele>
        <time>2022-08-24T12:57:13Z</time>
      </trkpt>
      <trkpt lat="42.638675" lon="0.442101">
        <ele>2639.332</ele>
        <time>2022-08-24T12:57:32Z</time>
      </trkpt>
      <trkpt lat="42.638622" lon="0.442201">
        <ele>2636.608</ele>
        <time>2022-08-24T12:57:50Z</time>
      </trkpt>
      <trkpt lat="42.638538" lon="0.442261">
        <ele>2634.075</ele>
        <time>2022-08-24T12:58:40Z</time>
      </trkpt>
      <trkpt lat="42.638482" lon="0.44236">
        <ele>2630.253</ele>
        <time>2022-08-24T12:59:24Z</time>
      </trkpt>
      <trkpt lat="42.638414" lon="0.442445">
        <ele>2627.073</ele>
        <time>2022-08-24T12:59:41Z</time>
      </trkpt>
      <trkpt lat="42.638341" lon="0.442531">
        <ele>2623.505</ele>
        <time>2022-08-24T12:59:58Z</time>
      </trkpt>
      <trkpt lat="42.638275" lon="0.442618">
        <ele>2621.058</ele>
        <time>2022-08-24T13:00:14Z</time>
      </trkpt>
      <trkpt lat="42.638191" lon="0.44268">
        <ele>2616.755</ele>
        <time>2022-08-24T13:00:35Z</time>
      </trkpt>
      <trkpt lat="42.638127" lon="0.442769">
        <ele>2612.637</ele>
        <time>2022-08-24T13:00:55Z</time>
      </trkpt>
      <trkpt lat="42.638034" lon="0.442775">
        <ele>2607.754</ele>
        <time>2022-08-24T13:01:17Z</time>
      </trkpt>
      <trkpt lat="42.637945" lon="0.442801">
        <ele>2603.945</ele>
        <time>2022-08-24T13:01:42Z</time>
      </trkpt>
      <trkpt lat="42.637855" lon="0.442814">
        <ele>2599.261</ele>
        <time>2022-08-24T13:02:06Z</time>
      </trkpt>
      <trkpt lat="42.637769" lon="0.442761">
        <ele>2595.725</ele>
        <time>2022-08-24T13:02:25Z</time>
      </trkpt>
      <trkpt lat="42.637678" lon="0.442719">
        <ele>2592.413</ele>
        <time>2022-08-24T13:02:43Z</time>
      </trkpt>
      <trkpt lat="42.637594" lon="0.442669">
        <ele>2589.427</ele>
        <time>2022-08-24T13:02:58Z</time>
      </trkpt>
      <trkpt lat="42.637529" lon="0.442757">
        <ele>2586.397</ele>
        <time>2022-08-24T13:03:33Z</time>
      </trkpt>
      <trkpt lat="42.637505" lon="0.442877">
        <ele>2585.506</ele>
        <time>2022-08-24T13:05:06Z</time>
      </trkpt>
      <trkpt lat="42.637459" lon="0.442985">
        <ele>2583.782</ele>
        <time>2022-08-24T13:05:21Z</time>
      </trkpt>
      <trkpt lat="42.637378" lon="0.443051">
        <ele>2580.664</ele>
        <time>2022-08-24T13:05:42Z</time>
      </trkpt>
      <trkpt lat="42.637296" lon="0.443107">
        <ele>2577.829</ele>
        <time>2022-08-24T13:05:56Z</time>
      </trkpt>
      <trkpt lat="42.637222" lon="0.443177">
        <ele>2575.505</ele>
        <time>2022-08-24T13:06:08Z</time>
      </trkpt>
      <trkpt lat="42.63714" lon="0.443239">
        <ele>2572.086</ele>
        <time>2022-08-24T13:06:23Z</time>
      </trkpt>
      <trkpt lat="42.637076" lon="0.443326">
        <ele>2568.738</ele>
        <time>2022-08-24T13:07:08Z</time>
      </trkpt>
      <trkpt lat="42.637023" lon="0.443435">
        <ele>2566.01</ele>
        <time>2022-08-24T13:07:29Z</time>
      </trkpt>
      <trkpt lat="42.636937" lon="0.443485">
        <ele>2562.728</ele>
        <time>2022-08-24T13:07:43Z</time>
      </trkpt>
      <trkpt lat="42.636884" lon="0.443596">
        <ele>2558.532</ele>
        <time>2022-08-24T13:08:35Z</time>
      </trkpt>
      <trkpt lat="42.636823" lon="0.443689">
        <ele>2556.216</ele>
        <time>2022-08-24T13:09:53Z</time>
      </trkpt>
      <trkpt lat="42.636746" lon="0.443756">
        <ele>2553.576</ele>
        <time>2022-08-24T13:10:07Z</time>
      </trkpt>
      <trkpt lat="42.636691" lon="0.443865">
        <ele>2550.254</ele>
        <time>2022-08-24T13:10:20Z</time>
      </trkpt>
      <trkpt lat="42.636612" lon="0.443927">
        <ele>2547.948</ele>
        <time>2022-08-24T13:10:30Z</time>
      </trkpt>
      <trkpt lat="42.636556" lon="0.444025">
        <ele>2546.617</ele>
        <time>2022-08-24T13:10:41Z</time>
      </trkpt>
      <trkpt lat="42.636514" lon="0.444141">
        <ele>2544.993</ele>
        <time>2022-08-24T13:10:53Z</time>
      </trkpt>
      <trkpt lat="42.636515" lon="0.44427">
        <ele>2544.385</ele>
        <time>2022-08-24T13:11:04Z</time>
      </trkpt>
      <trkpt lat="42.636476" lon="0.444387">
        <ele>2541.719</ele>
        <time>2022-08-24T13:11:50Z</time>
      </trkpt>
      <trkpt lat="42.63643" lon="0.444506">
        <ele>2540.636</ele>
        <time>2022-08-24T13:12:03Z</time>
      </trkpt>
      <trkpt lat="42.636395" lon="0.44462">
        <ele>2539.864</ele>
        <time>2022-08-24T13:12:13Z</time>
      </trkpt>
      <trkpt lat="42.63637" lon="0.444741">
        <ele>2539.201</ele>
        <time>2022-08-24T13:12:23Z</time>
      </trkpt>
      <trkpt lat="42.636359" lon="0.44487">
        <ele>2538.114</ele>
        <time>2022-08-24T13:12:36Z</time>
      </trkpt>
      <trkpt lat="42.636341" lon="0.444998">
        <ele>2537.811</ele>
        <time>2022-08-24T13:13:09Z</time>
      </trkpt>
      <trkpt lat="42.63634" lon="0.445125">
        <ele>2537.494</ele>
        <time>2022-08-24T13:13:21Z</time>
      </trkpt>
      <trkpt lat="42.636307" lon="0.445251">
        <ele>2537.37</ele>
        <time>2022-08-24T13:13:32Z</time>
      </trkpt>
      <trkpt lat="42.636305" lon="0.445373">
        <ele>2537.622</ele>
        <time>2022-08-24T13:13:43Z</time>
      </trkpt>
      <trkpt lat="42.636284" lon="0.445493">
        <ele>2536.588</ele>
        <time>2022-08-24T13:15:07Z</time>
      </trkpt>
      <trkpt lat="42.636253" lon="0.445615">
        <ele>2532.956</ele>
        <time>2022-08-24T13:15:27Z</time>
      </trkpt>
      <trkpt lat="42.636245" lon="0.44574">
        <ele>2529.548</ele>
        <time>2022-08-24T13:15:46Z</time>
      </trkpt>
      <trkpt lat="42.636207" lon="0.445863">
        <ele>2527.835</ele>
        <time>2022-08-24T13:15:59Z</time>
      </trkpt>
      <trkpt lat="42.636165" lon="0.445976">
        <ele>2526.363</ele>
        <time>2022-08-24T13:16:16Z</time>
      </trkpt>
      <trkpt lat="42.636123" lon="0.44609">
        <ele>2525.099</ele>
        <time>2022-08-24T13:16:31Z</time>
      </trkpt>
      <trkpt lat="42.636068" lon="0.446186">
        <ele>2522.591</ele>
        <time>2022-08-24T13:23:19Z</time>
      </trkpt>
      <trkpt lat="42.636006" lon="0.44628">
        <ele>2518.925</ele>
        <time>2022-08-24T13:23:40Z</time>
      </trkpt>
      <trkpt lat="42.635963" lon="0.44639">
        <ele>2516.42</ele>
        <time>2022-08-24T13:23:53Z</time>
      </trkpt>
      <trkpt lat="42.63589" lon="0.446473">
        <ele>2515.066</ele>
        <time>2022-08-24T13:24:05Z</time>
      </trkpt>
      <trkpt lat="42.635813" lon="0.446549">
        <ele>2513.684</ele>
        <time>2022-08-24T13:24:17Z</time>
      </trkpt>
      <trkpt lat="42.635737" lon="0.446613">
        <ele>2512.533</ele>
        <time>2022-08-24T13:24:31Z</time>
      </trkpt>
      <trkpt lat="42.635651" lon="0.446654">
        <ele>2509.667</ele>
        <time>2022-08-24T13:24:48Z</time>
      </trkpt>
      <trkpt lat="42.635558" lon="0.446685">
        <ele>2507.263</ele>
        <time>2022-08-24T13:25:08Z</time>
      </trkpt>
      <trkpt lat="42.635468" lon="0.446705">
        <ele>2505.873</ele>
        <time>2022-08-24T13:25:24Z</time>
      </trkpt>
      <trkpt lat="42.635375" lon="0.446702">
        <ele>2504.16</ele>
        <time>2022-08-24T13:25:37Z</time>
      </trkpt>
      <trkpt lat="42.635324" lon="0.446807">
        <ele>2502.344</ele>
        <time>2022-08-24T13:25:53Z</time>
      </trkpt>
      <trkpt lat="42.635273" lon="0.446912">
        <ele>2499.325</ele>
        <time>2022-08-24T13:26:22Z</time>
      </trkpt>
      <trkpt lat="42.635265" lon="0.44704">
        <ele>2495.346</ele>
        <time>2022-08-24T13:26:55Z</time>
      </trkpt>
      <trkpt lat="42.635182" lon="0.447102">
        <ele>2492.772</ele>
        <time>2022-08-24T13:27:25Z</time>
      </trkpt>
      <trkpt lat="42.635142" lon="0.447214">
        <ele>2492.131</ele>
        <time>2022-08-24T13:27:46Z</time>
      </trkpt>
      <trkpt lat="42.635069" lon="0.44729">
        <ele>2490.75</ele>
        <time>2022-08-24T13:28:17Z</time>
      </trkpt>
      <trkpt lat="42.635013" lon="0.447387">
        <ele>2490.295</ele>
        <time>2022-08-24T13:28:45Z</time>
      </trkpt>
      <trkpt lat="42.634919" lon="0.447374">
        <ele>2487.91</ele>
        <time>2022-08-24T13:29:42Z</time>
      </trkpt>
      <trkpt lat="42.634826" lon="0.447353">
        <ele>2487.456</ele>
        <time>2022-08-24T13:29:54Z</time>
      </trkpt>
      <trkpt lat="42.634739" lon="0.447318">
        <ele>2486.097</ele>
        <time>2022-08-24T13:30:11Z</time>
      </trkpt>
      <trkpt lat="42.634653" lon="0.447356">
        <ele>2484.802</ele>
        <time>2022-08-24T13:30:28Z</time>
      </trkpt>
      <trkpt lat="42.634561" lon="0.447362">
        <ele>2483.272</ele>
        <time>2022-08-24T13:30:46Z</time>
      </trkpt>
      <trkpt lat="42.634469" lon="0.447349">
        <ele>2481.742</ele>
        <time>2022-08-24T13:30:59Z</time>
      </trkpt>
      <trkpt lat="42.634382" lon="0.447389">
        <ele>2479.832</ele>
        <time>2022-08-24T13:31:25Z</time>
      </trkpt>
      <trkpt lat="42.634288" lon="0.447386">
        <ele>2477.257</ele>
        <time>2022-08-24T13:31:49Z</time>
      </trkpt>
      <trkpt lat="42.63421" lon="0.447455">
        <ele>2474.646</ele>
        <time>2022-08-24T13:32:08Z</time>
      </trkpt>
      <trkpt lat="42.634116" lon="0.447451">
        <ele>2473.618</ele>
        <time>2022-08-24T13:32:25Z</time>
      </trkpt>
      <trkpt lat="42.634049" lon="0.447539">
        <ele>2472.928</ele>
        <time>2022-08-24T13:33:16Z</time>
      </trkpt>
      <trkpt lat="42.633998" lon="0.44764">
        <ele>2470.156</ele>
        <time>2022-08-24T13:33:35Z</time>
      </trkpt>
      <trkpt lat="42.633967" lon="0.447763">
        <ele>2468.046</ele>
        <time>2022-08-24T13:33:52Z</time>
      </trkpt>
      <trkpt lat="42.633907" lon="0.447858">
        <ele>2467.449</ele>
        <time>2022-08-24T13:34:03Z</time>
      </trkpt>
      <trkpt lat="42.633827" lon="0.447919">
        <ele>2466.824</ele>
        <time>2022-08-24T13:34:13Z</time>
      </trkpt>
      <trkpt lat="42.633754" lon="0.447998">
        <ele>2466.724</ele>
        <time>2022-08-24T13:34:26Z</time>
      </trkpt>
      <trkpt lat="42.633678" lon="0.448074">
        <ele>2465.437</ele>
        <time>2022-08-24T13:34:40Z</time>
      </trkpt>
      <trkpt lat="42.633582" lon="0.448112">
        <ele>2463.955</ele>
        <time>2022-08-24T13:34:52Z</time>
      </trkpt>
      <trkpt lat="42.633549" lon="0.448228">
        <ele>2461.962</ele>
        <time>2022-08-24T13:35:09Z</time>
      </trkpt>
      <trkpt lat="42.633526" lon="0.448347">
        <ele>2461</ele>
        <time>2022-08-24T13:35:21Z</time>
      </trkpt>
      <trkpt lat="42.63351" lon="0.448472">
        <ele>2460.016</ele>
        <time>2022-08-24T13:35:38Z</time>
      </trkpt>
      <trkpt lat="42.633512" lon="0.448604">
        <ele>2459.445</ele>
        <time>2022-08-24T13:35:51Z</time>
      </trkpt>
      <trkpt lat="42.633507" lon="0.448728">
        <ele>2457.813</ele>
        <time>2022-08-24T13:36:11Z</time>
      </trkpt>
      <trkpt lat="42.633506" lon="0.448851">
        <ele>2456.41</ele>
        <time>2022-08-24T13:36:40Z</time>
      </trkpt>
      <trkpt lat="42.633476" lon="0.44897">
        <ele>2455.857</ele>
        <time>2022-08-24T13:37:04Z</time>
      </trkpt>
      <trkpt lat="42.63344" lon="0.449085">
        <ele>2454.946</ele>
        <time>2022-08-24T13:37:21Z</time>
      </trkpt>
      <trkpt lat="42.633427" lon="0.449212">
        <ele>2454.602</ele>
        <time>2022-08-24T13:37:35Z</time>
      </trkpt>
      <trkpt lat="42.633401" lon="0.449329">
        <ele>2453.557</ele>
        <time>2022-08-24T13:37:55Z</time>
      </trkpt>
      <trkpt lat="42.633394" lon="0.449461">
        <ele>2452.515</ele>
        <time>2022-08-24T13:38:09Z</time>
      </trkpt>
      <trkpt lat="42.633404" lon="0.449587">
        <ele>2451.009</ele>
        <time>2022-08-24T13:38:27Z</time>
      </trkpt>
      <trkpt lat="42.633411" lon="0.449714">
        <ele>2450.378</ele>
        <time>2022-08-24T13:38:39Z</time>
      </trkpt>
      <trkpt lat="42.63339" lon="0.449836">
        <ele>2449.851</ele>
        <time>2022-08-24T13:38:52Z</time>
      </trkpt>
      <trkpt lat="42.63336" lon="0.449954">
        <ele>2447.481</ele>
        <time>2022-08-24T13:39:11Z</time>
      </trkpt>
      <trkpt lat="42.633416" lon="0.45005">
        <ele>2441.542</ele>
        <time>2022-08-24T13:40:22Z</time>
      </trkpt>
      <trkpt lat="42.633394" lon="0.450171">
        <ele>2438.218</ele>
        <time>2022-08-24T13:41:09Z</time>
      </trkpt>
      <trkpt lat="42.633459" lon="0.450256">
        <ele>2437.269</ele>
        <time>2022-08-24T13:41:23Z</time>
      </trkpt>
      <trkpt lat="42.633506" lon="0.450369">
        <ele>2435.04</ele>
        <time>2022-08-24T13:41:52Z</time>
      </trkpt>
      <trkpt lat="42.633546" lon="0.45048">
        <ele>2434.301</ele>
        <time>2022-08-24T13:42:06Z</time>
      </trkpt>
      <trkpt lat="42.633564" lon="0.4506">
        <ele>2433.118</ele>
        <time>2022-08-24T13:42:20Z</time>
      </trkpt>
      <trkpt lat="42.633651" lon="0.450645">
        <ele>2431.719</ele>
        <time>2022-08-24T13:42:29Z</time>
      </trkpt>
      <trkpt lat="42.633727" lon="0.450722">
        <ele>2430.026</ele>
        <time>2022-08-24T13:42:43Z</time>
      </trkpt>
      <trkpt lat="42.633771" lon="0.450832">
        <ele>2424.986</ele>
        <time>2022-08-24T13:43:39Z</time>
      </trkpt>
      <trkpt lat="42.633757" lon="0.450962">
        <ele>2422.666</ele>
        <time>2022-08-24T13:44:48Z</time>
      </trkpt>
      <trkpt lat="42.633717" lon="0.451076">
        <ele>2419.312</ele>
        <time>2022-08-24T13:45:19Z</time>
      </trkpt>
      <trkpt lat="42.633636" lon="0.451143">
        <ele>2415.813</ele>
        <time>2022-08-24T13:45:48Z</time>
      </trkpt>
      <trkpt lat="42.633556" lon="0.451205">
        <ele>2412.696</ele>
        <time>2022-08-24T13:46:34Z</time>
      </trkpt>
      <trkpt lat="42.63349" lon="0.451293">
        <ele>2407.143</ele>
        <time>2022-08-24T13:47:37Z</time>
      </trkpt>
      <trkpt lat="42.633402" lon="0.451333">
        <ele>2402.988</ele>
        <time>2022-08-24T13:48:07Z</time>
      </trkpt>
      <trkpt lat="42.633311" lon="0.45134">
        <ele>2398.723</ele>
        <time>2022-08-24T13:48:45Z</time>
      </trkpt>
      <trkpt lat="42.633225" lon="0.451382">
        <ele>2395.073</ele>
        <time>2022-08-24T13:49:29Z</time>
      </trkpt>
      <trkpt lat="42.633155" lon="0.451465">
        <ele>2390.553</ele>
        <time>2022-08-24T13:49:57Z</time>
      </trkpt>
      <trkpt lat="42.633089" lon="0.451551">
        <ele>2388.1</ele>
        <time>2022-08-24T13:50:25Z</time>
      </trkpt>
      <trkpt lat="42.63302" lon="0.451637">
        <ele>2385.926</ele>
        <time>2022-08-24T13:50:54Z</time>
      </trkpt>
      <trkpt lat="42.633009" lon="0.451759">
        <ele>2383.863</ele>
        <time>2022-08-24T13:51:24Z</time>
      </trkpt>
      <trkpt lat="42.632997" lon="0.451883">
        <ele>2379.618</ele>
        <time>2022-08-24T13:51:52Z</time>
      </trkpt>
      <trkpt lat="42.632999" lon="0.45201">
        <ele>2376.488</ele>
        <time>2022-08-24T13:54:28Z</time>
      </trkpt>
      <trkpt lat="42.633066" lon="0.452095">
        <ele>2374.173</ele>
        <time>2022-08-24T13:54:54Z</time>
      </trkpt>
      <trkpt lat="42.632993" lon="0.45217">
        <ele>2371.245</ele>
        <time>2022-08-24T13:55:13Z</time>
      </trkpt>
      <trkpt lat="42.633046" lon="0.452292">
        <ele>2369.451</ele>
        <time>2022-08-24T13:55:37Z</time>
      </trkpt>
      <trkpt lat="42.633004" lon="0.452407">
        <ele>2366.317</ele>
        <time>2022-08-24T13:56:50Z</time>
      </trkpt>
      <trkpt lat="42.632999" lon="0.452532">
        <ele>2364.455</ele>
        <time>2022-08-24T13:57:04Z</time>
      </trkpt>
      <trkpt lat="42.63298" lon="0.452655">
        <ele>2362.575</ele>
        <time>2022-08-24T13:57:25Z</time>
      </trkpt>
      <trkpt lat="42.632905" lon="0.452726">
        <ele>2359.268</ele>
        <time>2022-08-24T13:57:46Z</time>
      </trkpt>
      <trkpt lat="42.632813" lon="0.45275">
        <ele>2357.36</ele>
        <time>2022-08-24T13:58:01Z</time>
      </trkpt>
      <trkpt lat="42.632723" lon="0.452789">
        <ele>2357.49</ele>
        <time>2022-08-24T13:58:15Z</time>
      </trkpt>
      <trkpt lat="42.632639" lon="0.452838">
        <ele>2355.067</ele>
        <time>2022-08-24T13:59:05Z</time>
      </trkpt>
      <trkpt lat="42.632631" lon="0.45296">
        <ele>2353.175</ele>
        <time>2022-08-24T13:59:25Z</time>
      </trkpt>
      <trkpt lat="42.632536" lon="0.452996">
        <ele>2351.304</ele>
        <time>2022-08-24T13:59:41Z</time>
      </trkpt>
      <trkpt lat="42.632473" lon="0.453083">
        <ele>2349.36</ele>
        <time>2022-08-24T14:00:00Z</time>
      </trkpt>
      <trkpt lat="42.632397" lon="0.45315">
        <ele>2347.25</ele>
        <time>2022-08-24T14:00:26Z</time>
      </trkpt>
      <trkpt lat="42.632432" lon="0.453265">
        <ele>2342.94</ele>
        <time>2022-08-24T14:00:56Z</time>
      </trkpt>
      <trkpt lat="42.632409" lon="0.453384">
        <ele>2338.029</ele>
        <time>2022-08-24T14:01:27Z</time>
      </trkpt>
      <trkpt lat="42.632346" lon="0.453474">
        <ele>2334.2</ele>
        <time>2022-08-24T14:02:43Z</time>
      </trkpt>
      <trkpt lat="42.63228" lon="0.45356">
        <ele>2330.51</ele>
        <time>2022-08-24T14:03:11Z</time>
      </trkpt>
      <trkpt lat="42.632229" lon="0.453662">
        <ele>2325.321</ele>
        <time>2022-08-24T14:04:10Z</time>
      </trkpt>
      <trkpt lat="42.632135" lon="0.453651">
        <ele>2324.663</ele>
        <time>2022-08-24T14:04:48Z</time>
      </trkpt>
      <trkpt lat="42.632041" lon="0.453669">
        <ele>2324.039</ele>
        <time>2022-08-24T14:05:06Z</time>
      </trkpt>
      <trkpt lat="42.631952" lon="0.453718">
        <ele>2323.875</ele>
        <time>2022-08-24T14:05:14Z</time>
      </trkpt>
      <trkpt lat="42.631877" lon="0.453787">
        <ele>2323.824</ele>
        <time>2022-08-24T14:05:29Z</time>
      </trkpt>
      <trkpt lat="42.631797" lon="0.453854">
        <ele>2323.794</ele>
        <time>2022-08-24T14:05:44Z</time>
      </trkpt>
      <trkpt lat="42.631703" lon="0.453834">
        <ele>2321.222</ele>
        <time>2022-08-24T14:06:05Z</time>
      </trkpt>
      <trkpt lat="42.63165" lon="0.453933">
        <ele>2317.275</ele>
        <time>2022-08-24T14:06:31Z</time>
      </trkpt>
      <trkpt lat="42.631557" lon="0.453935">
        <ele>2314.713</ele>
        <time>2022-08-24T14:06:54Z</time>
      </trkpt>
      <trkpt lat="42.631467" lon="0.453938">
        <ele>2313.275</ele>
        <time>2022-08-24T14:07:11Z</time>
      </trkpt>
      <trkpt lat="42.631384" lon="0.453993">
        <ele>2311.837</ele>
        <time>2022-08-24T14:07:28Z</time>
      </trkpt>
      <trkpt lat="42.63132" lon="0.454083">
        <ele>2310.05</ele>
        <time>2022-08-24T14:07:47Z</time>
      </trkpt>
      <trkpt lat="42.631232" lon="0.454154">
        <ele>2308.947</ele>
        <time>2022-08-24T14:08:41Z</time>
      </trkpt>
      <trkpt lat="42.631153" lon="0.454218">
        <ele>2307.487</ele>
        <time>2022-08-24T14:09:05Z</time>
      </trkpt>
      <trkpt lat="42.631092" lon="0.454312">
        <ele>2304.773</ele>
        <time>2022-08-24T14:09:24Z</time>
      </trkpt>
      <trkpt lat="42.631021" lon="0.454389">
        <ele>2302.969</ele>
        <time>2022-08-24T14:12:09Z</time>
      </trkpt>
      <trkpt lat="42.630951" lon="0.454466">
        <ele>2297.853</ele>
        <time>2022-08-24T14:13:58Z</time>
      </trkpt>
      <trkpt lat="42.630858" lon="0.454452">
        <ele>2295.081</ele>
        <time>2022-08-24T14:14:43Z</time>
      </trkpt>
      <trkpt lat="42.630783" lon="0.454376">
        <ele>2285.474</ele>
        <time>2022-08-24T14:17:53Z</time>
      </trkpt>
      <trkpt lat="42.630686" lon="0.454396">
        <ele>2284.853</ele>
        <time>2022-08-24T14:18:09Z</time>
      </trkpt>
      <trkpt lat="42.630629" lon="0.454492">
        <ele>2283.016</ele>
        <time>2022-08-24T14:18:35Z</time>
      </trkpt>
      <trkpt lat="42.630555" lon="0.454575">
        <ele>2281.597</ele>
        <time>2022-08-24T14:18:48Z</time>
      </trkpt>
      <trkpt lat="42.630505" lon="0.454682">
        <ele>2279.262</ele>
        <time>2022-08-24T14:19:26Z</time>
      </trkpt>
      <trkpt lat="42.630435" lon="0.454772">
        <ele>2276.466</ele>
        <time>2022-08-24T14:19:42Z</time>
      </trkpt>
      <trkpt lat="42.630354" lon="0.454833">
        <ele>2272.389</ele>
        <time>2022-08-24T14:20:04Z</time>
      </trkpt>
      <trkpt lat="42.63026" lon="0.454853">
        <ele>2270.01</ele>
        <time>2022-08-24T14:20:16Z</time>
      </trkpt>
      <trkpt lat="42.630172" lon="0.454895">
        <ele>2267.929</ele>
        <time>2022-08-24T14:20:27Z</time>
      </trkpt>
      <trkpt lat="42.630081" lon="0.454906">
        <ele>2266.229</ele>
        <time>2022-08-24T14:21:02Z</time>
      </trkpt>
      <trkpt lat="42.629998" lon="0.454955">
        <ele>2262.467</ele>
        <time>2022-08-24T14:21:38Z</time>
      </trkpt>
      <trkpt lat="42.629916" lon="0.455012">
        <ele>2259.069</ele>
        <time>2022-08-24T14:22:00Z</time>
      </trkpt>
      <trkpt lat="42.629826" lon="0.455041">
        <ele>2257.113</ele>
        <time>2022-08-24T14:22:13Z</time>
      </trkpt>
      <trkpt lat="42.629755" lon="0.455128">
        <ele>2255.705</ele>
        <time>2022-08-24T14:22:28Z</time>
      </trkpt>
      <trkpt lat="42.629666" lon="0.455162">
        <ele>2254.202</ele>
        <time>2022-08-24T14:22:40Z</time>
      </trkpt>
      <trkpt lat="42.629583" lon="0.455224">
        <ele>2252.758</ele>
        <time>2022-08-24T14:22:53Z</time>
      </trkpt>
      <trkpt lat="42.629509" lon="0.455304">
        <ele>2252.015</ele>
        <time>2022-08-24T14:23:06Z</time>
      </trkpt>
      <trkpt lat="42.629435" lon="0.455378">
        <ele>2251.18</ele>
        <time>2022-08-24T14:23:19Z</time>
      </trkpt>
      <trkpt lat="42.629407" lon="0.455504">
        <ele>2248.107</ele>
        <time>2022-08-24T14:23:44Z</time>
      </trkpt>
      <trkpt lat="42.629351" lon="0.455606">
        <ele>2246.482</ele>
        <time>2022-08-24T14:23:56Z</time>
      </trkpt>
      <trkpt lat="42.629279" lon="0.455691">
        <ele>2245.843</ele>
        <time>2022-08-24T14:24:07Z</time>
      </trkpt>
      <trkpt lat="42.629247" lon="0.455812">
        <ele>2243.885</ele>
        <time>2022-08-24T14:24:25Z</time>
      </trkpt>
      <trkpt lat="42.62919" lon="0.455911">
        <ele>2242.047</ele>
        <time>2022-08-24T14:24:41Z</time>
      </trkpt>
      <trkpt lat="42.629136" lon="0.456015">
        <ele>2239.939</ele>
        <time>2022-08-24T14:25:26Z</time>
      </trkpt>
      <trkpt lat="42.629117" lon="0.45614">
        <ele>2237.617</ele>
        <time>2022-08-24T14:25:50Z</time>
      </trkpt>
      <trkpt lat="42.629085" lon="0.456262">
        <ele>2235.607</ele>
        <time>2022-08-24T14:26:05Z</time>
      </trkpt>
      <trkpt lat="42.629011" lon="0.456335">
        <ele>2232.875</ele>
        <time>2022-08-24T14:26:33Z</time>
      </trkpt>
      <trkpt lat="42.628924" lon="0.456382">
        <ele>2231.204</ele>
        <time>2022-08-24T14:26:54Z</time>
      </trkpt>
      <trkpt lat="42.62885" lon="0.45646">
        <ele>2228.358</ele>
        <time>2022-08-24T14:27:13Z</time>
      </trkpt>
      <trkpt lat="42.628769" lon="0.45652">
        <ele>2225.026</ele>
        <time>2022-08-24T14:28:31Z</time>
      </trkpt>
      <trkpt lat="42.628682" lon="0.456477">
        <ele>2222.248</ele>
        <time>2022-08-24T14:28:49Z</time>
      </trkpt>
      <trkpt lat="42.628631" lon="0.456579">
        <ele>2216.073</ele>
        <time>2022-08-24T14:29:51Z</time>
      </trkpt>
      <trkpt lat="42.628598" lon="0.456699">
        <ele>2211.374</ele>
        <time>2022-08-24T14:30:28Z</time>
      </trkpt>
      <trkpt lat="42.628526" lon="0.456781">
        <ele>2205.715</ele>
        <time>2022-08-24T14:31:10Z</time>
      </trkpt>
      <trkpt lat="42.628441" lon="0.456831">
        <ele>2202.883</ele>
        <time>2022-08-24T14:31:33Z</time>
      </trkpt>
      <trkpt lat="42.628398" lon="0.456943">
        <ele>2199.342</ele>
        <time>2022-08-24T14:32:03Z</time>
      </trkpt>
      <trkpt lat="42.628307" lon="0.456971">
        <ele>2196.194</ele>
        <time>2022-08-24T14:32:26Z</time>
      </trkpt>
      <trkpt lat="42.62822" lon="0.457003">
        <ele>2194.937</ele>
        <time>2022-08-24T14:32:40Z</time>
      </trkpt>
      <trkpt lat="42.628128" lon="0.457013">
        <ele>2194.439</ele>
        <time>2022-08-24T14:32:52Z</time>
      </trkpt>
      <trkpt lat="42.628038" lon="0.45703">
        <ele>2193.595</ele>
        <time>2022-08-24T14:33:12Z</time>
      </trkpt>
      <trkpt lat="42.627947" lon="0.457046">
        <ele>2192.8</ele>
        <time>2022-08-24T14:33:28Z</time>
      </trkpt>
      <trkpt lat="42.627864" lon="0.456991">
        <ele>2191.799</ele>
        <time>2022-08-24T14:33:45Z</time>
      </trkpt>
      <trkpt lat="42.627798" lon="0.456905">
        <ele>2189.917</ele>
        <time>2022-08-24T14:34:01Z</time>
      </trkpt>
      <trkpt lat="42.627706" lon="0.456928">
        <ele>2187.024</ele>
        <time>2022-08-24T14:34:23Z</time>
      </trkpt>
      <trkpt lat="42.62764" lon="0.457013">
        <ele>2184.744</ele>
        <time>2022-08-24T14:34:38Z</time>
      </trkpt>
      <trkpt lat="42.627578" lon="0.457102">
        <ele>2182.756</ele>
        <time>2022-08-24T14:34:55Z</time>
      </trkpt>
      <trkpt lat="42.627551" lon="0.457218">
        <ele>2182.772</ele>
        <time>2022-08-24T14:35:12Z</time>
      </trkpt>
      <trkpt lat="42.627592" lon="0.457339">
        <ele>2183.146</ele>
        <time>2022-08-24T14:35:26Z</time>
      </trkpt>
      <trkpt lat="42.627639" lon="0.457454">
        <ele>2182.866</ele>
        <time>2022-08-24T14:35:39Z</time>
      </trkpt>
      <trkpt lat="42.627567" lon="0.457527">
        <ele>2182.519</ele>
        <time>2022-08-24T14:35:47Z</time>
      </trkpt>
      <trkpt lat="42.627566" lon="0.45765">
        <ele>2182.761</ele>
        <time>2022-08-24T14:36:19Z</time>
      </trkpt>
      <trkpt lat="42.627481" lon="0.457643">
        <ele>2183.924</ele>
        <time>2022-08-24T14:37:05Z</time>
      </trkpt>
      <trkpt lat="42.627479" lon="0.457665">
        <ele>2116.944</ele>
        <time>2022-08-25T04:54:29Z</time>
      </trkpt>
      <trkpt lat="42.627481" lon="0.457665">
        <ele>2116</ele>
        <time>2022-08-25T04:54:30Z</time>
      </trkpt>
      <trkpt lat="42.627455" lon="0.457785">
        <ele>2118.05</ele>
        <time>2022-08-25T04:55:26Z</time>
      </trkpt>
      <trkpt lat="42.627507" lon="0.457682">
        <ele>2116.972</ele>
        <time>2022-08-25T04:57:39Z</time>
      </trkpt>
      <trkpt lat="42.627414" lon="0.457727">
        <ele>2117.72</ele>
        <time>2022-08-25T04:58:25Z</time>
      </trkpt>
      <trkpt lat="42.627414" lon="0.457603">
        <ele>2117.85</ele>
        <time>2022-08-25T04:58:31Z</time>
      </trkpt>
      <trkpt lat="42.62734" lon="0.45753">
        <ele>2115.962</ele>
        <time>2022-08-25T04:58:48Z</time>
      </trkpt>
      <trkpt lat="42.627254" lon="0.457463">
        <ele>2113.582</ele>
        <time>2022-08-25T04:59:10Z</time>
      </trkpt>
      <trkpt lat="42.627182" lon="0.457544">
        <ele>2108.365</ele>
        <time>2022-08-25T04:59:39Z</time>
      </trkpt>
      <trkpt lat="42.627172" lon="0.457669">
        <ele>2103.801</ele>
        <time>2022-08-25T05:00:19Z</time>
      </trkpt>
      <trkpt lat="42.627222" lon="0.457778">
        <ele>2101.016</ele>
        <time>2022-08-25T05:00:36Z</time>
      </trkpt>
      <trkpt lat="42.627245" lon="0.457903">
        <ele>2096.503</ele>
        <time>2022-08-25T05:00:55Z</time>
      </trkpt>
      <trkpt lat="42.627189" lon="0.457998">
        <ele>2092.468</ele>
        <time>2022-08-25T05:01:19Z</time>
      </trkpt>
      <trkpt lat="42.627105" lon="0.458048">
        <ele>2089.831</ele>
        <time>2022-08-25T05:01:37Z</time>
      </trkpt>
      <trkpt lat="42.627058" lon="0.458158">
        <ele>2086.446</ele>
        <time>2022-08-25T05:02:11Z</time>
      </trkpt>
      <trkpt lat="42.627049" lon="0.458282">
        <ele>2083.37</ele>
        <time>2022-08-25T05:02:36Z</time>
      </trkpt>
      <trkpt lat="42.62702" lon="0.458402">
        <ele>2080.028</ele>
        <time>2022-08-25T05:02:58Z</time>
      </trkpt>
      <trkpt lat="42.627031" lon="0.458523">
        <ele>2076.644</ele>
        <time>2022-08-25T05:03:38Z</time>
      </trkpt>
      <trkpt lat="42.62699" lon="0.45864">
        <ele>2074.67</ele>
        <time>2022-08-25T05:03:50Z</time>
      </trkpt>
      <trkpt lat="42.626952" lon="0.458755">
        <ele>2073.274</ele>
        <time>2022-08-25T05:04:02Z</time>
      </trkpt>
      <trkpt lat="42.626922" lon="0.458873">
        <ele>2072.57</ele>
        <time>2022-08-25T05:04:13Z</time>
      </trkpt>
      <trkpt lat="42.626874" lon="0.458982">
        <ele>2072.21</ele>
        <time>2022-08-25T05:04:25Z</time>
      </trkpt>
      <trkpt lat="42.626807" lon="0.459065">
        <ele>2071.283</ele>
        <time>2022-08-25T05:04:37Z</time>
      </trkpt>
      <trkpt lat="42.626759" lon="0.459171">
        <ele>2070.762</ele>
        <time>2022-08-25T05:04:47Z</time>
      </trkpt>
      <trkpt lat="42.62672" lon="0.459285">
        <ele>2069.683</ele>
        <time>2022-08-25T05:05:01Z</time>
      </trkpt>
      <trkpt lat="42.626653" lon="0.459375">
        <ele>2066.989</ele>
        <time>2022-08-25T05:05:26Z</time>
      </trkpt>
      <trkpt lat="42.626607" lon="0.459483">
        <ele>2063.503</ele>
        <time>2022-08-25T05:05:53Z</time>
      </trkpt>
      <trkpt lat="42.626568" lon="0.459594">
        <ele>2060.339</ele>
        <time>2022-08-25T05:06:31Z</time>
      </trkpt>
      <trkpt lat="42.626522" lon="0.459699">
        <ele>2055.803</ele>
        <time>2022-08-25T05:06:55Z</time>
      </trkpt>
      <trkpt lat="42.626523" lon="0.45983">
        <ele>2051.964</ele>
        <time>2022-08-25T05:07:21Z</time>
      </trkpt>
      <trkpt lat="42.626615" lon="0.459824">
        <ele>2047.651</ele>
        <time>2022-08-25T05:07:58Z</time>
      </trkpt>
      <trkpt lat="42.626592" lon="0.459943">
        <ele>2043.917</ele>
        <time>2022-08-25T05:08:28Z</time>
      </trkpt>
      <trkpt lat="42.626549" lon="0.460052">
        <ele>2041.202</ele>
        <time>2022-08-25T05:08:47Z</time>
      </trkpt>
      <trkpt lat="42.626626" lon="0.46012">
        <ele>2037.538</ele>
        <time>2022-08-25T05:09:19Z</time>
      </trkpt>
      <trkpt lat="42.626709" lon="0.460172">
        <ele>2033.404</ele>
        <time>2022-08-25T05:09:51Z</time>
      </trkpt>
      <trkpt lat="42.626806" lon="0.460108">
        <ele>2029</ele>
        <time>2022-08-25T05:10:35Z</time>
      </trkpt>
      <trkpt lat="42.626882" lon="0.460033">
        <ele>2027.149</ele>
        <time>2022-08-25T05:10:51Z</time>
      </trkpt>
      <trkpt lat="42.626887" lon="0.460156">
        <ele>2022.344</ele>
        <time>2022-08-25T05:11:24Z</time>
      </trkpt>
      <trkpt lat="42.626888" lon="0.460278">
        <ele>2016.798</ele>
        <time>2022-08-25T05:11:56Z</time>
      </trkpt>
      <trkpt lat="42.626984" lon="0.460321">
        <ele>2012</ele>
        <time>2022-08-25T05:12:19Z</time>
      </trkpt>
      <trkpt lat="42.626958" lon="0.46044">
        <ele>2007.926</ele>
        <time>2022-08-25T05:14:29Z</time>
      </trkpt>
      <trkpt lat="42.626882" lon="0.460528">
        <ele>2005</ele>
        <time>2022-08-25T05:14:48Z</time>
      </trkpt>
      <trkpt lat="42.626971" lon="0.46056">
        <ele>2001</ele>
        <time>2022-08-25T05:15:09Z</time>
      </trkpt>
      <trkpt lat="42.62705" lon="0.460622">
        <ele>1993.834</ele>
        <time>2022-08-25T05:15:57Z</time>
      </trkpt>
      <trkpt lat="42.62715" lon="0.460642">
        <ele>1989.066</ele>
        <time>2022-08-25T05:16:26Z</time>
      </trkpt>
      <trkpt lat="42.627128" lon="0.460764">
        <ele>1983.494</ele>
        <time>2022-08-25T05:17:05Z</time>
      </trkpt>
      <trkpt lat="42.627201" lon="0.460837">
        <ele>1976.521</ele>
        <time>2022-08-25T05:18:04Z</time>
      </trkpt>
      <trkpt lat="42.627179" lon="0.46096">
        <ele>1973.05</ele>
        <time>2022-08-25T05:18:31Z</time>
      </trkpt>
      <trkpt lat="42.627269" lon="0.460954">
        <ele>1969.736</ele>
        <time>2022-08-25T05:18:52Z</time>
      </trkpt>
      <trkpt lat="42.627311" lon="0.461063">
        <ele>1963.4</ele>
        <time>2022-08-25T05:19:28Z</time>
      </trkpt>
      <trkpt lat="42.627406" lon="0.46106">
        <ele>1959.784</ele>
        <time>2022-08-25T05:20:01Z</time>
      </trkpt>
      <trkpt lat="42.627497" lon="0.461058">
        <ele>1957.406</ele>
        <time>2022-08-25T05:20:16Z</time>
      </trkpt>
      <trkpt lat="42.627587" lon="0.46106">
        <ele>1954.84</ele>
        <time>2022-08-25T05:20:29Z</time>
      </trkpt>
      <trkpt lat="42.627607" lon="0.461183">
        <ele>1949.652</ele>
        <time>2022-08-25T05:21:07Z</time>
      </trkpt>
      <trkpt lat="42.627683" lon="0.461277">
        <ele>1945</ele>
        <time>2022-08-25T05:21:27Z</time>
      </trkpt>
      <trkpt lat="42.62761" lon="0.461361">
        <ele>1942.199</ele>
        <time>2022-08-25T05:21:50Z</time>
      </trkpt>
      <trkpt lat="42.627589" lon="0.461495">
        <ele>1938</ele>
        <time>2022-08-25T05:22:12Z</time>
      </trkpt>
      <trkpt lat="42.62768" lon="0.46156">
        <ele>1935.141</ele>
        <time>2022-08-25T05:22:30Z</time>
      </trkpt>
      <trkpt lat="42.627766" lon="0.461624">
        <ele>1932.987</ele>
        <time>2022-08-25T05:22:41Z</time>
      </trkpt>
      <trkpt lat="42.627841" lon="0.461555">
        <ele>1930.944</ele>
        <time>2022-08-25T05:22:52Z</time>
      </trkpt>
      <trkpt lat="42.627937" lon="0.461577">
        <ele>1928.7</ele>
        <time>2022-08-25T05:23:10Z</time>
      </trkpt>
      <trkpt lat="42.627994" lon="0.461683">
        <ele>1924.512</ele>
        <time>2022-08-25T05:23:38Z</time>
      </trkpt>
      <trkpt lat="42.628013" lon="0.461803">
        <ele>1921.541</ele>
        <time>2022-08-25T05:23:57Z</time>
      </trkpt>
      <trkpt lat="42.628021" lon="0.461933">
        <ele>1916.088</ele>
        <time>2022-08-25T05:25:41Z</time>
      </trkpt>
      <trkpt lat="42.627952" lon="0.462015">
        <ele>1913.861</ele>
        <time>2022-08-25T05:25:56Z</time>
      </trkpt>
      <trkpt lat="42.627936" lon="0.462136">
        <ele>1909</ele>
        <time>2022-08-25T05:26:17Z</time>
      </trkpt>
      <trkpt lat="42.627863" lon="0.462222">
        <ele>1908.083</ele>
        <time>2022-08-25T05:26:32Z</time>
      </trkpt>
      <trkpt lat="42.627789" lon="0.462297">
        <ele>1905.126</ele>
        <time>2022-08-25T05:26:47Z</time>
      </trkpt>
      <trkpt lat="42.627756" lon="0.462411">
        <ele>1902.335</ele>
        <time>2022-08-25T05:27:02Z</time>
      </trkpt>
      <trkpt lat="42.627771" lon="0.46254">
        <ele>1898.065</ele>
        <time>2022-08-25T05:27:24Z</time>
      </trkpt>
      <trkpt lat="42.627721" lon="0.462651">
        <ele>1894.228</ele>
        <time>2022-08-25T05:27:41Z</time>
      </trkpt>
      <trkpt lat="42.627684" lon="0.462767">
        <ele>1891.16</ele>
        <time>2022-08-25T05:27:56Z</time>
      </trkpt>
      <trkpt lat="42.627724" lon="0.462887">
        <ele>1888.781</ele>
        <time>2022-08-25T05:28:07Z</time>
      </trkpt>
      <trkpt lat="42.627651" lon="0.462962">
        <ele>1886.118</ele>
        <time>2022-08-25T05:28:18Z</time>
      </trkpt>
      <trkpt lat="42.627562" lon="0.463011">
        <ele>1884.018</ele>
        <time>2022-08-25T05:28:29Z</time>
      </trkpt>
      <trkpt lat="42.627508" lon="0.463112">
        <ele>1881.812</ele>
        <time>2022-08-25T05:28:42Z</time>
      </trkpt>
      <trkpt lat="42.627436" lon="0.463186">
        <ele>1880.164</ele>
        <time>2022-08-25T05:28:54Z</time>
      </trkpt>
      <trkpt lat="42.627387" lon="0.463289">
        <ele>1879.77</ele>
        <time>2022-08-25T05:29:05Z</time>
      </trkpt>
      <trkpt lat="42.627332" lon="0.4634">
        <ele>1878.609</ele>
        <time>2022-08-25T05:29:18Z</time>
      </trkpt>
      <trkpt lat="42.627284" lon="0.463516">
        <ele>1877.228</ele>
        <time>2022-08-25T05:29:31Z</time>
      </trkpt>
      <trkpt lat="42.627235" lon="0.463629">
        <ele>1875.494</ele>
        <time>2022-08-25T05:29:44Z</time>
      </trkpt>
      <trkpt lat="42.627164" lon="0.463711">
        <ele>1874.334</ele>
        <time>2022-08-25T05:29:57Z</time>
      </trkpt>
      <trkpt lat="42.627077" lon="0.463766">
        <ele>1873.747</ele>
        <time>2022-08-25T05:30:08Z</time>
      </trkpt>
      <trkpt lat="42.626982" lon="0.463793">
        <ele>1872.666</ele>
        <time>2022-08-25T05:30:35Z</time>
      </trkpt>
      <trkpt lat="42.626894" lon="0.463822">
        <ele>1871.595</ele>
        <time>2022-08-25T05:30:54Z</time>
      </trkpt>
      <trkpt lat="42.626806" lon="0.463863">
        <ele>1871.432</ele>
        <time>2022-08-25T05:31:07Z</time>
      </trkpt>
      <trkpt lat="42.626779" lon="0.463986">
        <ele>1871.159</ele>
        <time>2022-08-25T05:31:20Z</time>
      </trkpt>
      <trkpt lat="42.626764" lon="0.464112">
        <ele>1870.155</ele>
        <time>2022-08-25T05:31:34Z</time>
      </trkpt>
      <trkpt lat="42.626689" lon="0.46419">
        <ele>1868.875</ele>
        <time>2022-08-25T05:31:46Z</time>
      </trkpt>
      <trkpt lat="42.626596" lon="0.464245">
        <ele>1867.683</ele>
        <time>2022-08-25T05:31:58Z</time>
      </trkpt>
      <trkpt lat="42.626509" lon="0.464297">
        <ele>1866.47</ele>
        <time>2022-08-25T05:32:13Z</time>
      </trkpt>
      <trkpt lat="42.626487" lon="0.464428">
        <ele>1865.615</ele>
        <time>2022-08-25T05:32:27Z</time>
      </trkpt>
      <trkpt lat="42.626422" lon="0.464519">
        <ele>1864.681</ele>
        <time>2022-08-25T05:32:39Z</time>
      </trkpt>
      <trkpt lat="42.626351" lon="0.464599">
        <ele>1862.636</ele>
        <time>2022-08-25T05:32:58Z</time>
      </trkpt>
      <trkpt lat="42.626314" lon="0.464715">
        <ele>1862.218</ele>
        <time>2022-08-25T05:34:01Z</time>
      </trkpt>
      <trkpt lat="42.626223" lon="0.464771">
        <ele>1860.919</ele>
        <time>2022-08-25T05:34:12Z</time>
      </trkpt>
      <trkpt lat="42.626116" lon="0.464782">
        <ele>1860</ele>
        <time>2022-08-25T05:34:21Z</time>
      </trkpt>
      <trkpt lat="42.626035" lon="0.464861">
        <ele>1859.569</ele>
        <time>2022-08-25T05:34:32Z</time>
      </trkpt>
      <trkpt lat="42.625971" lon="0.464975">
        <ele>1857.579</ele>
        <time>2022-08-25T05:34:46Z</time>
      </trkpt>
      <trkpt lat="42.625937" lon="0.465099">
        <ele>1855.686</ele>
        <time>2022-08-25T05:34:59Z</time>
      </trkpt>
      <trkpt lat="42.625851" lon="0.465168">
        <ele>1854.334</ele>
        <time>2022-08-25T05:35:07Z</time>
      </trkpt>
      <trkpt lat="42.625781" lon="0.465257">
        <ele>1853.369</ele>
        <time>2022-08-25T05:35:18Z</time>
      </trkpt>
      <trkpt lat="42.625693" lon="0.46533">
        <ele>1851.51</ele>
        <time>2022-08-25T05:35:30Z</time>
      </trkpt>
      <trkpt lat="42.6256" lon="0.465358">
        <ele>1850.151</ele>
        <time>2022-08-25T05:35:41Z</time>
      </trkpt>
      <trkpt lat="42.625552" lon="0.465466">
        <ele>1848.115</ele>
        <time>2022-08-25T05:35:57Z</time>
      </trkpt>
      <trkpt lat="42.625612" lon="0.465564">
        <ele>1844.988</ele>
        <time>2022-08-25T05:36:18Z</time>
      </trkpt>
      <trkpt lat="42.6257" lon="0.465537">
        <ele>1842.959</ele>
        <time>2022-08-25T05:36:37Z</time>
      </trkpt>
      <trkpt lat="42.625792" lon="0.465543">
        <ele>1839.83</ele>
        <time>2022-08-25T05:36:57Z</time>
      </trkpt>
      <trkpt lat="42.625878" lon="0.465577">
        <ele>1837.366</ele>
        <time>2022-08-25T05:37:20Z</time>
      </trkpt>
      <trkpt lat="42.625929" lon="0.465683">
        <ele>1835.729</ele>
        <time>2022-08-25T05:37:38Z</time>
      </trkpt>
      <trkpt lat="42.625892" lon="0.465802">
        <ele>1834.146</ele>
        <time>2022-08-25T05:37:58Z</time>
      </trkpt>
      <trkpt lat="42.625818" lon="0.465875">
        <ele>1832.977</ele>
        <time>2022-08-25T05:38:14Z</time>
      </trkpt>
      <trkpt lat="42.625769" lon="0.465987">
        <ele>1832.01</ele>
        <time>2022-08-25T05:38:28Z</time>
      </trkpt>
      <trkpt lat="42.625671" lon="0.465958">
        <ele>1830.596</ele>
        <time>2022-08-25T05:38:39Z</time>
      </trkpt>
      <trkpt lat="42.625574" lon="0.465968">
        <ele>1829.877</ele>
        <time>2022-08-25T05:38:47Z</time>
      </trkpt>
      <trkpt lat="42.625482" lon="0.466001">
        <ele>1828.281</ele>
        <time>2022-08-25T05:39:04Z</time>
      </trkpt>
      <trkpt lat="42.625386" lon="0.466025">
        <ele>1827.036</ele>
        <time>2022-08-25T05:39:19Z</time>
      </trkpt>
      <trkpt lat="42.625302" lon="0.466083">
        <ele>1826.047</ele>
        <time>2022-08-25T05:39:33Z</time>
      </trkpt>
      <trkpt lat="42.62521" lon="0.466103">
        <ele>1825.156</ele>
        <time>2022-08-25T05:39:48Z</time>
      </trkpt>
      <trkpt lat="42.625123" lon="0.466144">
        <ele>1824.642</ele>
        <time>2022-08-25T05:39:58Z</time>
      </trkpt>
      <trkpt lat="42.625061" lon="0.46624">
        <ele>1824</ele>
        <time>2022-08-25T05:40:09Z</time>
      </trkpt>
      <trkpt lat="42.625029" lon="0.466369">
        <ele>1824.854</ele>
        <time>2022-08-25T05:40:19Z</time>
      </trkpt>
      <trkpt lat="42.62494" lon="0.466409">
        <ele>1824.315</ele>
        <time>2022-08-25T05:40:29Z</time>
      </trkpt>
      <trkpt lat="42.624857" lon="0.46648">
        <ele>1825.188</ele>
        <time>2022-08-25T05:40:41Z</time>
      </trkpt>
      <trkpt lat="42.624766" lon="0.466504">
        <ele>1824.38</ele>
        <time>2022-08-25T05:40:56Z</time>
      </trkpt>
      <trkpt lat="42.624671" lon="0.466508">
        <ele>1822.633</ele>
        <time>2022-08-25T05:41:08Z</time>
      </trkpt>
      <trkpt lat="42.624577" lon="0.46653">
        <ele>1821.533</ele>
        <time>2022-08-25T05:41:20Z</time>
      </trkpt>
      <trkpt lat="42.624486" lon="0.466535">
        <ele>1821</ele>
        <time>2022-08-25T05:41:34Z</time>
      </trkpt>
      <trkpt lat="42.624391" lon="0.466556">
        <ele>1820.763</ele>
        <time>2022-08-25T05:41:48Z</time>
      </trkpt>
      <trkpt lat="42.624297" lon="0.466582">
        <ele>1820.498</ele>
        <time>2022-08-25T05:41:59Z</time>
      </trkpt>
      <trkpt lat="42.624195" lon="0.466616">
        <ele>1820.894</ele>
        <time>2022-08-25T05:42:13Z</time>
      </trkpt>
      <trkpt lat="42.624102" lon="0.466616">
        <ele>1820.843</ele>
        <time>2022-08-25T05:42:25Z</time>
      </trkpt>
      <trkpt lat="42.624037" lon="0.466702">
        <ele>1820.811</ele>
        <time>2022-08-25T05:42:41Z</time>
      </trkpt>
      <trkpt lat="42.623946" lon="0.466725">
        <ele>1821.179</ele>
        <time>2022-08-25T05:42:51Z</time>
      </trkpt>
      <trkpt lat="42.623859" lon="0.466763">
        <ele>1821.77</ele>
        <time>2022-08-25T05:43:00Z</time>
      </trkpt>
      <trkpt lat="42.623774" lon="0.46681">
        <ele>1822.374</ele>
        <time>2022-08-25T05:43:11Z</time>
      </trkpt>
      <trkpt lat="42.623753" lon="0.466932">
        <ele>1822.684</ele>
        <time>2022-08-25T05:43:21Z</time>
      </trkpt>
      <trkpt lat="42.62373" lon="0.467053">
        <ele>1822.258</ele>
        <time>2022-08-25T05:43:30Z</time>
      </trkpt>
      <trkpt lat="42.623647" lon="0.467124">
        <ele>1821.213</ele>
        <time>2022-08-25T05:43:40Z</time>
      </trkpt>
      <trkpt lat="42.623559" lon="0.467154">
        <ele>1821.266</ele>
        <time>2022-08-25T05:43:52Z</time>
      </trkpt>
      <trkpt lat="42.623493" lon="0.467242">
        <ele>1822.567</ele>
        <time>2022-08-25T05:44:06Z</time>
      </trkpt>
      <trkpt lat="42.62345" lon="0.467369">
        <ele>1822.936</ele>
        <time>2022-08-25T05:44:17Z</time>
      </trkpt>
      <trkpt lat="42.623422" lon="0.467491">
        <ele>1822.45</ele>
        <time>2022-08-25T05:44:27Z</time>
      </trkpt>
      <trkpt lat="42.623381" lon="0.467605">
        <ele>1821.45</ele>
        <time>2022-08-25T05:44:36Z</time>
      </trkpt>
      <trkpt lat="42.623299" lon="0.467655">
        <ele>1821.797</ele>
        <time>2022-08-25T05:44:47Z</time>
      </trkpt>
      <trkpt lat="42.623295" lon="0.467782">
        <ele>1822.631</ele>
        <time>2022-08-25T05:44:57Z</time>
      </trkpt>
      <trkpt lat="42.623256" lon="0.467902">
        <ele>1823.393</ele>
        <time>2022-08-25T05:45:11Z</time>
      </trkpt>
      <trkpt lat="42.623224" lon="0.468025">
        <ele>1823.357</ele>
        <time>2022-08-25T05:45:20Z</time>
      </trkpt>
      <trkpt lat="42.623164" lon="0.46813">
        <ele>1822.522</ele>
        <time>2022-08-25T05:45:31Z</time>
      </trkpt>
      <trkpt lat="42.62312" lon="0.468245">
        <ele>1821.837</ele>
        <time>2022-08-25T05:45:42Z</time>
      </trkpt>
      <trkpt lat="42.623104" lon="0.468372">
        <ele>1820.347</ele>
        <time>2022-08-25T05:45:53Z</time>
      </trkpt>
      <trkpt lat="42.623088" lon="0.468503">
        <ele>1818.099</ele>
        <time>2022-08-25T05:46:09Z</time>
      </trkpt>
      <trkpt lat="42.62309" lon="0.468627">
        <ele>1815.88</ele>
        <time>2022-08-25T05:46:21Z</time>
      </trkpt>
      <trkpt lat="42.62309" lon="0.468756">
        <ele>1813.484</ele>
        <time>2022-08-25T05:46:34Z</time>
      </trkpt>
      <trkpt lat="42.623059" lon="0.46888">
        <ele>1809.026</ele>
        <time>2022-08-25T05:46:56Z</time>
      </trkpt>
      <trkpt lat="42.623036" lon="0.469007">
        <ele>1806.254</ele>
        <time>2022-08-25T05:47:12Z</time>
      </trkpt>
      <trkpt lat="42.623106" lon="0.469085">
        <ele>1801.412</ele>
        <time>2022-08-25T05:47:41Z</time>
      </trkpt>
      <trkpt lat="42.623174" lon="0.469178">
        <ele>1797.089</ele>
        <time>2022-08-25T05:48:07Z</time>
      </trkpt>
      <trkpt lat="42.623164" lon="0.469303">
        <ele>1793.679</ele>
        <time>2022-08-25T05:48:26Z</time>
      </trkpt>
      <trkpt lat="42.623177" lon="0.469433">
        <ele>1789.754</ele>
        <time>2022-08-25T05:49:15Z</time>
      </trkpt>
      <trkpt lat="42.623155" lon="0.469554">
        <ele>1789.024</ele>
        <time>2022-08-25T05:49:24Z</time>
      </trkpt>
      <trkpt lat="42.623173" lon="0.46968">
        <ele>1786.757</ele>
        <time>2022-08-25T05:49:54Z</time>
      </trkpt>
      <trkpt lat="42.623105" lon="0.469768">
        <ele>1785.396</ele>
        <time>2022-08-25T05:50:12Z</time>
      </trkpt>
      <trkpt lat="42.623017" lon="0.469818">
        <ele>1784.568</ele>
        <time>2022-08-25T05:50:24Z</time>
      </trkpt>
      <trkpt lat="42.622982" lon="0.469936">
        <ele>1783.957</ele>
        <time>2022-08-25T05:50:35Z</time>
      </trkpt>
      <trkpt lat="42.622972" lon="0.470062">
        <ele>1783.193</ele>
        <time>2022-08-25T05:50:46Z</time>
      </trkpt>
      <trkpt lat="42.622952" lon="0.470185">
        <ele>1782.646</ele>
        <time>2022-08-25T05:50:57Z</time>
      </trkpt>
      <trkpt lat="42.622948" lon="0.470314">
        <ele>1781.734</ele>
        <time>2022-08-25T05:51:05Z</time>
      </trkpt>
      <trkpt lat="42.622889" lon="0.470413">
        <ele>1781.137</ele>
        <time>2022-08-25T05:51:14Z</time>
      </trkpt>
      <trkpt lat="42.622804" lon="0.470482">
        <ele>1780.594</ele>
        <time>2022-08-25T05:51:25Z</time>
      </trkpt>
      <trkpt lat="42.622798" lon="0.470618">
        <ele>1780.76</ele>
        <time>2022-08-25T05:51:35Z</time>
      </trkpt>
      <trkpt lat="42.62277" lon="0.470747">
        <ele>1781.806</ele>
        <time>2022-08-25T05:51:46Z</time>
      </trkpt>
      <trkpt lat="42.622762" lon="0.470872">
        <ele>1782.504</ele>
        <time>2022-08-25T05:51:55Z</time>
      </trkpt>
      <trkpt lat="42.622705" lon="0.470968">
        <ele>1782.452</ele>
        <time>2022-08-25T05:52:06Z</time>
      </trkpt>
      <trkpt lat="42.622667" lon="0.471084">
        <ele>1782.153</ele>
        <time>2022-08-25T05:52:16Z</time>
      </trkpt>
      <trkpt lat="42.622634" lon="0.4712">
        <ele>1781.606</ele>
        <time>2022-08-25T05:52:28Z</time>
      </trkpt>
      <trkpt lat="42.622607" lon="0.471326">
        <ele>1780.734</ele>
        <time>2022-08-25T05:52:38Z</time>
      </trkpt>
      <trkpt lat="42.622534" lon="0.471404">
        <ele>1780.391</ele>
        <time>2022-08-25T05:52:49Z</time>
      </trkpt>
      <trkpt lat="42.622438" lon="0.471403">
        <ele>1780.366</ele>
        <time>2022-08-25T05:53:01Z</time>
      </trkpt>
      <trkpt lat="42.622356" lon="0.471472">
        <ele>1778.845</ele>
        <time>2022-08-25T05:53:13Z</time>
      </trkpt>
      <trkpt lat="42.622285" lon="0.471556">
        <ele>1777.137</ele>
        <time>2022-08-25T05:53:22Z</time>
      </trkpt>
      <trkpt lat="42.622186" lon="0.471578">
        <ele>1775.088</ele>
        <time>2022-08-25T05:53:31Z</time>
      </trkpt>
      <trkpt lat="42.622101" lon="0.471623">
        <ele>1773.769</ele>
        <time>2022-08-25T05:53:39Z</time>
      </trkpt>
      <trkpt lat="42.622052" lon="0.471731">
        <ele>1772.646</ele>
        <time>2022-08-25T05:53:48Z</time>
      </trkpt>
      <trkpt lat="42.621997" lon="0.471837">
        <ele>1771.293</ele>
        <time>2022-08-25T05:53:57Z</time>
      </trkpt>
      <trkpt lat="42.621942" lon="0.471935">
        <ele>1769.593</ele>
        <time>2022-08-25T05:54:05Z</time>
      </trkpt>
      <trkpt lat="42.621876" lon="0.472034">
        <ele>1768.205</ele>
        <time>2022-08-25T05:54:14Z</time>
      </trkpt>
      <trkpt lat="42.621803" lon="0.472117">
        <ele>1767.338</ele>
        <time>2022-08-25T05:54:23Z</time>
      </trkpt>
      <trkpt lat="42.621758" lon="0.472231">
        <ele>1766.05</ele>
        <time>2022-08-25T05:54:31Z</time>
      </trkpt>
      <trkpt lat="42.621723" lon="0.472353">
        <ele>1765.349</ele>
        <time>2022-08-25T05:54:39Z</time>
      </trkpt>
      <trkpt lat="42.621685" lon="0.472471">
        <ele>1764.776</ele>
        <time>2022-08-25T05:54:48Z</time>
      </trkpt>
      <trkpt lat="42.621663" lon="0.472598">
        <ele>1763.612</ele>
        <time>2022-08-25T05:54:58Z</time>
      </trkpt>
      <trkpt lat="42.621642" lon="0.472718">
        <ele>1763.078</ele>
        <time>2022-08-25T05:55:06Z</time>
      </trkpt>
      <trkpt lat="42.621612" lon="0.472844">
        <ele>1762.769</ele>
        <time>2022-08-25T05:55:14Z</time>
      </trkpt>
      <trkpt lat="42.621569" lon="0.472955">
        <ele>1762.769</ele>
        <time>2022-08-25T05:55:22Z</time>
      </trkpt>
      <trkpt lat="42.621542" lon="0.473078">
        <ele>1762.533</ele>
        <time>2022-08-25T05:55:31Z</time>
      </trkpt>
      <trkpt lat="42.621518" lon="0.473204">
        <ele>1761.766</ele>
        <time>2022-08-25T05:55:41Z</time>
      </trkpt>
      <trkpt lat="42.621457" lon="0.473308">
        <ele>1759.973</ele>
        <time>2022-08-25T05:55:51Z</time>
      </trkpt>
      <trkpt lat="42.621405" lon="0.473409">
        <ele>1757.57</ele>
        <time>2022-08-25T05:56:02Z</time>
      </trkpt>
      <trkpt lat="42.621347" lon="0.473503">
        <ele>1755.659</ele>
        <time>2022-08-25T05:56:12Z</time>
      </trkpt>
      <trkpt lat="42.621278" lon="0.473587">
        <ele>1754.284</ele>
        <time>2022-08-25T05:56:26Z</time>
      </trkpt>
      <trkpt lat="42.621229" lon="0.473699">
        <ele>1753.146</ele>
        <time>2022-08-25T05:56:35Z</time>
      </trkpt>
      <trkpt lat="42.621186" lon="0.473809">
        <ele>1752.357</ele>
        <time>2022-08-25T05:56:43Z</time>
      </trkpt>
      <trkpt lat="42.621162" lon="0.473928">
        <ele>1751.267</ele>
        <time>2022-08-25T05:56:50Z</time>
      </trkpt>
      <trkpt lat="42.621118" lon="0.474043">
        <ele>1750.548</ele>
        <time>2022-08-25T05:56:58Z</time>
      </trkpt>
      <trkpt lat="42.621066" lon="0.474147">
        <ele>1749.359</ele>
        <time>2022-08-25T05:57:07Z</time>
      </trkpt>
      <trkpt lat="42.621049" lon="0.474275">
        <ele>1748.222</ele>
        <time>2022-08-25T05:57:16Z</time>
      </trkpt>
      <trkpt lat="42.621024" lon="0.474405">
        <ele>1747.256</ele>
        <time>2022-08-25T05:57:25Z</time>
      </trkpt>
      <trkpt lat="42.620958" lon="0.474506">
        <ele>1745.968</ele>
        <time>2022-08-25T05:57:35Z</time>
      </trkpt>
      <trkpt lat="42.620906" lon="0.474617">
        <ele>1744.982</ele>
        <time>2022-08-25T05:57:44Z</time>
      </trkpt>
      <trkpt lat="42.620868" lon="0.474738">
        <ele>1744.184</ele>
        <time>2022-08-25T05:57:52Z</time>
      </trkpt>
      <trkpt lat="42.620835" lon="0.47486">
        <ele>1743.348</ele>
        <time>2022-08-25T05:58:01Z</time>
      </trkpt>
      <trkpt lat="42.6208" lon="0.474973">
        <ele>1742.091</ele>
        <time>2022-08-25T05:58:09Z</time>
      </trkpt>
      <trkpt lat="42.620738" lon="0.475078">
        <ele>1741.462</ele>
        <time>2022-08-25T05:58:17Z</time>
      </trkpt>
      <trkpt lat="42.62068" lon="0.475175">
        <ele>1741.092</ele>
        <time>2022-08-25T05:58:24Z</time>
      </trkpt>
      <trkpt lat="42.62063" lon="0.47528">
        <ele>1741.328</ele>
        <time>2022-08-25T05:58:32Z</time>
      </trkpt>
      <trkpt lat="42.620589" lon="0.475394">
        <ele>1741.637</ele>
        <time>2022-08-25T05:58:40Z</time>
      </trkpt>
      <trkpt lat="42.620549" lon="0.475506">
        <ele>1741.734</ele>
        <time>2022-08-25T05:58:48Z</time>
      </trkpt>
      <trkpt lat="42.620505" lon="0.475614">
        <ele>1741.886</ele>
        <time>2022-08-25T05:58:56Z</time>
      </trkpt>
      <trkpt lat="42.620467" lon="0.475738">
        <ele>1742.15</ele>
        <time>2022-08-25T05:59:04Z</time>
      </trkpt>
      <trkpt lat="42.62039" lon="0.475821">
        <ele>1743.391</ele>
        <time>2022-08-25T05:59:15Z</time>
      </trkpt>
      <trkpt lat="42.620339" lon="0.47593">
        <ele>1744.816</ele>
        <time>2022-08-25T05:59:26Z</time>
      </trkpt>
      <trkpt lat="42.620287" lon="0.476035">
        <ele>1746.889</ele>
        <time>2022-08-25T05:59:38Z</time>
      </trkpt>
      <trkpt lat="42.620226" lon="0.476124">
        <ele>1748.631</ele>
        <time>2022-08-25T05:59:50Z</time>
      </trkpt>
      <trkpt lat="42.620136" lon="0.476173">
        <ele>1750.201</ele>
        <time>2022-08-25T06:00:05Z</time>
      </trkpt>
      <trkpt lat="42.620059" lon="0.476256">
        <ele>1749.603</ele>
        <time>2022-08-25T06:00:14Z</time>
      </trkpt>
      <trkpt lat="42.619995" lon="0.476344">
        <ele>1748.742</ele>
        <time>2022-08-25T06:00:24Z</time>
      </trkpt>
      <trkpt lat="42.619905" lon="0.476388">
        <ele>1748.019</ele>
        <time>2022-08-25T06:00:32Z</time>
      </trkpt>
      <trkpt lat="42.619817" lon="0.476452">
        <ele>1747.901</ele>
        <time>2022-08-25T06:00:41Z</time>
      </trkpt>
      <trkpt lat="42.619741" lon="0.476522">
        <ele>1749.147</ele>
        <time>2022-08-25T06:00:50Z</time>
      </trkpt>
      <trkpt lat="42.61965" lon="0.476556">
        <ele>1749.264</ele>
        <time>2022-08-25T06:00:59Z</time>
      </trkpt>
      <trkpt lat="42.619562" lon="0.476599">
        <ele>1748.148</ele>
        <time>2022-08-25T06:01:08Z</time>
      </trkpt>
      <trkpt lat="42.619467" lon="0.47662">
        <ele>1746.138</ele>
        <time>2022-08-25T06:01:21Z</time>
      </trkpt>
      <trkpt lat="42.619376" lon="0.476628">
        <ele>1743.197</ele>
        <time>2022-08-25T06:01:32Z</time>
      </trkpt>
      <trkpt lat="42.619272" lon="0.47664">
        <ele>1741.249</ele>
        <time>2022-08-25T06:01:43Z</time>
      </trkpt>
      <trkpt lat="42.61918" lon="0.47664">
        <ele>1739.036</ele>
        <time>2022-08-25T06:01:54Z</time>
      </trkpt>
      <trkpt lat="42.619238" lon="0.476737">
        <ele>1735.37</ele>
        <time>2022-08-25T06:02:13Z</time>
      </trkpt>
      <trkpt lat="42.619148" lon="0.476762">
        <ele>1732.79</ele>
        <time>2022-08-25T06:02:24Z</time>
      </trkpt>
      <trkpt lat="42.619054" lon="0.476768">
        <ele>1730.228</ele>
        <time>2022-08-25T06:02:36Z</time>
      </trkpt>
      <trkpt lat="42.619006" lon="0.476887">
        <ele>1724.865</ele>
        <time>2022-08-25T06:03:04Z</time>
      </trkpt>
      <trkpt lat="42.618915" lon="0.476908">
        <ele>1721.951</ele>
        <time>2022-08-25T06:03:14Z</time>
      </trkpt>
      <trkpt lat="42.618843" lon="0.47699">
        <ele>1718.836</ele>
        <time>2022-08-25T06:03:26Z</time>
      </trkpt>
      <trkpt lat="42.618759" lon="0.477051">
        <ele>1716.45</ele>
        <time>2022-08-25T06:03:36Z</time>
      </trkpt>
      <trkpt lat="42.618679" lon="0.477111">
        <ele>1713.997</ele>
        <time>2022-08-25T06:03:46Z</time>
      </trkpt>
      <trkpt lat="42.618581" lon="0.477159">
        <ele>1712.309</ele>
        <time>2022-08-25T06:03:56Z</time>
      </trkpt>
      <trkpt lat="42.61849" lon="0.477194">
        <ele>1711.574</ele>
        <time>2022-08-25T06:04:05Z</time>
      </trkpt>
      <trkpt lat="42.618399" lon="0.477229">
        <ele>1710.278</ele>
        <time>2022-08-25T06:04:14Z</time>
      </trkpt>
      <trkpt lat="42.618302" lon="0.477226">
        <ele>1709.049</ele>
        <time>2022-08-25T06:04:22Z</time>
      </trkpt>
      <trkpt lat="42.618222" lon="0.477297">
        <ele>1707.003</ele>
        <time>2022-08-25T06:04:33Z</time>
      </trkpt>
      <trkpt lat="42.618185" lon="0.477413">
        <ele>1705.349</ele>
        <time>2022-08-25T06:04:43Z</time>
      </trkpt>
      <trkpt lat="42.618111" lon="0.477484">
        <ele>1703.696</ele>
        <time>2022-08-25T06:04:53Z</time>
      </trkpt>
      <trkpt lat="42.618032" lon="0.477423">
        <ele>1702.405</ele>
        <time>2022-08-25T06:05:02Z</time>
      </trkpt>
      <trkpt lat="42.617952" lon="0.477359">
        <ele>1700.952</ele>
        <time>2022-08-25T06:05:11Z</time>
      </trkpt>
      <trkpt lat="42.617875" lon="0.477292">
        <ele>1699.919</ele>
        <time>2022-08-25T06:05:18Z</time>
      </trkpt>
      <trkpt lat="42.617762" lon="0.477287">
        <ele>1697.301</ele>
        <time>2022-08-25T06:05:34Z</time>
      </trkpt>
      <trkpt lat="42.617668" lon="0.477308">
        <ele>1696</ele>
        <time>2022-08-25T06:05:42Z</time>
      </trkpt>
      <trkpt lat="42.617575" lon="0.477344">
        <ele>1694.902</ele>
        <time>2022-08-25T06:05:51Z</time>
      </trkpt>
      <trkpt lat="42.617485" lon="0.477386">
        <ele>1694.051</ele>
        <time>2022-08-25T06:06:00Z</time>
      </trkpt>
      <trkpt lat="42.617389" lon="0.477365">
        <ele>1692.464</ele>
        <time>2022-08-25T06:06:12Z</time>
      </trkpt>
      <trkpt lat="42.617296" lon="0.477331">
        <ele>1690.709</ele>
        <time>2022-08-25T06:06:21Z</time>
      </trkpt>
      <trkpt lat="42.617204" lon="0.477327">
        <ele>1689.407</ele>
        <time>2022-08-25T06:06:30Z</time>
      </trkpt>
      <trkpt lat="42.617128" lon="0.47741">
        <ele>1688.048</ele>
        <time>2022-08-25T06:06:39Z</time>
      </trkpt>
      <trkpt lat="42.617137" lon="0.477538">
        <ele>1687.737</ele>
        <time>2022-08-25T06:06:50Z</time>
      </trkpt>
      <trkpt lat="42.617124" lon="0.477664">
        <ele>1685.445</ele>
        <time>2022-08-25T06:07:01Z</time>
      </trkpt>
      <trkpt lat="42.617151" lon="0.477785">
        <ele>1682.666</ele>
        <time>2022-08-25T06:07:14Z</time>
      </trkpt>
      <trkpt lat="42.617096" lon="0.477905">
        <ele>1680.199</ele>
        <time>2022-08-25T06:07:27Z</time>
      </trkpt>
      <trkpt lat="42.617091" lon="0.478041">
        <ele>1677.996</ele>
        <time>2022-08-25T06:07:37Z</time>
      </trkpt>
      <trkpt lat="42.617072" lon="0.478164">
        <ele>1675.849</ele>
        <time>2022-08-25T06:07:47Z</time>
      </trkpt>
      <trkpt lat="42.617153" lon="0.478098">
        <ele>1671</ele>
        <time>2022-08-25T06:08:04Z</time>
      </trkpt>
      <trkpt lat="42.617226" lon="0.478172">
        <ele>1666.852</ele>
        <time>2022-08-25T06:08:28Z</time>
      </trkpt>
      <trkpt lat="42.617203" lon="0.478313">
        <ele>1662.377</ele>
        <time>2022-08-25T06:08:49Z</time>
      </trkpt>
      <trkpt lat="42.617183" lon="0.47844">
        <ele>1657</ele>
        <time>2022-08-25T06:09:06Z</time>
      </trkpt>
      <trkpt lat="42.617145" lon="0.478554">
        <ele>1655.591</ele>
        <time>2022-08-25T06:09:15Z</time>
      </trkpt>
      <trkpt lat="42.617147" lon="0.478679">
        <ele>1653.31</ele>
        <time>2022-08-25T06:09:25Z</time>
      </trkpt>
      <trkpt lat="42.617058" lon="0.478752">
        <ele>1649</ele>
        <time>2022-08-25T06:09:51Z</time>
      </trkpt>
      <trkpt lat="42.616959" lon="0.478681">
        <ele>1647</ele>
        <time>2022-08-25T06:10:03Z</time>
      </trkpt>
      <trkpt lat="42.616888" lon="0.478572">
        <ele>1644</ele>
        <time>2022-08-25T06:10:16Z</time>
      </trkpt>
      <trkpt lat="42.616822" lon="0.478478">
        <ele>1642.261</ele>
        <time>2022-08-25T06:10:28Z</time>
      </trkpt>
      <trkpt lat="42.616724" lon="0.478504">
        <ele>1636</ele>
        <time>2022-08-25T06:10:50Z</time>
      </trkpt>
      <trkpt lat="42.616635" lon="0.478515">
        <ele>1633.321</ele>
        <time>2022-08-25T06:11:07Z</time>
      </trkpt>
      <trkpt lat="42.61654" lon="0.478503">
        <ele>1629</ele>
        <time>2022-08-25T06:11:21Z</time>
      </trkpt>
      <trkpt lat="42.616432" lon="0.478435">
        <ele>1626</ele>
        <time>2022-08-25T06:11:37Z</time>
      </trkpt>
      <trkpt lat="42.61637" lon="0.47834">
        <ele>1624</ele>
        <time>2022-08-25T06:11:48Z</time>
      </trkpt>
      <trkpt lat="42.616328" lon="0.478219">
        <ele>1622</ele>
        <time>2022-08-25T06:11:59Z</time>
      </trkpt>
      <trkpt lat="42.616253" lon="0.478106">
        <ele>1620</ele>
        <time>2022-08-25T06:12:12Z</time>
      </trkpt>
      <trkpt lat="42.616153" lon="0.478059">
        <ele>1618</ele>
        <time>2022-08-25T06:12:26Z</time>
      </trkpt>
      <trkpt lat="42.616087" lon="0.477931">
        <ele>1615</ele>
        <time>2022-08-25T06:12:42Z</time>
      </trkpt>
      <trkpt lat="42.616017" lon="0.477832">
        <ele>1613</ele>
        <time>2022-08-25T06:12:56Z</time>
      </trkpt>
      <trkpt lat="42.615943" lon="0.477749">
        <ele>1610</ele>
        <time>2022-08-25T06:13:10Z</time>
      </trkpt>
      <trkpt lat="42.615858" lon="0.477633">
        <ele>1607</ele>
        <time>2022-08-25T06:13:28Z</time>
      </trkpt>
      <trkpt lat="42.615818" lon="0.477515">
        <ele>1604</ele>
        <time>2022-08-25T06:13:50Z</time>
      </trkpt>
      <trkpt lat="42.615795" lon="0.477649">
        <ele>1600</ele>
        <time>2022-08-25T06:14:08Z</time>
      </trkpt>
      <trkpt lat="42.615797" lon="0.477809">
        <ele>1597</ele>
        <time>2022-08-25T06:14:24Z</time>
      </trkpt>
      <trkpt lat="42.615816" lon="0.477931">
        <ele>1595</ele>
        <time>2022-08-25T06:14:36Z</time>
      </trkpt>
      <trkpt lat="42.61583" lon="0.47809">
        <ele>1591</ele>
        <time>2022-08-25T06:14:52Z</time>
      </trkpt>
      <trkpt lat="42.615837" lon="0.478217">
        <ele>1589</ele>
        <time>2022-08-25T06:15:04Z</time>
      </trkpt>
      <trkpt lat="42.615807" lon="0.478338">
        <ele>1587</ele>
        <time>2022-08-25T06:15:16Z</time>
      </trkpt>
      <trkpt lat="42.615709" lon="0.478326">
        <ele>1585</ele>
        <time>2022-08-25T06:16:18Z</time>
      </trkpt>
      <trkpt lat="42.615583" lon="0.478286">
        <ele>1583</ele>
        <time>2022-08-25T06:16:30Z</time>
      </trkpt>
      <trkpt lat="42.615452" lon="0.478262">
        <ele>1582</ele>
        <time>2022-08-25T06:16:42Z</time>
      </trkpt>
      <trkpt lat="42.615359" lon="0.478291">
        <ele>1581</ele>
        <time>2022-08-25T06:16:54Z</time>
      </trkpt>
      <trkpt lat="42.615285" lon="0.478222">
        <ele>1579</ele>
        <time>2022-08-25T06:17:10Z</time>
      </trkpt>
      <trkpt lat="42.615162" lon="0.478155">
        <ele>1579</ele>
        <time>2022-08-25T06:18:30Z</time>
      </trkpt>
      <trkpt lat="42.615051" lon="0.478162">
        <ele>1578</ele>
        <time>2022-08-25T06:18:38Z</time>
      </trkpt>
      <trkpt lat="42.614944" lon="0.478181">
        <ele>1577</ele>
        <time>2022-08-25T06:18:46Z</time>
      </trkpt>
      <trkpt lat="42.614845" lon="0.478193">
        <ele>1575</ele>
        <time>2022-08-25T06:18:54Z</time>
      </trkpt>
      <trkpt lat="42.614734" lon="0.478165">
        <ele>1573</ele>
        <time>2022-08-25T06:19:02Z</time>
      </trkpt>
      <trkpt lat="42.61463" lon="0.478184">
        <ele>1572</ele>
        <time>2022-08-25T06:19:10Z</time>
      </trkpt>
      <trkpt lat="42.614525" lon="0.478208">
        <ele>1570</ele>
        <time>2022-08-25T06:19:18Z</time>
      </trkpt>
      <trkpt lat="42.614444" lon="0.478289">
        <ele>1568</ele>
        <time>2022-08-25T06:19:26Z</time>
      </trkpt>
      <trkpt lat="42.614359" lon="0.478379">
        <ele>1567</ele>
        <time>2022-08-25T06:19:34Z</time>
      </trkpt>
      <trkpt lat="42.614284" lon="0.478456">
        <ele>1566</ele>
        <time>2022-08-25T06:19:42Z</time>
      </trkpt>
      <trkpt lat="42.614188" lon="0.478489">
        <ele>1565</ele>
        <time>2022-08-25T06:19:50Z</time>
      </trkpt>
      <trkpt lat="42.614077" lon="0.478398">
        <ele>1562</ele>
        <time>2022-08-25T06:20:10Z</time>
      </trkpt>
      <trkpt lat="42.613987" lon="0.478383">
        <ele>1560</ele>
        <time>2022-08-25T06:20:18Z</time>
      </trkpt>
      <trkpt lat="42.613927" lon="0.478413">
        <ele>1560</ele>
        <time>2022-08-25T06:21:06Z</time>
      </trkpt>
    </trkseg>
  </trk>
</gpx>
